<?xml version="1.0" encoding="UTF-8" standalone="no" ?>
<gpx xmlns="http://www.topografix.com/GPX/1/1" xmlns:xsi="http://www.w3.org/2001/XMLSchema-instance" xsi:schemaLocation="http://www.topografix.com/GPX/1/1 http://www.topografix.com/GPX/1/1/gpx.xsd" version="1.1" creator="VisuGPX - https://www.visugpx.com">
  <metadata>
    <name>Grand Tour de Vouan</name>
    <desc><![CDATA[Boisinges, la Pierre au Mort, Chez Calendrier, Sur Vouan, Sevraz]]></desc>
  </metadata>
  <trk>
    <name><![CDATA[2011-09-25T05:42:43Z]]></name>
    <trkseg>
      <trkpt lat="46.14198" lon="6.39822">
        <ele>598.0773926</ele>
        <time>2011-09-25T05:43:27Z</time>
      </trkpt>
      <trkpt lat="46.14214" lon="6.39841">
        <ele>601.9226074</ele>
        <time>2011-09-25T05:43:34Z</time>
      </trkpt>
      <trkpt lat="46.14224" lon="6.39854">
        <ele>602.4030762</ele>
        <time>2011-09-25T05:43:39Z</time>
      </trkpt>
      <trkpt lat="46.14235" lon="6.39871">
        <ele>607.2099609</ele>
        <time>2011-09-25T05:43:45Z</time>
      </trkpt>
      <trkpt lat="46.14245" lon="6.39884">
        <ele>609.6132813</ele>
        <time>2011-09-25T05:43:50Z</time>
      </trkpt>
      <trkpt lat="46.14255" lon="6.39899">
        <ele>608.6518555</ele>
        <time>2011-09-25T05:43:55Z</time>
      </trkpt>
      <trkpt lat="46.14262" lon="6.39913">
        <ele>610.09375</ele>
        <time>2011-09-25T05:43:59Z</time>
      </trkpt>
      <trkpt lat="46.1427" lon="6.39924">
        <ele>611.5358887</ele>
        <time>2011-09-25T05:44:03Z</time>
      </trkpt>
      <trkpt lat="46.14278" lon="6.39939">
        <ele>611.5358887</ele>
        <time>2011-09-25T05:44:08Z</time>
      </trkpt>
      <trkpt lat="46.14286" lon="6.39954">
        <ele>611.0551758</ele>
        <time>2011-09-25T05:44:13Z</time>
      </trkpt>
      <trkpt lat="46.14295" lon="6.39971">
        <ele>611.5358887</ele>
        <time>2011-09-25T05:44:19Z</time>
      </trkpt>
      <trkpt lat="46.14302" lon="6.39985">
        <ele>612.4970703</ele>
        <time>2011-09-25T05:44:24Z</time>
      </trkpt>
      <trkpt lat="46.14311" lon="6.40002">
        <ele>613.4584961</ele>
        <time>2011-09-25T05:44:30Z</time>
      </trkpt>
      <trkpt lat="46.14321" lon="6.4002">
        <ele>614.9003906</ele>
        <time>2011-09-25T05:44:36Z</time>
      </trkpt>
      <trkpt lat="46.14328" lon="6.40035">
        <ele>614.4196777</ele>
        <time>2011-09-25T05:44:41Z</time>
      </trkpt>
      <trkpt lat="46.14333" lon="6.40047">
        <ele>614.9003906</ele>
        <time>2011-09-25T05:44:45Z</time>
      </trkpt>
      <trkpt lat="46.14338" lon="6.40053">
        <ele>614.4196777</ele>
        <time>2011-09-25T05:44:48Z</time>
      </trkpt>
      <trkpt lat="46.14348" lon="6.40049">
        <ele>614.4196777</ele>
        <time>2011-09-25T05:44:53Z</time>
      </trkpt>
      <trkpt lat="46.14353" lon="6.40043">
        <ele>613.9389648</ele>
        <time>2011-09-25T05:44:56Z</time>
      </trkpt>
      <trkpt lat="46.14361" lon="6.40023">
        <ele>612.9777832</ele>
        <time>2011-09-25T05:45:02Z</time>
      </trkpt>
      <trkpt lat="46.14367" lon="6.40008">
        <ele>612.9777832</ele>
        <time>2011-09-25T05:45:07Z</time>
      </trkpt>
      <trkpt lat="46.14372" lon="6.39994">
        <ele>612.0166016</ele>
        <time>2011-09-25T05:45:11Z</time>
      </trkpt>
      <trkpt lat="46.1438" lon="6.39976">
        <ele>609.6132813</ele>
        <time>2011-09-25T05:45:17Z</time>
      </trkpt>
      <trkpt lat="46.14386" lon="6.39963">
        <ele>608.1713867</ele>
        <time>2011-09-25T05:45:21Z</time>
      </trkpt>
      <trkpt lat="46.14392" lon="6.3995">
        <ele>606.729248</ele>
        <time>2011-09-25T05:45:25Z</time>
      </trkpt>
      <trkpt lat="46.14399" lon="6.39929">
        <ele>605.7680664</ele>
        <time>2011-09-25T05:45:31Z</time>
      </trkpt>
      <trkpt lat="46.14403" lon="6.39916">
        <ele>604.8066406</ele>
        <time>2011-09-25T05:45:35Z</time>
      </trkpt>
      <trkpt lat="46.1441" lon="6.39901">
        <ele>605.7680664</ele>
        <time>2011-09-25T05:45:40Z</time>
      </trkpt>
      <trkpt lat="46.14416" lon="6.39879">
        <ele>608.1713867</ele>
        <time>2011-09-25T05:45:46Z</time>
      </trkpt>
      <trkpt lat="46.1442" lon="6.39863">
        <ele>608.1713867</ele>
        <time>2011-09-25T05:45:51Z</time>
      </trkpt>
      <trkpt lat="46.14427" lon="6.39843">
        <ele>608.1713867</ele>
        <time>2011-09-25T05:45:57Z</time>
      </trkpt>
      <trkpt lat="46.14431" lon="6.39832">
        <ele>608.6518555</ele>
        <time>2011-09-25T05:46:00Z</time>
      </trkpt>
      <trkpt lat="46.14441" lon="6.39808">
        <ele>608.6518555</ele>
        <time>2011-09-25T05:46:07Z</time>
      </trkpt>
      <trkpt lat="46.1445" lon="6.398">
        <ele>610.09375</ele>
        <time>2011-09-25T05:46:11Z</time>
      </trkpt>
      <trkpt lat="46.14466" lon="6.39794">
        <ele>610.09375</ele>
        <time>2011-09-25T05:46:17Z</time>
      </trkpt>
      <trkpt lat="46.14482" lon="6.39792">
        <ele>610.09375</ele>
        <time>2011-09-25T05:46:22Z</time>
      </trkpt>
      <trkpt lat="46.14496" lon="6.39797">
        <ele>608.1713867</ele>
        <time>2011-09-25T05:46:27Z</time>
      </trkpt>
      <trkpt lat="46.14506" lon="6.39808">
        <ele>606.729248</ele>
        <time>2011-09-25T05:46:32Z</time>
      </trkpt>
      <trkpt lat="46.14522" lon="6.3982">
        <ele>609.1325684</ele>
        <time>2011-09-25T05:46:38Z</time>
      </trkpt>
      <trkpt lat="46.14535" lon="6.39836">
        <ele>612.4970703</ele>
        <time>2011-09-25T05:46:44Z</time>
      </trkpt>
      <trkpt lat="46.14549" lon="6.39846">
        <ele>613.9389648</ele>
        <time>2011-09-25T05:46:49Z</time>
      </trkpt>
      <trkpt lat="46.1456" lon="6.3985">
        <ele>612.0166016</ele>
        <time>2011-09-25T05:46:54Z</time>
      </trkpt>
      <trkpt lat="46.14571" lon="6.39864">
        <ele>607.2099609</ele>
        <time>2011-09-25T05:47:01Z</time>
      </trkpt>
      <trkpt lat="46.14576" lon="6.39875">
        <ele>603.8452148</ele>
        <time>2011-09-25T05:47:05Z</time>
      </trkpt>
      <trkpt lat="46.14585" lon="6.39886">
        <ele>604.3261719</ele>
        <time>2011-09-25T05:47:10Z</time>
      </trkpt>
      <trkpt lat="46.14592" lon="6.39898">
        <ele>605.7680664</ele>
        <time>2011-09-25T05:47:14Z</time>
      </trkpt>
      <trkpt lat="46.14597" lon="6.39905">
        <ele>607.2099609</ele>
        <time>2011-09-25T05:47:16Z</time>
      </trkpt>
      <trkpt lat="46.14611" lon="6.39922">
        <ele>610.09375</ele>
        <time>2011-09-25T05:47:23Z</time>
      </trkpt>
      <trkpt lat="46.14619" lon="6.3993">
        <ele>610.09375</ele>
        <time>2011-09-25T05:47:28Z</time>
      </trkpt>
      <trkpt lat="46.14628" lon="6.39933">
        <ele>609.6132813</ele>
        <time>2011-09-25T05:47:32Z</time>
      </trkpt>
      <trkpt lat="46.14635" lon="6.39939">
        <ele>610.09375</ele>
        <time>2011-09-25T05:47:36Z</time>
      </trkpt>
      <trkpt lat="46.14638" lon="6.39944">
        <ele>610.5744629</ele>
        <time>2011-09-25T05:47:38Z</time>
      </trkpt>
      <trkpt lat="46.1465" lon="6.39963">
        <ele>609.1325684</ele>
        <time>2011-09-25T05:47:45Z</time>
      </trkpt>
      <trkpt lat="46.14654" lon="6.39969">
        <ele>609.1325684</ele>
        <time>2011-09-25T05:47:47Z</time>
      </trkpt>
      <trkpt lat="46.14661" lon="6.39978">
        <ele>607.2099609</ele>
        <time>2011-09-25T05:47:51Z</time>
      </trkpt>
      <trkpt lat="46.14676" lon="6.39993">
        <ele>614.4196777</ele>
        <time>2011-09-25T05:47:58Z</time>
      </trkpt>
      <trkpt lat="46.14685" lon="6.39999">
        <ele>615.3811035</ele>
        <time>2011-09-25T05:48:02Z</time>
      </trkpt>
      <trkpt lat="46.1469" lon="6.40004">
        <ele>615.8618164</ele>
        <time>2011-09-25T05:48:05Z</time>
      </trkpt>
      <trkpt lat="46.14698" lon="6.40003">
        <ele>616.3422852</ele>
        <time>2011-09-25T05:48:10Z</time>
      </trkpt>
      <trkpt lat="46.147" lon="6.40002">
        <ele>616.3422852</ele>
        <time>2011-09-25T05:48:11Z</time>
      </trkpt>
      <trkpt lat="46.14712" lon="6.39993">
        <ele>617.3037109</ele>
        <time>2011-09-25T05:48:17Z</time>
      </trkpt>
      <trkpt lat="46.1472" lon="6.39986">
        <ele>619.2263184</ele>
        <time>2011-09-25T05:48:21Z</time>
      </trkpt>
      <trkpt lat="46.1473" lon="6.39981">
        <ele>619.2263184</ele>
        <time>2011-09-25T05:48:25Z</time>
      </trkpt>
      <trkpt lat="46.14739" lon="6.3998">
        <ele>617.7841797</ele>
        <time>2011-09-25T05:48:29Z</time>
      </trkpt>
      <trkpt lat="46.14741" lon="6.39979">
        <ele>616.822998</ele>
        <time>2011-09-25T05:48:30Z</time>
      </trkpt>
      <trkpt lat="46.14748" lon="6.39983">
        <ele>616.3422852</ele>
        <time>2011-09-25T05:48:33Z</time>
      </trkpt>
      <trkpt lat="46.14759" lon="6.4">
        <ele>614.4196777</ele>
        <time>2011-09-25T05:48:39Z</time>
      </trkpt>
      <trkpt lat="46.1477" lon="6.40014">
        <ele>614.4196777</ele>
        <time>2011-09-25T05:48:44Z</time>
      </trkpt>
      <trkpt lat="46.14773" lon="6.40019">
        <ele>612.9777832</ele>
        <time>2011-09-25T05:48:46Z</time>
      </trkpt>
      <trkpt lat="46.14786" lon="6.4003">
        <ele>612.0166016</ele>
        <time>2011-09-25T05:48:52Z</time>
      </trkpt>
      <trkpt lat="46.14792" lon="6.40031">
        <ele>612.0166016</ele>
        <time>2011-09-25T05:48:55Z</time>
      </trkpt>
      <trkpt lat="46.14806" lon="6.40026">
        <ele>613.4584961</ele>
        <time>2011-09-25T05:49:01Z</time>
      </trkpt>
      <trkpt lat="46.14812" lon="6.40028">
        <ele>613.4584961</ele>
        <time>2011-09-25T05:49:03Z</time>
      </trkpt>
      <trkpt lat="46.1482" lon="6.4004">
        <ele>613.9389648</ele>
        <time>2011-09-25T05:49:08Z</time>
      </trkpt>
      <trkpt lat="46.14822" lon="6.40043">
        <ele>613.9389648</ele>
        <time>2011-09-25T05:49:09Z</time>
      </trkpt>
      <trkpt lat="46.1483" lon="6.40057">
        <ele>617.3037109</ele>
        <time>2011-09-25T05:49:14Z</time>
      </trkpt>
      <trkpt lat="46.14834" lon="6.4008">
        <ele>623.5524902</ele>
        <time>2011-09-25T05:49:20Z</time>
      </trkpt>
      <trkpt lat="46.1484" lon="6.40088">
        <ele>625.4748535</ele>
        <time>2011-09-25T05:49:23Z</time>
      </trkpt>
      <trkpt lat="46.14852" lon="6.40098">
        <ele>628.3588867</ele>
        <time>2011-09-25T05:49:28Z</time>
      </trkpt>
      <trkpt lat="46.14865" lon="6.40102">
        <ele>625.9555664</ele>
        <time>2011-09-25T05:49:34Z</time>
      </trkpt>
      <trkpt lat="46.14874" lon="6.40104">
        <ele>625.4748535</ele>
        <time>2011-09-25T05:49:38Z</time>
      </trkpt>
      <trkpt lat="46.1489" lon="6.40108">
        <ele>623.0717773</ele>
        <time>2011-09-25T05:49:44Z</time>
      </trkpt>
      <trkpt lat="46.14895" lon="6.40108">
        <ele>621.1491699</ele>
        <time>2011-09-25T05:49:47Z</time>
      </trkpt>
      <trkpt lat="46.14908" lon="6.40107">
        <ele>620.1877441</ele>
        <time>2011-09-25T05:49:52Z</time>
      </trkpt>
      <trkpt lat="46.1492" lon="6.40104">
        <ele>620.1877441</ele>
        <time>2011-09-25T05:49:57Z</time>
      </trkpt>
      <trkpt lat="46.1493" lon="6.40103">
        <ele>618.2648926</ele>
        <time>2011-09-25T05:50:02Z</time>
      </trkpt>
      <trkpt lat="46.14944" lon="6.40103">
        <ele>620.1877441</ele>
        <time>2011-09-25T05:50:08Z</time>
      </trkpt>
      <trkpt lat="46.14957" lon="6.40102">
        <ele>621.6296387</ele>
        <time>2011-09-25T05:50:14Z</time>
      </trkpt>
      <trkpt lat="46.14959" lon="6.40101">
        <ele>621.6296387</ele>
        <time>2011-09-25T05:50:15Z</time>
      </trkpt>
      <trkpt lat="46.14967" lon="6.40093">
        <ele>623.0717773</ele>
        <time>2011-09-25T05:50:19Z</time>
      </trkpt>
      <trkpt lat="46.14973" lon="6.40073">
        <ele>624.032959</ele>
        <time>2011-09-25T05:50:24Z</time>
      </trkpt>
      <trkpt lat="46.14979" lon="6.40049">
        <ele>623.0717773</ele>
        <time>2011-09-25T05:50:31Z</time>
      </trkpt>
      <trkpt lat="46.1498" lon="6.40032">
        <ele>622.1103516</ele>
        <time>2011-09-25T05:50:35Z</time>
      </trkpt>
      <trkpt lat="46.14983" lon="6.40017">
        <ele>621.1491699</ele>
        <time>2011-09-25T05:50:39Z</time>
      </trkpt>
      <trkpt lat="46.14987" lon="6.39996">
        <ele>621.6296387</ele>
        <time>2011-09-25T05:50:45Z</time>
      </trkpt>
      <trkpt lat="46.14993" lon="6.39986">
        <ele>621.6296387</ele>
        <time>2011-09-25T05:50:48Z</time>
      </trkpt>
      <trkpt lat="46.15001" lon="6.39975">
        <ele>623.0717773</ele>
        <time>2011-09-25T05:50:53Z</time>
      </trkpt>
      <trkpt lat="46.15012" lon="6.39961">
        <ele>626.4362793</ele>
        <time>2011-09-25T05:50:59Z</time>
      </trkpt>
      <trkpt lat="46.1502" lon="6.39947">
        <ele>626.4362793</ele>
        <time>2011-09-25T05:51:04Z</time>
      </trkpt>
      <trkpt lat="46.15026" lon="6.39933">
        <ele>627.3977051</ele>
        <time>2011-09-25T05:51:09Z</time>
      </trkpt>
      <trkpt lat="46.15031" lon="6.39916">
        <ele>627.3977051</ele>
        <time>2011-09-25T05:51:14Z</time>
      </trkpt>
      <trkpt lat="46.15041" lon="6.39898">
        <ele>627.3977051</ele>
        <time>2011-09-25T05:51:21Z</time>
      </trkpt>
      <trkpt lat="46.15044" lon="6.39892">
        <ele>627.8781738</ele>
        <time>2011-09-25T05:51:23Z</time>
      </trkpt>
      <trkpt lat="46.15049" lon="6.39878">
        <ele>627.8781738</ele>
        <time>2011-09-25T05:51:28Z</time>
      </trkpt>
      <trkpt lat="46.15058" lon="6.39853">
        <ele>628.3588867</ele>
        <time>2011-09-25T05:51:36Z</time>
      </trkpt>
      <trkpt lat="46.15065" lon="6.39835">
        <ele>628.3588867</ele>
        <time>2011-09-25T05:51:42Z</time>
      </trkpt>
      <trkpt lat="46.1507" lon="6.3982">
        <ele>628.8395996</ele>
        <time>2011-09-25T05:51:47Z</time>
      </trkpt>
      <trkpt lat="46.15071" lon="6.39816">
        <ele>628.8395996</ele>
        <time>2011-09-25T05:51:48Z</time>
      </trkpt>
      <trkpt lat="46.15076" lon="6.39799">
        <ele>628.8395996</ele>
        <time>2011-09-25T05:51:53Z</time>
      </trkpt>
      <trkpt lat="46.15083" lon="6.39785">
        <ele>629.3200684</ele>
        <time>2011-09-25T05:51:58Z</time>
      </trkpt>
      <trkpt lat="46.15088" lon="6.39766">
        <ele>632.2041016</ele>
        <time>2011-09-25T05:52:04Z</time>
      </trkpt>
      <trkpt lat="46.15091" lon="6.39752">
        <ele>632.6848145</ele>
        <time>2011-09-25T05:52:08Z</time>
      </trkpt>
      <trkpt lat="46.15097" lon="6.39737">
        <ele>634.126709</ele>
        <time>2011-09-25T05:52:13Z</time>
      </trkpt>
      <trkpt lat="46.15102" lon="6.39719">
        <ele>634.126709</ele>
        <time>2011-09-25T05:52:19Z</time>
      </trkpt>
      <trkpt lat="46.15106" lon="6.39705">
        <ele>634.126709</ele>
        <time>2011-09-25T05:52:24Z</time>
      </trkpt>
      <trkpt lat="46.15108" lon="6.39699">
        <ele>634.126709</ele>
        <time>2011-09-25T05:52:26Z</time>
      </trkpt>
      <trkpt lat="46.15114" lon="6.39683">
        <ele>635.0881348</ele>
        <time>2011-09-25T05:52:31Z</time>
      </trkpt>
      <trkpt lat="46.15118" lon="6.39667">
        <ele>637.4914551</ele>
        <time>2011-09-25T05:52:36Z</time>
      </trkpt>
      <trkpt lat="46.15122" lon="6.39655">
        <ele>637.972168</ele>
        <time>2011-09-25T05:52:40Z</time>
      </trkpt>
      <trkpt lat="46.15127" lon="6.39636">
        <ele>638.9335938</ele>
        <time>2011-09-25T05:52:46Z</time>
      </trkpt>
      <trkpt lat="46.1513" lon="6.39629">
        <ele>638.9335938</ele>
        <time>2011-09-25T05:52:48Z</time>
      </trkpt>
      <trkpt lat="46.15132" lon="6.39614">
        <ele>637.972168</ele>
        <time>2011-09-25T05:52:53Z</time>
      </trkpt>
      <trkpt lat="46.15132" lon="6.3961">
        <ele>637.972168</ele>
        <time>2011-09-25T05:52:54Z</time>
      </trkpt>
      <trkpt lat="46.15137" lon="6.39585">
        <ele>639.4140625</ele>
        <time>2011-09-25T05:53:02Z</time>
      </trkpt>
      <trkpt lat="46.15138" lon="6.39575">
        <ele>639.8947754</ele>
        <time>2011-09-25T05:53:05Z</time>
      </trkpt>
      <trkpt lat="46.15139" lon="6.3956">
        <ele>640.855957</ele>
        <time>2011-09-25T05:53:10Z</time>
      </trkpt>
      <trkpt lat="46.15137" lon="6.39554">
        <ele>641.8173828</ele>
        <time>2011-09-25T05:53:12Z</time>
      </trkpt>
      <trkpt lat="46.15136" lon="6.39545">
        <ele>641.8173828</ele>
        <time>2011-09-25T05:53:15Z</time>
      </trkpt>
      <trkpt lat="46.1513" lon="6.39532">
        <ele>641.3366699</ele>
        <time>2011-09-25T05:53:19Z</time>
      </trkpt>
      <trkpt lat="46.1513" lon="6.39529">
        <ele>641.3366699</ele>
        <time>2011-09-25T05:53:20Z</time>
      </trkpt>
      <trkpt lat="46.15125" lon="6.3952">
        <ele>641.3366699</ele>
        <time>2011-09-25T05:53:24Z</time>
      </trkpt>
      <trkpt lat="46.15117" lon="6.39507">
        <ele>642.2980957</ele>
        <time>2011-09-25T05:53:30Z</time>
      </trkpt>
      <trkpt lat="46.1511" lon="6.39496">
        <ele>642.2980957</ele>
        <time>2011-09-25T05:53:34Z</time>
      </trkpt>
      <trkpt lat="46.15103" lon="6.39481">
        <ele>643.7399902</ele>
        <time>2011-09-25T05:53:39Z</time>
      </trkpt>
      <trkpt lat="46.15098" lon="6.3947">
        <ele>644.7011719</ele>
        <time>2011-09-25T05:53:43Z</time>
      </trkpt>
      <trkpt lat="46.15094" lon="6.39454">
        <ele>647.1044922</ele>
        <time>2011-09-25T05:53:48Z</time>
      </trkpt>
      <trkpt lat="46.15092" lon="6.39445">
        <ele>648.5463867</ele>
        <time>2011-09-25T05:53:51Z</time>
      </trkpt>
      <trkpt lat="46.15091" lon="6.3944">
        <ele>649.0270996</ele>
        <time>2011-09-25T05:53:53Z</time>
      </trkpt>
      <trkpt lat="46.15086" lon="6.39425">
        <ele>652.3918457</ele>
        <time>2011-09-25T05:53:58Z</time>
      </trkpt>
      <trkpt lat="46.15087" lon="6.39412">
        <ele>654.3146973</ele>
        <time>2011-09-25T05:54:03Z</time>
      </trkpt>
      <trkpt lat="46.1509" lon="6.39397">
        <ele>656.7177734</ele>
        <time>2011-09-25T05:54:08Z</time>
      </trkpt>
      <trkpt lat="46.15096" lon="6.39386">
        <ele>658.1599121</ele>
        <time>2011-09-25T05:54:13Z</time>
      </trkpt>
      <trkpt lat="46.15102" lon="6.39384">
        <ele>658.1599121</ele>
        <time>2011-09-25T05:54:17Z</time>
      </trkpt>
      <trkpt lat="46.15104" lon="6.39375">
        <ele>659.6018066</ele>
        <time>2011-09-25T05:54:20Z</time>
      </trkpt>
      <trkpt lat="46.15105" lon="6.39372">
        <ele>660.0822754</ele>
        <time>2011-09-25T05:54:21Z</time>
      </trkpt>
      <trkpt lat="46.1511" lon="6.39353">
        <ele>662.005127</ele>
        <time>2011-09-25T05:54:27Z</time>
      </trkpt>
      <trkpt lat="46.15112" lon="6.3934">
        <ele>662.4855957</ele>
        <time>2011-09-25T05:54:31Z</time>
      </trkpt>
      <trkpt lat="46.15116" lon="6.39327">
        <ele>662.9663086</ele>
        <time>2011-09-25T05:54:35Z</time>
      </trkpt>
      <trkpt lat="46.15122" lon="6.39306">
        <ele>662.9663086</ele>
        <time>2011-09-25T05:54:42Z</time>
      </trkpt>
      <trkpt lat="46.15124" lon="6.39292">
        <ele>663.9274902</ele>
        <time>2011-09-25T05:54:46Z</time>
      </trkpt>
      <trkpt lat="46.15128" lon="6.39269">
        <ele>664.888916</ele>
        <time>2011-09-25T05:54:53Z</time>
      </trkpt>
      <trkpt lat="46.15131" lon="6.39253">
        <ele>665.8503418</ele>
        <time>2011-09-25T05:54:58Z</time>
      </trkpt>
      <trkpt lat="46.15132" lon="6.39236">
        <ele>665.8503418</ele>
        <time>2011-09-25T05:55:03Z</time>
      </trkpt>
      <trkpt lat="46.15134" lon="6.39222">
        <ele>664.4082031</ele>
        <time>2011-09-25T05:55:07Z</time>
      </trkpt>
      <trkpt lat="46.15134" lon="6.39207">
        <ele>664.4082031</ele>
        <time>2011-09-25T05:55:11Z</time>
      </trkpt>
      <trkpt lat="46.15136" lon="6.39192">
        <ele>664.4082031</ele>
        <time>2011-09-25T05:55:16Z</time>
      </trkpt>
      <trkpt lat="46.15137" lon="6.39175">
        <ele>663.4470215</ele>
        <time>2011-09-25T05:55:21Z</time>
      </trkpt>
      <trkpt lat="46.15138" lon="6.39157">
        <ele>663.9274902</ele>
        <time>2011-09-25T05:55:26Z</time>
      </trkpt>
      <trkpt lat="46.15141" lon="6.39138">
        <ele>663.9274902</ele>
        <time>2011-09-25T05:55:31Z</time>
      </trkpt>
      <trkpt lat="46.15142" lon="6.39122">
        <ele>664.888916</ele>
        <time>2011-09-25T05:55:36Z</time>
      </trkpt>
      <trkpt lat="46.15143" lon="6.39103">
        <ele>666.8115234</ele>
        <time>2011-09-25T05:55:41Z</time>
      </trkpt>
      <trkpt lat="46.15146" lon="6.39085">
        <ele>668.2536621</ele>
        <time>2011-09-25T05:55:46Z</time>
      </trkpt>
      <trkpt lat="46.15148" lon="6.39071">
        <ele>670.1762695</ele>
        <time>2011-09-25T05:55:50Z</time>
      </trkpt>
      <trkpt lat="46.15154" lon="6.39055">
        <ele>670.1762695</ele>
        <time>2011-09-25T05:55:55Z</time>
      </trkpt>
      <trkpt lat="46.15159" lon="6.39042">
        <ele>669.6958008</ele>
        <time>2011-09-25T05:56:00Z</time>
      </trkpt>
      <trkpt lat="46.15161" lon="6.39039">
        <ele>670.1762695</ele>
        <time>2011-09-25T05:56:01Z</time>
      </trkpt>
      <trkpt lat="46.15166" lon="6.39026">
        <ele>671.1376953</ele>
        <time>2011-09-25T05:56:07Z</time>
      </trkpt>
      <trkpt lat="46.15173" lon="6.39014">
        <ele>672.098877</ele>
        <time>2011-09-25T05:56:12Z</time>
      </trkpt>
      <trkpt lat="46.15174" lon="6.39011">
        <ele>671.6181641</ele>
        <time>2011-09-25T05:56:13Z</time>
      </trkpt>
      <trkpt lat="46.15179" lon="6.39005">
        <ele>672.098877</ele>
        <time>2011-09-25T05:56:16Z</time>
      </trkpt>
      <trkpt lat="46.1519" lon="6.38983">
        <ele>673.0603027</ele>
        <time>2011-09-25T05:56:24Z</time>
      </trkpt>
      <trkpt lat="46.15192" lon="6.38981">
        <ele>672.5795898</ele>
        <time>2011-09-25T05:56:25Z</time>
      </trkpt>
      <trkpt lat="46.15202" lon="6.38964">
        <ele>673.0603027</ele>
        <time>2011-09-25T05:56:31Z</time>
      </trkpt>
      <trkpt lat="46.15216" lon="6.3895">
        <ele>675.4633789</ele>
        <time>2011-09-25T05:56:37Z</time>
      </trkpt>
      <trkpt lat="46.15218" lon="6.38947">
        <ele>675.9440918</ele>
        <time>2011-09-25T05:56:38Z</time>
      </trkpt>
      <trkpt lat="46.15222" lon="6.38932">
        <ele>678.3474121</ele>
        <time>2011-09-25T05:56:43Z</time>
      </trkpt>
      <trkpt lat="46.15228" lon="6.38906">
        <ele>674.9829102</ele>
        <time>2011-09-25T05:56:50Z</time>
      </trkpt>
      <trkpt lat="46.15231" lon="6.3889">
        <ele>671.6181641</ele>
        <time>2011-09-25T05:56:55Z</time>
      </trkpt>
      <trkpt lat="46.15237" lon="6.38871">
        <ele>672.5795898</ele>
        <time>2011-09-25T05:57:01Z</time>
      </trkpt>
      <trkpt lat="46.1524" lon="6.38862">
        <ele>674.5021973</ele>
        <time>2011-09-25T05:57:04Z</time>
      </trkpt>
      <trkpt lat="46.15249" lon="6.38847">
        <ele>676.9055176</ele>
        <time>2011-09-25T05:57:10Z</time>
      </trkpt>
      <trkpt lat="46.15255" lon="6.38833">
        <ele>679.7893066</ele>
        <time>2011-09-25T05:57:15Z</time>
      </trkpt>
      <trkpt lat="46.15261" lon="6.38819">
        <ele>681.7119141</ele>
        <time>2011-09-25T05:57:20Z</time>
      </trkpt>
      <trkpt lat="46.15265" lon="6.38796">
        <ele>684.5961914</ele>
        <time>2011-09-25T05:57:27Z</time>
      </trkpt>
      <trkpt lat="46.15267" lon="6.38774">
        <ele>684.1154785</ele>
        <time>2011-09-25T05:57:33Z</time>
      </trkpt>
      <trkpt lat="46.15267" lon="6.3877">
        <ele>683.6345215</ele>
        <time>2011-09-25T05:57:34Z</time>
      </trkpt>
      <trkpt lat="46.15269" lon="6.38756">
        <ele>683.1538086</ele>
        <time>2011-09-25T05:57:38Z</time>
      </trkpt>
      <trkpt lat="46.15271" lon="6.3873">
        <ele>682.6733398</ele>
        <time>2011-09-25T05:57:45Z</time>
      </trkpt>
      <trkpt lat="46.15272" lon="6.38713">
        <ele>681.2314453</ele>
        <time>2011-09-25T05:57:50Z</time>
      </trkpt>
      <trkpt lat="46.15275" lon="6.38687">
        <ele>678.3474121</ele>
        <time>2011-09-25T05:57:57Z</time>
      </trkpt>
      <trkpt lat="46.15276" lon="6.38669">
        <ele>677.8666992</ele>
        <time>2011-09-25T05:58:02Z</time>
      </trkpt>
      <trkpt lat="46.15277" lon="6.38653">
        <ele>678.3474121</ele>
        <time>2011-09-25T05:58:06Z</time>
      </trkpt>
      <trkpt lat="46.15278" lon="6.38635">
        <ele>678.3474121</ele>
        <time>2011-09-25T05:58:11Z</time>
      </trkpt>
      <trkpt lat="46.15279" lon="6.38622">
        <ele>679.7893066</ele>
        <time>2011-09-25T05:58:15Z</time>
      </trkpt>
      <trkpt lat="46.15278" lon="6.38614">
        <ele>680.2700195</ele>
        <time>2011-09-25T05:58:17Z</time>
      </trkpt>
      <trkpt lat="46.15277" lon="6.3859">
        <ele>679.7893066</ele>
        <time>2011-09-25T05:58:23Z</time>
      </trkpt>
      <trkpt lat="46.15278" lon="6.38586">
        <ele>680.2700195</ele>
        <time>2011-09-25T05:58:24Z</time>
      </trkpt>
      <trkpt lat="46.15279" lon="6.38566">
        <ele>680.2700195</ele>
        <time>2011-09-25T05:58:29Z</time>
      </trkpt>
      <trkpt lat="46.15279" lon="6.38548">
        <ele>680.7507324</ele>
        <time>2011-09-25T05:58:34Z</time>
      </trkpt>
      <trkpt lat="46.1528" lon="6.38537">
        <ele>680.7507324</ele>
        <time>2011-09-25T05:58:37Z</time>
      </trkpt>
      <trkpt lat="46.15281" lon="6.38519">
        <ele>681.2314453</ele>
        <time>2011-09-25T05:58:42Z</time>
      </trkpt>
      <trkpt lat="46.15288" lon="6.38489">
        <ele>680.2700195</ele>
        <time>2011-09-25T05:58:50Z</time>
      </trkpt>
      <trkpt lat="46.15292" lon="6.38472">
        <ele>679.7893066</ele>
        <time>2011-09-25T05:58:55Z</time>
      </trkpt>
      <trkpt lat="46.15299" lon="6.38457">
        <ele>679.7893066</ele>
        <time>2011-09-25T05:59:00Z</time>
      </trkpt>
      <trkpt lat="46.15299" lon="6.38435">
        <ele>680.2700195</ele>
        <time>2011-09-25T05:59:06Z</time>
      </trkpt>
      <trkpt lat="46.15297" lon="6.38418">
        <ele>681.2314453</ele>
        <time>2011-09-25T05:59:10Z</time>
      </trkpt>
      <trkpt lat="46.15294" lon="6.38398">
        <ele>682.192627</ele>
        <time>2011-09-25T05:59:15Z</time>
      </trkpt>
      <trkpt lat="46.15293" lon="6.38377">
        <ele>682.192627</ele>
        <time>2011-09-25T05:59:21Z</time>
      </trkpt>
      <trkpt lat="46.15291" lon="6.38357">
        <ele>681.7119141</ele>
        <time>2011-09-25T05:59:27Z</time>
      </trkpt>
      <trkpt lat="46.15291" lon="6.38346">
        <ele>681.7119141</ele>
        <time>2011-09-25T05:59:30Z</time>
      </trkpt>
      <trkpt lat="46.15295" lon="6.38317">
        <ele>684.5961914</ele>
        <time>2011-09-25T05:59:38Z</time>
      </trkpt>
      <trkpt lat="46.15296" lon="6.38314">
        <ele>684.5961914</ele>
        <time>2011-09-25T05:59:39Z</time>
      </trkpt>
      <trkpt lat="46.15303" lon="6.38298">
        <ele>686.9992676</ele>
        <time>2011-09-25T05:59:44Z</time>
      </trkpt>
      <trkpt lat="46.15307" lon="6.38284">
        <ele>688.9221191</ele>
        <time>2011-09-25T05:59:48Z</time>
      </trkpt>
      <trkpt lat="46.15307" lon="6.38262">
        <ele>689.4025879</ele>
        <time>2011-09-25T05:59:53Z</time>
      </trkpt>
      <trkpt lat="46.15308" lon="6.38246">
        <ele>689.4025879</ele>
        <time>2011-09-25T05:59:57Z</time>
      </trkpt>
      <trkpt lat="46.15306" lon="6.38225">
        <ele>688.4414063</ele>
        <time>2011-09-25T06:00:02Z</time>
      </trkpt>
      <trkpt lat="46.15301" lon="6.38203">
        <ele>686.9992676</ele>
        <time>2011-09-25T06:00:08Z</time>
      </trkpt>
      <trkpt lat="46.15301" lon="6.38194">
        <ele>685.557373</ele>
        <time>2011-09-25T06:00:10Z</time>
      </trkpt>
      <trkpt lat="46.15302" lon="6.38177">
        <ele>683.6345215</ele>
        <time>2011-09-25T06:00:14Z</time>
      </trkpt>
      <trkpt lat="46.15304" lon="6.38164">
        <ele>682.192627</ele>
        <time>2011-09-25T06:00:17Z</time>
      </trkpt>
      <trkpt lat="46.15307" lon="6.38157">
        <ele>680.7507324</ele>
        <time>2011-09-25T06:00:19Z</time>
      </trkpt>
      <trkpt lat="46.15317" lon="6.38136">
        <ele>678.3474121</ele>
        <time>2011-09-25T06:00:25Z</time>
      </trkpt>
      <trkpt lat="46.15318" lon="6.38132">
        <ele>678.3474121</ele>
        <time>2011-09-25T06:00:26Z</time>
      </trkpt>
      <trkpt lat="46.15326" lon="6.38114">
        <ele>676.9055176</ele>
        <time>2011-09-25T06:00:31Z</time>
      </trkpt>
      <trkpt lat="46.1534" lon="6.38088">
        <ele>675.4633789</ele>
        <time>2011-09-25T06:00:38Z</time>
      </trkpt>
      <trkpt lat="46.15349" lon="6.38071">
        <ele>675.4633789</ele>
        <time>2011-09-25T06:00:43Z</time>
      </trkpt>
      <trkpt lat="46.15357" lon="6.38058">
        <ele>674.5021973</ele>
        <time>2011-09-25T06:00:47Z</time>
      </trkpt>
      <trkpt lat="46.15367" lon="6.38043">
        <ele>674.9829102</ele>
        <time>2011-09-25T06:00:52Z</time>
      </trkpt>
      <trkpt lat="46.15376" lon="6.38025">
        <ele>675.4633789</ele>
        <time>2011-09-25T06:00:57Z</time>
      </trkpt>
      <trkpt lat="46.15389" lon="6.38003">
        <ele>673.0603027</ele>
        <time>2011-09-25T06:01:04Z</time>
      </trkpt>
      <trkpt lat="46.1539" lon="6.37998">
        <ele>673.0603027</ele>
        <time>2011-09-25T06:01:05Z</time>
      </trkpt>
      <trkpt lat="46.15392" lon="6.3798">
        <ele>673.5410156</ele>
        <time>2011-09-25T06:01:09Z</time>
      </trkpt>
      <trkpt lat="46.15402" lon="6.37957">
        <ele>671.6181641</ele>
        <time>2011-09-25T06:01:15Z</time>
      </trkpt>
      <trkpt lat="46.15404" lon="6.37953">
        <ele>671.1376953</ele>
        <time>2011-09-25T06:01:16Z</time>
      </trkpt>
      <trkpt lat="46.15407" lon="6.3793">
        <ele>669.6958008</ele>
        <time>2011-09-25T06:01:21Z</time>
      </trkpt>
      <trkpt lat="46.1541" lon="6.3792">
        <ele>671.1376953</ele>
        <time>2011-09-25T06:01:23Z</time>
      </trkpt>
      <trkpt lat="46.15425" lon="6.37913">
        <ele>670.6569824</ele>
        <time>2011-09-25T06:01:29Z</time>
      </trkpt>
      <trkpt lat="46.1544" lon="6.37906">
        <ele>671.1376953</ele>
        <time>2011-09-25T06:01:35Z</time>
      </trkpt>
      <trkpt lat="46.15453" lon="6.379">
        <ele>673.0603027</ele>
        <time>2011-09-25T06:01:41Z</time>
      </trkpt>
      <trkpt lat="46.1546" lon="6.37895">
        <ele>674.9829102</ele>
        <time>2011-09-25T06:01:44Z</time>
      </trkpt>
      <trkpt lat="46.1547" lon="6.37894">
        <ele>675.4633789</ele>
        <time>2011-09-25T06:01:49Z</time>
      </trkpt>
      <trkpt lat="46.1548" lon="6.37892">
        <ele>675.9440918</ele>
        <time>2011-09-25T06:01:54Z</time>
      </trkpt>
      <trkpt lat="46.15494" lon="6.37896">
        <ele>677.8666992</ele>
        <time>2011-09-25T06:02:00Z</time>
      </trkpt>
      <trkpt lat="46.15506" lon="6.37897">
        <ele>678.828125</ele>
        <time>2011-09-25T06:02:05Z</time>
      </trkpt>
      <trkpt lat="46.1552" lon="6.37892">
        <ele>682.6733398</ele>
        <time>2011-09-25T06:02:12Z</time>
      </trkpt>
      <trkpt lat="46.1553" lon="6.37888">
        <ele>686.5187988</ele>
        <time>2011-09-25T06:02:17Z</time>
      </trkpt>
      <trkpt lat="46.15545" lon="6.37885">
        <ele>688.9221191</ele>
        <time>2011-09-25T06:02:23Z</time>
      </trkpt>
      <trkpt lat="46.15551" lon="6.37881">
        <ele>693.2478027</ele>
        <time>2011-09-25T06:02:26Z</time>
      </trkpt>
      <trkpt lat="46.15562" lon="6.37878">
        <ele>692.767334</ele>
        <time>2011-09-25T06:02:32Z</time>
      </trkpt>
      <trkpt lat="46.15579" lon="6.37873">
        <ele>692.2866211</ele>
        <time>2011-09-25T06:02:39Z</time>
      </trkpt>
      <trkpt lat="46.1559" lon="6.37865">
        <ele>695.1704102</ele>
        <time>2011-09-25T06:02:44Z</time>
      </trkpt>
      <trkpt lat="46.15602" lon="6.3786">
        <ele>697.5737305</ele>
        <time>2011-09-25T06:02:50Z</time>
      </trkpt>
      <trkpt lat="46.15614" lon="6.3785">
        <ele>700.9384766</ele>
        <time>2011-09-25T06:02:56Z</time>
      </trkpt>
      <trkpt lat="46.15615" lon="6.37846">
        <ele>702.3803711</ele>
        <time>2011-09-25T06:02:57Z</time>
      </trkpt>
      <trkpt lat="46.15625" lon="6.37836">
        <ele>705.7451172</ele>
        <time>2011-09-25T06:03:02Z</time>
      </trkpt>
      <trkpt lat="46.15633" lon="6.3783">
        <ele>705.7451172</ele>
        <time>2011-09-25T06:03:07Z</time>
      </trkpt>
      <trkpt lat="46.15643" lon="6.37827">
        <ele>705.7451172</ele>
        <time>2011-09-25T06:03:12Z</time>
      </trkpt>
      <trkpt lat="46.15652" lon="6.3782">
        <ele>708.6289063</ele>
        <time>2011-09-25T06:03:17Z</time>
      </trkpt>
      <trkpt lat="46.15663" lon="6.37813">
        <ele>712.954834</ele>
        <time>2011-09-25T06:03:22Z</time>
      </trkpt>
      <trkpt lat="46.15672" lon="6.37813">
        <ele>711.0322266</ele>
        <time>2011-09-25T06:03:26Z</time>
      </trkpt>
      <trkpt lat="46.15688" lon="6.37803">
        <ele>709.590332</ele>
        <time>2011-09-25T06:03:33Z</time>
      </trkpt>
      <trkpt lat="46.15698" lon="6.37797">
        <ele>709.1096191</ele>
        <time>2011-09-25T06:03:37Z</time>
      </trkpt>
      <trkpt lat="46.15712" lon="6.37793">
        <ele>710.5515137</ele>
        <time>2011-09-25T06:03:43Z</time>
      </trkpt>
      <trkpt lat="46.15722" lon="6.37793">
        <ele>711.9936523</ele>
        <time>2011-09-25T06:03:47Z</time>
      </trkpt>
      <trkpt lat="46.15739" lon="6.37789">
        <ele>714.3967285</ele>
        <time>2011-09-25T06:03:54Z</time>
      </trkpt>
      <trkpt lat="46.1575" lon="6.37792">
        <ele>712.954834</ele>
        <time>2011-09-25T06:03:59Z</time>
      </trkpt>
      <trkpt lat="46.15759" lon="6.37795">
        <ele>712.4741211</ele>
        <time>2011-09-25T06:04:03Z</time>
      </trkpt>
      <trkpt lat="46.15772" lon="6.37792">
        <ele>711.9936523</ele>
        <time>2011-09-25T06:04:09Z</time>
      </trkpt>
      <trkpt lat="46.15786" lon="6.37784">
        <ele>714.8774414</ele>
        <time>2011-09-25T06:04:15Z</time>
      </trkpt>
      <trkpt lat="46.15799" lon="6.37781">
        <ele>715.8388672</ele>
        <time>2011-09-25T06:04:20Z</time>
      </trkpt>
      <trkpt lat="46.15812" lon="6.37772">
        <ele>716.3195801</ele>
        <time>2011-09-25T06:04:25Z</time>
      </trkpt>
      <trkpt lat="46.15824" lon="6.37768">
        <ele>713.4355469</ele>
        <time>2011-09-25T06:04:30Z</time>
      </trkpt>
      <trkpt lat="46.15837" lon="6.37761">
        <ele>715.3581543</ele>
        <time>2011-09-25T06:04:35Z</time>
      </trkpt>
      <trkpt lat="46.15851" lon="6.37754">
        <ele>716.800293</ele>
        <time>2011-09-25T06:04:40Z</time>
      </trkpt>
      <trkpt lat="46.15865" lon="6.37751">
        <ele>716.800293</ele>
        <time>2011-09-25T06:04:45Z</time>
      </trkpt>
      <trkpt lat="46.15868" lon="6.37752">
        <ele>715.8388672</ele>
        <time>2011-09-25T06:04:46Z</time>
      </trkpt>
      <trkpt lat="46.15886" lon="6.37755">
        <ele>715.3581543</ele>
        <time>2011-09-25T06:04:52Z</time>
      </trkpt>
      <trkpt lat="46.15902" lon="6.37755">
        <ele>715.8388672</ele>
        <time>2011-09-25T06:04:57Z</time>
      </trkpt>
      <trkpt lat="46.15912" lon="6.37751">
        <ele>717.2810059</ele>
        <time>2011-09-25T06:05:01Z</time>
      </trkpt>
      <trkpt lat="46.15923" lon="6.37751">
        <ele>717.7614746</ele>
        <time>2011-09-25T06:05:05Z</time>
      </trkpt>
      <trkpt lat="46.15933" lon="6.37752">
        <ele>716.800293</ele>
        <time>2011-09-25T06:05:09Z</time>
      </trkpt>
      <trkpt lat="46.15946" lon="6.37756">
        <ele>712.4741211</ele>
        <time>2011-09-25T06:05:14Z</time>
      </trkpt>
      <trkpt lat="46.15963" lon="6.37762">
        <ele>709.590332</ele>
        <time>2011-09-25T06:05:20Z</time>
      </trkpt>
      <trkpt lat="46.15974" lon="6.37763">
        <ele>707.1870117</ele>
        <time>2011-09-25T06:05:24Z</time>
      </trkpt>
      <trkpt lat="46.1598" lon="6.37764">
        <ele>706.2255859</ele>
        <time>2011-09-25T06:05:26Z</time>
      </trkpt>
      <trkpt lat="46.16" lon="6.37759">
        <ele>705.7451172</ele>
        <time>2011-09-25T06:05:32Z</time>
      </trkpt>
      <trkpt lat="46.16022" lon="6.37754">
        <ele>709.1096191</ele>
        <time>2011-09-25T06:05:39Z</time>
      </trkpt>
      <trkpt lat="46.16041" lon="6.37749">
        <ele>708.1484375</ele>
        <time>2011-09-25T06:05:45Z</time>
      </trkpt>
      <trkpt lat="46.16062" lon="6.3775">
        <ele>707.1870117</ele>
        <time>2011-09-25T06:05:51Z</time>
      </trkpt>
      <trkpt lat="46.16078" lon="6.37756">
        <ele>703.3417969</ele>
        <time>2011-09-25T06:05:56Z</time>
      </trkpt>
      <trkpt lat="46.16092" lon="6.37762">
        <ele>699.9770508</ele>
        <time>2011-09-25T06:06:00Z</time>
      </trkpt>
      <trkpt lat="46.16106" lon="6.37768">
        <ele>696.1318359</ele>
        <time>2011-09-25T06:06:04Z</time>
      </trkpt>
      <trkpt lat="46.16118" lon="6.37774">
        <ele>694.6896973</ele>
        <time>2011-09-25T06:06:08Z</time>
      </trkpt>
      <trkpt lat="46.16129" lon="6.37777">
        <ele>694.6896973</ele>
        <time>2011-09-25T06:06:12Z</time>
      </trkpt>
      <trkpt lat="46.16142" lon="6.37784">
        <ele>695.651123</ele>
        <time>2011-09-25T06:06:17Z</time>
      </trkpt>
      <trkpt lat="46.16153" lon="6.3779">
        <ele>697.5737305</ele>
        <time>2011-09-25T06:06:22Z</time>
      </trkpt>
      <trkpt lat="46.16165" lon="6.37808">
        <ele>693.7285156</ele>
        <time>2011-09-25T06:06:28Z</time>
      </trkpt>
      <trkpt lat="46.16176" lon="6.37826">
        <ele>690.8444824</ele>
        <time>2011-09-25T06:06:33Z</time>
      </trkpt>
      <trkpt lat="46.16185" lon="6.37842">
        <ele>691.3251953</ele>
        <time>2011-09-25T06:06:38Z</time>
      </trkpt>
      <trkpt lat="46.16192" lon="6.37858">
        <ele>693.7285156</ele>
        <time>2011-09-25T06:06:43Z</time>
      </trkpt>
      <trkpt lat="46.16202" lon="6.3787">
        <ele>694.6896973</ele>
        <time>2011-09-25T06:06:48Z</time>
      </trkpt>
      <trkpt lat="46.16216" lon="6.37881">
        <ele>698.5349121</ele>
        <time>2011-09-25T06:06:54Z</time>
      </trkpt>
      <trkpt lat="46.16226" lon="6.37886">
        <ele>696.6125488</ele>
        <time>2011-09-25T06:06:59Z</time>
      </trkpt>
      <trkpt lat="46.16236" lon="6.37888">
        <ele>698.0544434</ele>
        <time>2011-09-25T06:07:03Z</time>
      </trkpt>
      <trkpt lat="46.16244" lon="6.37889">
        <ele>696.6125488</ele>
        <time>2011-09-25T06:07:07Z</time>
      </trkpt>
      <trkpt lat="46.16246" lon="6.3789">
        <ele>697.0930176</ele>
        <time>2011-09-25T06:07:08Z</time>
      </trkpt>
      <trkpt lat="46.16246" lon="6.3789">
        <ele>697.0930176</ele>
        <time>2011-09-25T06:07:08Z</time>
      </trkpt>
      <trkpt lat="46.16259" lon="6.37894">
        <ele>696.1318359</ele>
        <time>2011-09-25T06:07:13Z</time>
      </trkpt>
      <trkpt lat="46.16275" lon="6.37899">
        <ele>696.6125488</ele>
        <time>2011-09-25T06:07:19Z</time>
      </trkpt>
      <trkpt lat="46.16278" lon="6.37901">
        <ele>696.6125488</ele>
        <time>2011-09-25T06:07:20Z</time>
      </trkpt>
      <trkpt lat="46.16294" lon="6.37911">
        <ele>696.6125488</ele>
        <time>2011-09-25T06:07:26Z</time>
      </trkpt>
      <trkpt lat="46.16303" lon="6.3791">
        <ele>697.5737305</ele>
        <time>2011-09-25T06:07:30Z</time>
      </trkpt>
      <trkpt lat="46.16316" lon="6.37909">
        <ele>698.5349121</ele>
        <time>2011-09-25T06:07:34Z</time>
      </trkpt>
      <trkpt lat="46.16328" lon="6.37913">
        <ele>697.0930176</ele>
        <time>2011-09-25T06:07:38Z</time>
      </trkpt>
      <trkpt lat="46.16334" lon="6.37926">
        <ele>695.651123</ele>
        <time>2011-09-25T06:07:42Z</time>
      </trkpt>
      <trkpt lat="46.16337" lon="6.37933">
        <ele>695.651123</ele>
        <time>2011-09-25T06:07:44Z</time>
      </trkpt>
      <trkpt lat="46.1635" lon="6.37937">
        <ele>699.4963379</ele>
        <time>2011-09-25T06:07:49Z</time>
      </trkpt>
      <trkpt lat="46.16364" lon="6.37927">
        <ele>696.6125488</ele>
        <time>2011-09-25T06:07:55Z</time>
      </trkpt>
      <trkpt lat="46.16376" lon="6.37913">
        <ele>692.2866211</ele>
        <time>2011-09-25T06:08:01Z</time>
      </trkpt>
      <trkpt lat="46.16393" lon="6.37904">
        <ele>694.2092285</ele>
        <time>2011-09-25T06:08:07Z</time>
      </trkpt>
      <trkpt lat="46.16407" lon="6.37898">
        <ele>699.015625</ele>
        <time>2011-09-25T06:08:12Z</time>
      </trkpt>
      <trkpt lat="46.16424" lon="6.37891">
        <ele>703.8225098</ele>
        <time>2011-09-25T06:08:17Z</time>
      </trkpt>
      <trkpt lat="46.16438" lon="6.37888">
        <ele>706.7062988</ele>
        <time>2011-09-25T06:08:21Z</time>
      </trkpt>
      <trkpt lat="46.16451" lon="6.37877">
        <ele>705.2644043</ele>
        <time>2011-09-25T06:08:26Z</time>
      </trkpt>
      <trkpt lat="46.1646" lon="6.37866">
        <ele>702.861084</ele>
        <time>2011-09-25T06:08:30Z</time>
      </trkpt>
      <trkpt lat="46.16474" lon="6.37861">
        <ele>699.015625</ele>
        <time>2011-09-25T06:08:36Z</time>
      </trkpt>
      <trkpt lat="46.16487" lon="6.37864">
        <ele>695.651123</ele>
        <time>2011-09-25T06:08:41Z</time>
      </trkpt>
      <trkpt lat="46.1649" lon="6.37863">
        <ele>696.1318359</ele>
        <time>2011-09-25T06:08:42Z</time>
      </trkpt>
      <trkpt lat="46.16506" lon="6.37855">
        <ele>699.9770508</ele>
        <time>2011-09-25T06:08:48Z</time>
      </trkpt>
      <trkpt lat="46.16521" lon="6.37856">
        <ele>707.1870117</ele>
        <time>2011-09-25T06:08:53Z</time>
      </trkpt>
      <trkpt lat="46.16527" lon="6.37855">
        <ele>710.5515137</ele>
        <time>2011-09-25T06:08:55Z</time>
      </trkpt>
      <trkpt lat="46.16541" lon="6.37854">
        <ele>712.954834</ele>
        <time>2011-09-25T06:09:01Z</time>
      </trkpt>
      <trkpt lat="46.16544" lon="6.37856">
        <ele>711.5129395</ele>
        <time>2011-09-25T06:09:02Z</time>
      </trkpt>
      <trkpt lat="46.16563" lon="6.37869">
        <ele>703.8225098</ele>
        <time>2011-09-25T06:09:09Z</time>
      </trkpt>
      <trkpt lat="46.16576" lon="6.37867">
        <ele>700.4580078</ele>
        <time>2011-09-25T06:09:13Z</time>
      </trkpt>
      <trkpt lat="46.16581" lon="6.37863">
        <ele>700.4580078</ele>
        <time>2011-09-25T06:09:15Z</time>
      </trkpt>
      <trkpt lat="46.16597" lon="6.37857">
        <ele>698.0544434</ele>
        <time>2011-09-25T06:09:21Z</time>
      </trkpt>
      <trkpt lat="46.16611" lon="6.37856">
        <ele>696.6125488</ele>
        <time>2011-09-25T06:09:26Z</time>
      </trkpt>
      <trkpt lat="46.16623" lon="6.37852">
        <ele>695.1704102</ele>
        <time>2011-09-25T06:09:30Z</time>
      </trkpt>
      <trkpt lat="46.1664" lon="6.37858">
        <ele>688.9221191</ele>
        <time>2011-09-25T06:09:35Z</time>
      </trkpt>
      <trkpt lat="46.16653" lon="6.37858">
        <ele>687.4799805</ele>
        <time>2011-09-25T06:09:39Z</time>
      </trkpt>
      <trkpt lat="46.16667" lon="6.37857">
        <ele>686.0380859</ele>
        <time>2011-09-25T06:09:43Z</time>
      </trkpt>
      <trkpt lat="46.16675" lon="6.37851">
        <ele>687.4799805</ele>
        <time>2011-09-25T06:09:47Z</time>
      </trkpt>
      <trkpt lat="46.16685" lon="6.37844">
        <ele>691.8059082</ele>
        <time>2011-09-25T06:09:52Z</time>
      </trkpt>
      <trkpt lat="46.16696" lon="6.37846">
        <ele>691.3251953</ele>
        <time>2011-09-25T06:09:56Z</time>
      </trkpt>
      <trkpt lat="46.16711" lon="6.37844">
        <ele>695.1704102</ele>
        <time>2011-09-25T06:10:02Z</time>
      </trkpt>
      <trkpt lat="46.16722" lon="6.37843">
        <ele>698.0544434</ele>
        <time>2011-09-25T06:10:06Z</time>
      </trkpt>
      <trkpt lat="46.16736" lon="6.37846">
        <ele>694.2092285</ele>
        <time>2011-09-25T06:10:11Z</time>
      </trkpt>
      <trkpt lat="46.16754" lon="6.37854">
        <ele>693.2478027</ele>
        <time>2011-09-25T06:10:17Z</time>
      </trkpt>
      <trkpt lat="46.16757" lon="6.37855">
        <ele>693.7285156</ele>
        <time>2011-09-25T06:10:19Z</time>
      </trkpt>
      <trkpt lat="46.16766" lon="6.37856">
        <ele>695.651123</ele>
        <time>2011-09-25T06:10:24Z</time>
      </trkpt>
      <trkpt lat="46.16781" lon="6.37853">
        <ele>700.9384766</ele>
        <time>2011-09-25T06:10:30Z</time>
      </trkpt>
      <trkpt lat="46.16783" lon="6.37853">
        <ele>701.8999023</ele>
        <time>2011-09-25T06:10:31Z</time>
      </trkpt>
      <trkpt lat="46.16799" lon="6.37857">
        <ele>708.6289063</ele>
        <time>2011-09-25T06:10:38Z</time>
      </trkpt>
      <trkpt lat="46.16801" lon="6.37857">
        <ele>709.1096191</ele>
        <time>2011-09-25T06:10:39Z</time>
      </trkpt>
      <trkpt lat="46.16816" lon="6.3787">
        <ele>708.6289063</ele>
        <time>2011-09-25T06:10:46Z</time>
      </trkpt>
      <trkpt lat="46.16829" lon="6.37873">
        <ele>707.6677246</ele>
        <time>2011-09-25T06:10:51Z</time>
      </trkpt>
      <trkpt lat="46.16834" lon="6.37877">
        <ele>709.1096191</ele>
        <time>2011-09-25T06:10:54Z</time>
      </trkpt>
      <trkpt lat="46.16844" lon="6.37881">
        <ele>707.6677246</ele>
        <time>2011-09-25T06:10:59Z</time>
      </trkpt>
      <trkpt lat="46.16856" lon="6.37881">
        <ele>710.0708008</ele>
        <time>2011-09-25T06:11:03Z</time>
      </trkpt>
      <trkpt lat="46.1687" lon="6.37887">
        <ele>710.5515137</ele>
        <time>2011-09-25T06:11:09Z</time>
      </trkpt>
      <trkpt lat="46.16881" lon="6.37898">
        <ele>707.6677246</ele>
        <time>2011-09-25T06:11:14Z</time>
      </trkpt>
      <trkpt lat="46.16891" lon="6.37907">
        <ele>708.1484375</ele>
        <time>2011-09-25T06:11:19Z</time>
      </trkpt>
      <trkpt lat="46.16897" lon="6.37913">
        <ele>708.1484375</ele>
        <time>2011-09-25T06:11:23Z</time>
      </trkpt>
      <trkpt lat="46.16911" lon="6.3792">
        <ele>710.0708008</ele>
        <time>2011-09-25T06:11:29Z</time>
      </trkpt>
      <trkpt lat="46.16916" lon="6.37923">
        <ele>711.0322266</ele>
        <time>2011-09-25T06:11:32Z</time>
      </trkpt>
      <trkpt lat="46.16928" lon="6.3793">
        <ele>713.9160156</ele>
        <time>2011-09-25T06:11:37Z</time>
      </trkpt>
      <trkpt lat="46.16942" lon="6.37937">
        <ele>717.7614746</ele>
        <time>2011-09-25T06:11:43Z</time>
      </trkpt>
      <trkpt lat="46.16943" lon="6.37938">
        <ele>717.7614746</ele>
        <time>2011-09-25T06:11:44Z</time>
      </trkpt>
      <trkpt lat="46.16951" lon="6.37946">
        <ele>713.9160156</ele>
        <time>2011-09-25T06:11:49Z</time>
      </trkpt>
      <trkpt lat="46.16962" lon="6.37956">
        <ele>713.4355469</ele>
        <time>2011-09-25T06:11:55Z</time>
      </trkpt>
      <trkpt lat="46.16967" lon="6.37962">
        <ele>712.954834</ele>
        <time>2011-09-25T06:11:59Z</time>
      </trkpt>
      <trkpt lat="46.16978" lon="6.37971">
        <ele>714.3967285</ele>
        <time>2011-09-25T06:12:05Z</time>
      </trkpt>
      <trkpt lat="46.16983" lon="6.37979">
        <ele>713.9160156</ele>
        <time>2011-09-25T06:12:09Z</time>
      </trkpt>
      <trkpt lat="46.16982" lon="6.37978">
        <ele>717.7614746</ele>
        <time>2011-09-25T06:12:15Z</time>
      </trkpt>
      <trkpt lat="46.16981" lon="6.37976">
        <ele>726.4133301</ele>
        <time>2011-09-25T06:12:26Z</time>
      </trkpt>
      <trkpt lat="46.16987" lon="6.37988">
        <ele>728.8166504</ele>
        <time>2011-09-25T06:12:33Z</time>
      </trkpt>
      <trkpt lat="46.16992" lon="6.37998">
        <ele>734.1040039</ele>
        <time>2011-09-25T06:12:38Z</time>
      </trkpt>
      <trkpt lat="46.16995" lon="6.38007">
        <ele>738.9106445</ele>
        <time>2011-09-25T06:12:41Z</time>
      </trkpt>
      <trkpt lat="46.16995" lon="6.3801">
        <ele>743.2363281</ele>
        <time>2011-09-25T06:12:43Z</time>
      </trkpt>
      <trkpt lat="46.16999" lon="6.38032">
        <ele>740.8330078</ele>
        <time>2011-09-25T06:12:48Z</time>
      </trkpt>
      <trkpt lat="46.17001" lon="6.38053">
        <ele>733.623291</ele>
        <time>2011-09-25T06:12:53Z</time>
      </trkpt>
      <trkpt lat="46.17001" lon="6.38058">
        <ele>731.2199707</ele>
        <time>2011-09-25T06:12:55Z</time>
      </trkpt>
      <trkpt lat="46.17004" lon="6.38073">
        <ele>728.3359375</ele>
        <time>2011-09-25T06:13:01Z</time>
      </trkpt>
      <trkpt lat="46.17005" lon="6.38088">
        <ele>731.2199707</ele>
        <time>2011-09-25T06:13:06Z</time>
      </trkpt>
      <trkpt lat="46.17007" lon="6.38106">
        <ele>736.5073242</ele>
        <time>2011-09-25T06:13:11Z</time>
      </trkpt>
      <trkpt lat="46.17006" lon="6.38114">
        <ele>737.4685059</ele>
        <time>2011-09-25T06:13:14Z</time>
      </trkpt>
      <trkpt lat="46.17007" lon="6.38134">
        <ele>741.3137207</ele>
        <time>2011-09-25T06:13:20Z</time>
      </trkpt>
      <trkpt lat="46.17009" lon="6.38136">
        <ele>746.1203613</ele>
        <time>2011-09-25T06:13:26Z</time>
      </trkpt>
      <trkpt lat="46.17015" lon="6.38138">
        <ele>743.717041</ele>
        <time>2011-09-25T06:13:29Z</time>
      </trkpt>
      <trkpt lat="46.17016" lon="6.38139">
        <ele>742.7558594</ele>
        <time>2011-09-25T06:13:31Z</time>
      </trkpt>
      <trkpt lat="46.1702" lon="6.38144">
        <ele>741.7944336</ele>
        <time>2011-09-25T06:13:34Z</time>
      </trkpt>
      <trkpt lat="46.17035" lon="6.38159">
        <ele>739.8718262</ele>
        <time>2011-09-25T06:13:41Z</time>
      </trkpt>
      <trkpt lat="46.17045" lon="6.3817">
        <ele>739.8718262</ele>
        <time>2011-09-25T06:13:46Z</time>
      </trkpt>
      <trkpt lat="46.17049" lon="6.38173">
        <ele>739.3911133</ele>
        <time>2011-09-25T06:13:48Z</time>
      </trkpt>
      <trkpt lat="46.17051" lon="6.38174">
        <ele>738.9106445</ele>
        <time>2011-09-25T06:13:50Z</time>
      </trkpt>
      <trkpt lat="46.1706" lon="6.38186">
        <ele>738.4299316</ele>
        <time>2011-09-25T06:13:56Z</time>
      </trkpt>
      <trkpt lat="46.17064" lon="6.38192">
        <ele>737.4685059</ele>
        <time>2011-09-25T06:13:58Z</time>
      </trkpt>
      <trkpt lat="46.17072" lon="6.38206">
        <ele>737.4685059</ele>
        <time>2011-09-25T06:14:03Z</time>
      </trkpt>
      <trkpt lat="46.17077" lon="6.38208">
        <ele>739.8718262</ele>
        <time>2011-09-25T06:14:06Z</time>
      </trkpt>
      <trkpt lat="46.17093" lon="6.38195">
        <ele>749.0043945</ele>
        <time>2011-09-25T06:14:13Z</time>
      </trkpt>
      <trkpt lat="46.17099" lon="6.38193">
        <ele>750.927002</ele>
        <time>2011-09-25T06:14:16Z</time>
      </trkpt>
      <trkpt lat="46.17109" lon="6.38204">
        <ele>744.1977539</ele>
        <time>2011-09-25T06:14:21Z</time>
      </trkpt>
      <trkpt lat="46.17114" lon="6.3821">
        <ele>743.2363281</ele>
        <time>2011-09-25T06:14:23Z</time>
      </trkpt>
      <trkpt lat="46.1712" lon="6.38225">
        <ele>737.4685059</ele>
        <time>2011-09-25T06:14:29Z</time>
      </trkpt>
      <trkpt lat="46.17126" lon="6.38243">
        <ele>734.1040039</ele>
        <time>2011-09-25T06:14:35Z</time>
      </trkpt>
      <trkpt lat="46.17137" lon="6.38242">
        <ele>744.6782227</ele>
        <time>2011-09-25T06:14:40Z</time>
      </trkpt>
      <trkpt lat="46.17138" lon="6.38241">
        <ele>746.6010742</ele>
        <time>2011-09-25T06:14:41Z</time>
      </trkpt>
      <trkpt lat="46.17148" lon="6.38225">
        <ele>756.2141113</ele>
        <time>2011-09-25T06:14:47Z</time>
      </trkpt>
      <trkpt lat="46.17155" lon="6.3822">
        <ele>763.904541</ele>
        <time>2011-09-25T06:14:51Z</time>
      </trkpt>
      <trkpt lat="46.17167" lon="6.38222">
        <ele>771.1147461</ele>
        <time>2011-09-25T06:14:56Z</time>
      </trkpt>
      <trkpt lat="46.17171" lon="6.38226">
        <ele>770.1533203</ele>
        <time>2011-09-25T06:14:58Z</time>
      </trkpt>
      <trkpt lat="46.17179" lon="6.38233">
        <ele>773.0373535</ele>
        <time>2011-09-25T06:15:03Z</time>
      </trkpt>
      <trkpt lat="46.17186" lon="6.38237">
        <ele>779.2856445</ele>
        <time>2011-09-25T06:15:08Z</time>
      </trkpt>
      <trkpt lat="46.17194" lon="6.38241">
        <ele>782.1699219</ele>
        <time>2011-09-25T06:15:14Z</time>
      </trkpt>
      <trkpt lat="46.17201" lon="6.38244">
        <ele>784.0925293</ele>
        <time>2011-09-25T06:15:18Z</time>
      </trkpt>
      <trkpt lat="46.17217" lon="6.38241">
        <ele>783.6118164</ele>
        <time>2011-09-25T06:15:25Z</time>
      </trkpt>
      <trkpt lat="46.17229" lon="6.3824">
        <ele>776.4018555</ele>
        <time>2011-09-25T06:15:30Z</time>
      </trkpt>
      <trkpt lat="46.17234" lon="6.38242">
        <ele>771.5952148</ele>
        <time>2011-09-25T06:15:32Z</time>
      </trkpt>
      <trkpt lat="46.17247" lon="6.38236">
        <ele>762.9433594</ele>
        <time>2011-09-25T06:15:37Z</time>
      </trkpt>
      <trkpt lat="46.17259" lon="6.38228">
        <ele>754.7722168</ele>
        <time>2011-09-25T06:15:43Z</time>
      </trkpt>
      <trkpt lat="46.1727" lon="6.38226">
        <ele>752.8496094</ele>
        <time>2011-09-25T06:15:48Z</time>
      </trkpt>
      <trkpt lat="46.17281" lon="6.38226">
        <ele>750.927002</ele>
        <time>2011-09-25T06:15:53Z</time>
      </trkpt>
      <trkpt lat="46.17294" lon="6.38221">
        <ele>749.4851074</ele>
        <time>2011-09-25T06:15:58Z</time>
      </trkpt>
      <trkpt lat="46.17297" lon="6.38215">
        <ele>749.0043945</ele>
        <time>2011-09-25T06:16:00Z</time>
      </trkpt>
      <trkpt lat="46.17281" lon="6.38187">
        <ele>748.0432129</ele>
        <time>2011-09-25T06:16:05Z</time>
      </trkpt>
      <trkpt lat="46.17281" lon="6.38167">
        <ele>745.6396484</ele>
        <time>2011-09-25T06:16:09Z</time>
      </trkpt>
      <trkpt lat="46.17285" lon="6.38136">
        <ele>746.1203613</ele>
        <time>2011-09-25T06:16:16Z</time>
      </trkpt>
      <trkpt lat="46.17288" lon="6.38115">
        <ele>748.0432129</ele>
        <time>2011-09-25T06:16:21Z</time>
      </trkpt>
      <trkpt lat="46.17286" lon="6.38099">
        <ele>750.927002</ele>
        <time>2011-09-25T06:16:24Z</time>
      </trkpt>
      <trkpt lat="46.17271" lon="6.38082">
        <ele>750.4465332</ele>
        <time>2011-09-25T06:16:29Z</time>
      </trkpt>
      <trkpt lat="46.1726" lon="6.38065">
        <ele>750.927002</ele>
        <time>2011-09-25T06:16:34Z</time>
      </trkpt>
      <trkpt lat="46.17254" lon="6.38052">
        <ele>748.5236816</ele>
        <time>2011-09-25T06:16:38Z</time>
      </trkpt>
      <trkpt lat="46.17243" lon="6.38034">
        <ele>744.1977539</ele>
        <time>2011-09-25T06:16:43Z</time>
      </trkpt>
      <trkpt lat="46.17232" lon="6.3802">
        <ele>742.2751465</ele>
        <time>2011-09-25T06:16:47Z</time>
      </trkpt>
      <trkpt lat="46.17223" lon="6.38003">
        <ele>738.9106445</ele>
        <time>2011-09-25T06:16:51Z</time>
      </trkpt>
      <trkpt lat="46.17215" lon="6.37984">
        <ele>734.5847168</ele>
        <time>2011-09-25T06:16:55Z</time>
      </trkpt>
      <trkpt lat="46.17206" lon="6.37967">
        <ele>730.7392578</ele>
        <time>2011-09-25T06:16:59Z</time>
      </trkpt>
      <trkpt lat="46.17193" lon="6.37956">
        <ele>728.3359375</ele>
        <time>2011-09-25T06:17:04Z</time>
      </trkpt>
      <trkpt lat="46.17182" lon="6.37946">
        <ele>726.894043</ele>
        <time>2011-09-25T06:17:08Z</time>
      </trkpt>
      <trkpt lat="46.17174" lon="6.37938">
        <ele>722.0874023</ele>
        <time>2011-09-25T06:17:12Z</time>
      </trkpt>
      <trkpt lat="46.17167" lon="6.37925">
        <ele>715.3581543</ele>
        <time>2011-09-25T06:17:17Z</time>
      </trkpt>
      <trkpt lat="46.17165" lon="6.3792">
        <ele>713.4355469</ele>
        <time>2011-09-25T06:17:19Z</time>
      </trkpt>
      <trkpt lat="46.17162" lon="6.37899">
        <ele>701.8999023</ele>
        <time>2011-09-25T06:17:25Z</time>
      </trkpt>
      <trkpt lat="46.17156" lon="6.37878">
        <ele>694.2092285</ele>
        <time>2011-09-25T06:17:30Z</time>
      </trkpt>
      <trkpt lat="46.17154" lon="6.37867">
        <ele>689.4025879</ele>
        <time>2011-09-25T06:17:32Z</time>
      </trkpt>
      <trkpt lat="46.17159" lon="6.3783">
        <ele>680.2700195</ele>
        <time>2011-09-25T06:17:38Z</time>
      </trkpt>
      <trkpt lat="46.1716" lon="6.37823">
        <ele>679.3085938</ele>
        <time>2011-09-25T06:17:39Z</time>
      </trkpt>
      <trkpt lat="46.17168" lon="6.378">
        <ele>678.828125</ele>
        <time>2011-09-25T06:17:44Z</time>
      </trkpt>
      <trkpt lat="46.17174" lon="6.3778">
        <ele>682.192627</ele>
        <time>2011-09-25T06:17:49Z</time>
      </trkpt>
      <trkpt lat="46.17176" lon="6.37763">
        <ele>685.557373</ele>
        <time>2011-09-25T06:17:53Z</time>
      </trkpt>
      <trkpt lat="46.17169" lon="6.37762">
        <ele>681.7119141</ele>
        <time>2011-09-25T06:17:58Z</time>
      </trkpt>
      <trkpt lat="46.17173" lon="6.37751">
        <ele>677.3862305</ele>
        <time>2011-09-25T06:18:03Z</time>
      </trkpt>
      <trkpt lat="46.1718" lon="6.3774">
        <ele>674.5021973</ele>
        <time>2011-09-25T06:18:07Z</time>
      </trkpt>
      <trkpt lat="46.17192" lon="6.37715">
        <ele>675.4633789</ele>
        <time>2011-09-25T06:18:13Z</time>
      </trkpt>
      <trkpt lat="46.17209" lon="6.37695">
        <ele>675.4633789</ele>
        <time>2011-09-25T06:18:20Z</time>
      </trkpt>
      <trkpt lat="46.17214" lon="6.37686">
        <ele>671.6181641</ele>
        <time>2011-09-25T06:18:23Z</time>
      </trkpt>
      <trkpt lat="46.17222" lon="6.3767">
        <ele>669.2150879</ele>
        <time>2011-09-25T06:18:28Z</time>
      </trkpt>
      <trkpt lat="46.17228" lon="6.37662">
        <ele>668.2536621</ele>
        <time>2011-09-25T06:18:30Z</time>
      </trkpt>
      <trkpt lat="46.17245" lon="6.37648">
        <ele>665.3696289</ele>
        <time>2011-09-25T06:18:36Z</time>
      </trkpt>
      <trkpt lat="46.17259" lon="6.3764">
        <ele>662.4855957</ele>
        <time>2011-09-25T06:18:41Z</time>
      </trkpt>
      <trkpt lat="46.17273" lon="6.37629">
        <ele>662.4855957</ele>
        <time>2011-09-25T06:18:46Z</time>
      </trkpt>
      <trkpt lat="46.17278" lon="6.37627">
        <ele>661.0437012</ele>
        <time>2011-09-25T06:18:48Z</time>
      </trkpt>
      <trkpt lat="46.17291" lon="6.37619">
        <ele>658.6403809</ele>
        <time>2011-09-25T06:18:53Z</time>
      </trkpt>
      <trkpt lat="46.17294" lon="6.37617">
        <ele>657.6791992</ele>
        <time>2011-09-25T06:18:54Z</time>
      </trkpt>
      <trkpt lat="46.17306" lon="6.37602">
        <ele>658.1599121</ele>
        <time>2011-09-25T06:18:59Z</time>
      </trkpt>
      <trkpt lat="46.17319" lon="6.37589">
        <ele>657.6791992</ele>
        <time>2011-09-25T06:19:04Z</time>
      </trkpt>
      <trkpt lat="46.17329" lon="6.37578">
        <ele>657.1984863</ele>
        <time>2011-09-25T06:19:08Z</time>
      </trkpt>
      <trkpt lat="46.1734" lon="6.37561">
        <ele>656.7177734</ele>
        <time>2011-09-25T06:19:13Z</time>
      </trkpt>
      <trkpt lat="46.17345" lon="6.37543">
        <ele>654.3146973</ele>
        <time>2011-09-25T06:19:17Z</time>
      </trkpt>
      <trkpt lat="46.17348" lon="6.37525">
        <ele>652.3918457</ele>
        <time>2011-09-25T06:19:21Z</time>
      </trkpt>
      <trkpt lat="46.17357" lon="6.375">
        <ele>650.4692383</ele>
        <time>2011-09-25T06:19:27Z</time>
      </trkpt>
      <trkpt lat="46.17368" lon="6.37492">
        <ele>649.5078125</ele>
        <time>2011-09-25T06:19:31Z</time>
      </trkpt>
      <trkpt lat="46.1738" lon="6.37492">
        <ele>646.6240234</ele>
        <time>2011-09-25T06:19:35Z</time>
      </trkpt>
      <trkpt lat="46.17396" lon="6.37492">
        <ele>644.7011719</ele>
        <time>2011-09-25T06:19:40Z</time>
      </trkpt>
      <trkpt lat="46.17409" lon="6.3749">
        <ele>644.7011719</ele>
        <time>2011-09-25T06:19:44Z</time>
      </trkpt>
      <trkpt lat="46.17425" lon="6.37486">
        <ele>644.7011719</ele>
        <time>2011-09-25T06:19:49Z</time>
      </trkpt>
      <trkpt lat="46.17445" lon="6.37476">
        <ele>644.7011719</ele>
        <time>2011-09-25T06:19:56Z</time>
      </trkpt>
      <trkpt lat="46.17463" lon="6.37474">
        <ele>644.7011719</ele>
        <time>2011-09-25T06:20:01Z</time>
      </trkpt>
      <trkpt lat="46.17479" lon="6.37475">
        <ele>642.7788086</ele>
        <time>2011-09-25T06:20:06Z</time>
      </trkpt>
      <trkpt lat="46.1749" lon="6.37474">
        <ele>643.7399902</ele>
        <time>2011-09-25T06:20:10Z</time>
      </trkpt>
      <trkpt lat="46.17501" lon="6.37474">
        <ele>645.1818848</ele>
        <time>2011-09-25T06:20:14Z</time>
      </trkpt>
      <trkpt lat="46.17514" lon="6.37474">
        <ele>648.065918</ele>
        <time>2011-09-25T06:20:19Z</time>
      </trkpt>
      <trkpt lat="46.17526" lon="6.37478">
        <ele>648.5463867</ele>
        <time>2011-09-25T06:20:24Z</time>
      </trkpt>
      <trkpt lat="46.17537" lon="6.37482">
        <ele>649.5078125</ele>
        <time>2011-09-25T06:20:28Z</time>
      </trkpt>
      <trkpt lat="46.17546" lon="6.37486">
        <ele>652.3918457</ele>
        <time>2011-09-25T06:20:33Z</time>
      </trkpt>
      <trkpt lat="46.1755" lon="6.37491">
        <ele>653.3532715</ele>
        <time>2011-09-25T06:20:35Z</time>
      </trkpt>
      <trkpt lat="46.17565" lon="6.3749">
        <ele>662.005127</ele>
        <time>2011-09-25T06:20:42Z</time>
      </trkpt>
      <trkpt lat="46.17571" lon="6.3749">
        <ele>662.9663086</ele>
        <time>2011-09-25T06:20:45Z</time>
      </trkpt>
      <trkpt lat="46.17583" lon="6.37495">
        <ele>662.9663086</ele>
        <time>2011-09-25T06:20:50Z</time>
      </trkpt>
      <trkpt lat="46.17593" lon="6.37496">
        <ele>668.2536621</ele>
        <time>2011-09-25T06:20:55Z</time>
      </trkpt>
      <trkpt lat="46.17604" lon="6.375">
        <ele>671.1376953</ele>
        <time>2011-09-25T06:21:01Z</time>
      </trkpt>
      <trkpt lat="46.17611" lon="6.37504">
        <ele>671.1376953</ele>
        <time>2011-09-25T06:21:05Z</time>
      </trkpt>
      <trkpt lat="46.1762" lon="6.37509">
        <ele>673.0603027</ele>
        <time>2011-09-25T06:21:10Z</time>
      </trkpt>
      <trkpt lat="46.17633" lon="6.37513">
        <ele>673.0603027</ele>
        <time>2011-09-25T06:21:15Z</time>
      </trkpt>
      <trkpt lat="46.17644" lon="6.37519">
        <ele>670.1762695</ele>
        <time>2011-09-25T06:21:20Z</time>
      </trkpt>
      <trkpt lat="46.17655" lon="6.37528">
        <ele>667.2922363</ele>
        <time>2011-09-25T06:21:25Z</time>
      </trkpt>
      <trkpt lat="46.17665" lon="6.37536">
        <ele>668.734375</ele>
        <time>2011-09-25T06:21:30Z</time>
      </trkpt>
      <trkpt lat="46.17667" lon="6.37535">
        <ele>670.6569824</ele>
        <time>2011-09-25T06:21:31Z</time>
      </trkpt>
      <trkpt lat="46.17673" lon="6.37534">
        <ele>674.9829102</ele>
        <time>2011-09-25T06:21:35Z</time>
      </trkpt>
      <trkpt lat="46.17675" lon="6.37534">
        <ele>675.9440918</ele>
        <time>2011-09-25T06:21:37Z</time>
      </trkpt>
      <trkpt lat="46.17682" lon="6.37531">
        <ele>678.3474121</ele>
        <time>2011-09-25T06:21:41Z</time>
      </trkpt>
      <trkpt lat="46.17696" lon="6.37532">
        <ele>675.9440918</ele>
        <time>2011-09-25T06:21:47Z</time>
      </trkpt>
      <trkpt lat="46.17702" lon="6.3753">
        <ele>677.8666992</ele>
        <time>2011-09-25T06:21:50Z</time>
      </trkpt>
      <trkpt lat="46.17711" lon="6.37524">
        <ele>682.192627</ele>
        <time>2011-09-25T06:21:55Z</time>
      </trkpt>
      <trkpt lat="46.17718" lon="6.37518">
        <ele>685.557373</ele>
        <time>2011-09-25T06:21:59Z</time>
      </trkpt>
      <trkpt lat="46.17729" lon="6.37518">
        <ele>686.0380859</ele>
        <time>2011-09-25T06:22:04Z</time>
      </trkpt>
      <trkpt lat="46.1774" lon="6.37518">
        <ele>682.6733398</ele>
        <time>2011-09-25T06:22:09Z</time>
      </trkpt>
      <trkpt lat="46.1775" lon="6.37513">
        <ele>686.0380859</ele>
        <time>2011-09-25T06:22:14Z</time>
      </trkpt>
      <trkpt lat="46.17763" lon="6.37511">
        <ele>685.557373</ele>
        <time>2011-09-25T06:22:20Z</time>
      </trkpt>
      <trkpt lat="46.17776" lon="6.37508">
        <ele>683.6345215</ele>
        <time>2011-09-25T06:22:26Z</time>
      </trkpt>
      <trkpt lat="46.17787" lon="6.37504">
        <ele>683.6345215</ele>
        <time>2011-09-25T06:22:31Z</time>
      </trkpt>
      <trkpt lat="46.17797" lon="6.37507">
        <ele>681.7119141</ele>
        <time>2011-09-25T06:22:35Z</time>
      </trkpt>
      <trkpt lat="46.17814" lon="6.3751">
        <ele>679.3085938</ele>
        <time>2011-09-25T06:22:41Z</time>
      </trkpt>
      <trkpt lat="46.17829" lon="6.37516">
        <ele>678.828125</ele>
        <time>2011-09-25T06:22:47Z</time>
      </trkpt>
      <trkpt lat="46.17845" lon="6.37524">
        <ele>675.4633789</ele>
        <time>2011-09-25T06:22:53Z</time>
      </trkpt>
      <trkpt lat="46.1786" lon="6.3753">
        <ele>674.9829102</ele>
        <time>2011-09-25T06:22:59Z</time>
      </trkpt>
      <trkpt lat="46.17869" lon="6.3753">
        <ele>676.4248047</ele>
        <time>2011-09-25T06:23:03Z</time>
      </trkpt>
      <trkpt lat="46.17882" lon="6.37526">
        <ele>681.7119141</ele>
        <time>2011-09-25T06:23:08Z</time>
      </trkpt>
      <trkpt lat="46.17888" lon="6.37522">
        <ele>684.1154785</ele>
        <time>2011-09-25T06:23:11Z</time>
      </trkpt>
      <trkpt lat="46.17902" lon="6.37517">
        <ele>684.1154785</ele>
        <time>2011-09-25T06:23:17Z</time>
      </trkpt>
      <trkpt lat="46.17915" lon="6.3751">
        <ele>682.192627</ele>
        <time>2011-09-25T06:23:22Z</time>
      </trkpt>
      <trkpt lat="46.17928" lon="6.37504">
        <ele>682.192627</ele>
        <time>2011-09-25T06:23:27Z</time>
      </trkpt>
      <trkpt lat="46.17939" lon="6.37501">
        <ele>681.7119141</ele>
        <time>2011-09-25T06:23:31Z</time>
      </trkpt>
      <trkpt lat="46.17954" lon="6.37508">
        <ele>679.7893066</ele>
        <time>2011-09-25T06:23:36Z</time>
      </trkpt>
      <trkpt lat="46.17966" lon="6.3752">
        <ele>676.4248047</ele>
        <time>2011-09-25T06:23:40Z</time>
      </trkpt>
      <trkpt lat="46.17983" lon="6.37538">
        <ele>673.5410156</ele>
        <time>2011-09-25T06:23:46Z</time>
      </trkpt>
      <trkpt lat="46.17997" lon="6.37552">
        <ele>673.0603027</ele>
        <time>2011-09-25T06:23:51Z</time>
      </trkpt>
      <trkpt lat="46.18011" lon="6.37565">
        <ele>670.6569824</ele>
        <time>2011-09-25T06:23:56Z</time>
      </trkpt>
      <trkpt lat="46.18018" lon="6.3758">
        <ele>670.1762695</ele>
        <time>2011-09-25T06:24:00Z</time>
      </trkpt>
      <trkpt lat="46.18021" lon="6.37601">
        <ele>666.8115234</ele>
        <time>2011-09-25T06:24:05Z</time>
      </trkpt>
      <trkpt lat="46.18027" lon="6.37621">
        <ele>663.4470215</ele>
        <time>2011-09-25T06:24:10Z</time>
      </trkpt>
      <trkpt lat="46.1803" lon="6.37628">
        <ele>664.4082031</ele>
        <time>2011-09-25T06:24:13Z</time>
      </trkpt>
      <trkpt lat="46.18041" lon="6.37642">
        <ele>667.2922363</ele>
        <time>2011-09-25T06:24:19Z</time>
      </trkpt>
      <trkpt lat="46.18054" lon="6.37652">
        <ele>671.1376953</ele>
        <time>2011-09-25T06:24:25Z</time>
      </trkpt>
      <trkpt lat="46.18062" lon="6.37661">
        <ele>675.9440918</ele>
        <time>2011-09-25T06:24:29Z</time>
      </trkpt>
      <trkpt lat="46.1807" lon="6.37664">
        <ele>679.3085938</ele>
        <time>2011-09-25T06:24:33Z</time>
      </trkpt>
      <trkpt lat="46.1808" lon="6.37678">
        <ele>682.6733398</ele>
        <time>2011-09-25T06:24:38Z</time>
      </trkpt>
      <trkpt lat="46.18092" lon="6.37686">
        <ele>688.4414063</ele>
        <time>2011-09-25T06:24:44Z</time>
      </trkpt>
      <trkpt lat="46.18103" lon="6.37694">
        <ele>692.767334</ele>
        <time>2011-09-25T06:24:49Z</time>
      </trkpt>
      <trkpt lat="46.18114" lon="6.37701">
        <ele>694.6896973</ele>
        <time>2011-09-25T06:24:54Z</time>
      </trkpt>
      <trkpt lat="46.18122" lon="6.37708">
        <ele>696.6125488</ele>
        <time>2011-09-25T06:24:58Z</time>
      </trkpt>
      <trkpt lat="46.18134" lon="6.37718">
        <ele>693.2478027</ele>
        <time>2011-09-25T06:25:03Z</time>
      </trkpt>
      <trkpt lat="46.18146" lon="6.37726">
        <ele>691.3251953</ele>
        <time>2011-09-25T06:25:08Z</time>
      </trkpt>
      <trkpt lat="46.18158" lon="6.37735">
        <ele>690.3640137</ele>
        <time>2011-09-25T06:25:14Z</time>
      </trkpt>
      <trkpt lat="46.18169" lon="6.37747">
        <ele>685.557373</ele>
        <time>2011-09-25T06:25:19Z</time>
      </trkpt>
      <trkpt lat="46.18184" lon="6.37765">
        <ele>674.5021973</ele>
        <time>2011-09-25T06:25:24Z</time>
      </trkpt>
      <trkpt lat="46.1819" lon="6.37781">
        <ele>671.6181641</ele>
        <time>2011-09-25T06:25:28Z</time>
      </trkpt>
      <trkpt lat="46.18199" lon="6.37798">
        <ele>668.734375</ele>
        <time>2011-09-25T06:25:33Z</time>
      </trkpt>
      <trkpt lat="46.18208" lon="6.37812">
        <ele>666.3308105</ele>
        <time>2011-09-25T06:25:38Z</time>
      </trkpt>
      <trkpt lat="46.18219" lon="6.37826">
        <ele>659.1210938</ele>
        <time>2011-09-25T06:25:42Z</time>
      </trkpt>
      <trkpt lat="46.18231" lon="6.37843">
        <ele>662.4855957</ele>
        <time>2011-09-25T06:25:48Z</time>
      </trkpt>
      <trkpt lat="46.1824" lon="6.37856">
        <ele>661.5244141</ele>
        <time>2011-09-25T06:25:53Z</time>
      </trkpt>
      <trkpt lat="46.18245" lon="6.37871">
        <ele>665.3696289</ele>
        <time>2011-09-25T06:25:57Z</time>
      </trkpt>
      <trkpt lat="46.18253" lon="6.37893">
        <ele>675.9440918</ele>
        <time>2011-09-25T06:26:03Z</time>
      </trkpt>
      <trkpt lat="46.18265" lon="6.37895">
        <ele>678.828125</ele>
        <time>2011-09-25T06:26:07Z</time>
      </trkpt>
      <trkpt lat="46.18279" lon="6.37894">
        <ele>684.1154785</ele>
        <time>2011-09-25T06:26:12Z</time>
      </trkpt>
      <trkpt lat="46.18289" lon="6.37894">
        <ele>691.8059082</ele>
        <time>2011-09-25T06:26:16Z</time>
      </trkpt>
      <trkpt lat="46.18298" lon="6.37896">
        <ele>696.1318359</ele>
        <time>2011-09-25T06:26:20Z</time>
      </trkpt>
      <trkpt lat="46.18312" lon="6.37899">
        <ele>701.4191895</ele>
        <time>2011-09-25T06:26:25Z</time>
      </trkpt>
      <trkpt lat="46.18322" lon="6.37898">
        <ele>703.3417969</ele>
        <time>2011-09-25T06:26:29Z</time>
      </trkpt>
      <trkpt lat="46.18334" lon="6.37892">
        <ele>706.7062988</ele>
        <time>2011-09-25T06:26:34Z</time>
      </trkpt>
      <trkpt lat="46.18336" lon="6.37892">
        <ele>706.2255859</ele>
        <time>2011-09-25T06:26:35Z</time>
      </trkpt>
      <trkpt lat="46.1834" lon="6.37892">
        <ele>704.3032227</ele>
        <time>2011-09-25T06:26:37Z</time>
      </trkpt>
      <trkpt lat="46.18353" lon="6.37893">
        <ele>703.8225098</ele>
        <time>2011-09-25T06:26:42Z</time>
      </trkpt>
      <trkpt lat="46.18364" lon="6.37896">
        <ele>702.861084</ele>
        <time>2011-09-25T06:26:46Z</time>
      </trkpt>
      <trkpt lat="46.1838" lon="6.37903">
        <ele>699.015625</ele>
        <time>2011-09-25T06:26:52Z</time>
      </trkpt>
      <trkpt lat="46.18391" lon="6.37908">
        <ele>695.651123</ele>
        <time>2011-09-25T06:26:56Z</time>
      </trkpt>
      <trkpt lat="46.18408" lon="6.37911">
        <ele>690.3640137</ele>
        <time>2011-09-25T06:27:02Z</time>
      </trkpt>
      <trkpt lat="46.18421" lon="6.37915">
        <ele>688.9221191</ele>
        <time>2011-09-25T06:27:07Z</time>
      </trkpt>
      <trkpt lat="46.1843" lon="6.37912">
        <ele>694.6896973</ele>
        <time>2011-09-25T06:27:11Z</time>
      </trkpt>
      <trkpt lat="46.18447" lon="6.37918">
        <ele>690.8444824</ele>
        <time>2011-09-25T06:27:17Z</time>
      </trkpt>
      <trkpt lat="46.18461" lon="6.37929">
        <ele>686.0380859</ele>
        <time>2011-09-25T06:27:22Z</time>
      </trkpt>
      <trkpt lat="46.18474" lon="6.37941">
        <ele>682.192627</ele>
        <time>2011-09-25T06:27:27Z</time>
      </trkpt>
      <trkpt lat="46.18483" lon="6.37951">
        <ele>678.3474121</ele>
        <time>2011-09-25T06:27:31Z</time>
      </trkpt>
      <trkpt lat="46.18491" lon="6.37962">
        <ele>674.5021973</ele>
        <time>2011-09-25T06:27:35Z</time>
      </trkpt>
      <trkpt lat="46.18493" lon="6.37977">
        <ele>674.5021973</ele>
        <time>2011-09-25T06:27:40Z</time>
      </trkpt>
      <trkpt lat="46.18493" lon="6.37981">
        <ele>674.9829102</ele>
        <time>2011-09-25T06:27:42Z</time>
      </trkpt>
      <trkpt lat="46.18489" lon="6.37989">
        <ele>676.4248047</ele>
        <time>2011-09-25T06:27:46Z</time>
      </trkpt>
      <trkpt lat="46.18483" lon="6.38002">
        <ele>680.7507324</ele>
        <time>2011-09-25T06:27:52Z</time>
      </trkpt>
      <trkpt lat="46.18477" lon="6.38003">
        <ele>681.2314453</ele>
        <time>2011-09-25T06:27:56Z</time>
      </trkpt>
      <trkpt lat="46.18475" lon="6.38004">
        <ele>681.7119141</ele>
        <time>2011-09-25T06:27:58Z</time>
      </trkpt>
      <trkpt lat="46.18466" lon="6.38009">
        <ele>686.9992676</ele>
        <time>2011-09-25T06:28:03Z</time>
      </trkpt>
      <trkpt lat="46.18464" lon="6.38011">
        <ele>687.4799805</ele>
        <time>2011-09-25T06:28:04Z</time>
      </trkpt>
      <trkpt lat="46.18449" lon="6.38023">
        <ele>696.6125488</ele>
        <time>2011-09-25T06:28:10Z</time>
      </trkpt>
      <trkpt lat="46.18445" lon="6.38033">
        <ele>698.5349121</ele>
        <time>2011-09-25T06:28:14Z</time>
      </trkpt>
      <trkpt lat="46.18436" lon="6.38052">
        <ele>697.5737305</ele>
        <time>2011-09-25T06:28:21Z</time>
      </trkpt>
      <trkpt lat="46.18438" lon="6.38071">
        <ele>703.8225098</ele>
        <time>2011-09-25T06:28:27Z</time>
      </trkpt>
      <trkpt lat="46.18433" lon="6.38078">
        <ele>703.8225098</ele>
        <time>2011-09-25T06:28:31Z</time>
      </trkpt>
      <trkpt lat="46.18425" lon="6.38083">
        <ele>700.4580078</ele>
        <time>2011-09-25T06:28:35Z</time>
      </trkpt>
      <trkpt lat="46.18415" lon="6.3809">
        <ele>698.0544434</ele>
        <time>2011-09-25T06:28:42Z</time>
      </trkpt>
      <trkpt lat="46.1841" lon="6.38096">
        <ele>700.9384766</ele>
        <time>2011-09-25T06:28:45Z</time>
      </trkpt>
      <trkpt lat="46.18404" lon="6.38099">
        <ele>703.8225098</ele>
        <time>2011-09-25T06:28:49Z</time>
      </trkpt>
      <trkpt lat="46.18397" lon="6.38109">
        <ele>711.0322266</ele>
        <time>2011-09-25T06:28:54Z</time>
      </trkpt>
      <trkpt lat="46.1839" lon="6.38121">
        <ele>723.529541</ele>
        <time>2011-09-25T06:29:01Z</time>
      </trkpt>
      <trkpt lat="46.18382" lon="6.3813">
        <ele>722.5681152</ele>
        <time>2011-09-25T06:29:05Z</time>
      </trkpt>
      <trkpt lat="46.18381" lon="6.38133">
        <ele>722.5681152</ele>
        <time>2011-09-25T06:29:06Z</time>
      </trkpt>
      <trkpt lat="46.1837" lon="6.38148">
        <ele>716.3195801</ele>
        <time>2011-09-25T06:29:13Z</time>
      </trkpt>
      <trkpt lat="46.18361" lon="6.3816">
        <ele>717.2810059</ele>
        <time>2011-09-25T06:29:18Z</time>
      </trkpt>
      <trkpt lat="46.18354" lon="6.38166">
        <ele>719.2036133</ele>
        <time>2011-09-25T06:29:22Z</time>
      </trkpt>
      <trkpt lat="46.18345" lon="6.38169">
        <ele>721.1262207</ele>
        <time>2011-09-25T06:29:27Z</time>
      </trkpt>
      <trkpt lat="46.18339" lon="6.38178">
        <ele>726.4133301</ele>
        <time>2011-09-25T06:29:31Z</time>
      </trkpt>
      <trkpt lat="46.18335" lon="6.38189">
        <ele>729.777832</ele>
        <time>2011-09-25T06:29:36Z</time>
      </trkpt>
      <trkpt lat="46.1833" lon="6.382">
        <ele>727.3747559</ele>
        <time>2011-09-25T06:29:41Z</time>
      </trkpt>
      <trkpt lat="46.18329" lon="6.38203">
        <ele>727.8552246</ele>
        <time>2011-09-25T06:29:42Z</time>
      </trkpt>
      <trkpt lat="46.18326" lon="6.38223">
        <ele>725.9326172</ele>
        <time>2011-09-25T06:29:48Z</time>
      </trkpt>
      <trkpt lat="46.18334" lon="6.38231">
        <ele>717.7614746</ele>
        <time>2011-09-25T06:29:53Z</time>
      </trkpt>
      <trkpt lat="46.18338" lon="6.38233">
        <ele>717.7614746</ele>
        <time>2011-09-25T06:29:57Z</time>
      </trkpt>
      <trkpt lat="46.18351" lon="6.38233">
        <ele>715.8388672</ele>
        <time>2011-09-25T06:30:02Z</time>
      </trkpt>
      <trkpt lat="46.18374" lon="6.3823">
        <ele>716.3195801</ele>
        <time>2011-09-25T06:30:10Z</time>
      </trkpt>
      <trkpt lat="46.18388" lon="6.38231">
        <ele>715.3581543</ele>
        <time>2011-09-25T06:30:16Z</time>
      </trkpt>
      <trkpt lat="46.18397" lon="6.38242">
        <ele>712.954834</ele>
        <time>2011-09-25T06:30:21Z</time>
      </trkpt>
      <trkpt lat="46.184" lon="6.38245">
        <ele>711.5129395</ele>
        <time>2011-09-25T06:30:23Z</time>
      </trkpt>
      <trkpt lat="46.18409" lon="6.38255">
        <ele>708.6289063</ele>
        <time>2011-09-25T06:30:28Z</time>
      </trkpt>
      <trkpt lat="46.18419" lon="6.38275">
        <ele>707.1870117</ele>
        <time>2011-09-25T06:30:34Z</time>
      </trkpt>
      <trkpt lat="46.18424" lon="6.3829">
        <ele>706.7062988</ele>
        <time>2011-09-25T06:30:40Z</time>
      </trkpt>
      <trkpt lat="46.18424" lon="6.38292">
        <ele>709.1096191</ele>
        <time>2011-09-25T06:30:41Z</time>
      </trkpt>
      <trkpt lat="46.18425" lon="6.383">
        <ele>721.6066895</ele>
        <time>2011-09-25T06:30:47Z</time>
      </trkpt>
      <trkpt lat="46.18423" lon="6.38311">
        <ele>744.1977539</ele>
        <time>2011-09-25T06:30:55Z</time>
      </trkpt>
      <trkpt lat="46.18411" lon="6.3833">
        <ele>766.3081055</ele>
        <time>2011-09-25T06:31:06Z</time>
      </trkpt>
      <trkpt lat="46.18411" lon="6.38331">
        <ele>768.7114258</ele>
        <time>2011-09-25T06:31:09Z</time>
      </trkpt>
      <trkpt lat="46.18414" lon="6.38328">
        <ele>768.7114258</ele>
        <time>2011-09-25T06:31:11Z</time>
      </trkpt>
      <trkpt lat="46.1842" lon="6.38323">
        <ele>769.6728516</ele>
        <time>2011-09-25T06:31:16Z</time>
      </trkpt>
      <trkpt lat="46.18426" lon="6.38321">
        <ele>766.7888184</ele>
        <time>2011-09-25T06:31:21Z</time>
      </trkpt>
      <trkpt lat="46.18438" lon="6.38325">
        <ele>764.385498</ele>
        <time>2011-09-25T06:31:28Z</time>
      </trkpt>
      <trkpt lat="46.18442" lon="6.38323">
        <ele>763.4240723</ele>
        <time>2011-09-25T06:31:30Z</time>
      </trkpt>
      <trkpt lat="46.18448" lon="6.38312">
        <ele>760.0593262</ele>
        <time>2011-09-25T06:31:36Z</time>
      </trkpt>
      <trkpt lat="46.18452" lon="6.38307">
        <ele>756.2141113</ele>
        <time>2011-09-25T06:31:40Z</time>
      </trkpt>
      <trkpt lat="46.18456" lon="6.38306">
        <ele>750.927002</ele>
        <time>2011-09-25T06:31:43Z</time>
      </trkpt>
      <trkpt lat="46.18463" lon="6.38305">
        <ele>745.6396484</ele>
        <time>2011-09-25T06:31:48Z</time>
      </trkpt>
      <trkpt lat="46.18471" lon="6.38307">
        <ele>744.1977539</ele>
        <time>2011-09-25T06:31:54Z</time>
      </trkpt>
      <trkpt lat="46.18475" lon="6.3831">
        <ele>744.6782227</ele>
        <time>2011-09-25T06:31:57Z</time>
      </trkpt>
      <trkpt lat="46.18483" lon="6.3831">
        <ele>747.081543</ele>
        <time>2011-09-25T06:32:02Z</time>
      </trkpt>
      <trkpt lat="46.18484" lon="6.3831">
        <ele>746.1203613</ele>
        <time>2011-09-25T06:32:03Z</time>
      </trkpt>
      <trkpt lat="46.18493" lon="6.38312">
        <ele>748.5236816</ele>
        <time>2011-09-25T06:32:09Z</time>
      </trkpt>
      <trkpt lat="46.18496" lon="6.38313">
        <ele>750.4465332</ele>
        <time>2011-09-25T06:32:11Z</time>
      </trkpt>
      <trkpt lat="46.18503" lon="6.38318">
        <ele>754.7722168</ele>
        <time>2011-09-25T06:32:17Z</time>
      </trkpt>
      <trkpt lat="46.1851" lon="6.38317">
        <ele>760.0593262</ele>
        <time>2011-09-25T06:32:22Z</time>
      </trkpt>
      <trkpt lat="46.18512" lon="6.38318">
        <ele>760.5400391</ele>
        <time>2011-09-25T06:32:23Z</time>
      </trkpt>
      <trkpt lat="46.18515" lon="6.3832">
        <ele>761.020752</ele>
        <time>2011-09-25T06:32:25Z</time>
      </trkpt>
      <trkpt lat="46.18524" lon="6.38324">
        <ele>763.4240723</ele>
        <time>2011-09-25T06:32:30Z</time>
      </trkpt>
      <trkpt lat="46.18525" lon="6.38326">
        <ele>763.904541</ele>
        <time>2011-09-25T06:32:31Z</time>
      </trkpt>
      <trkpt lat="46.18527" lon="6.3833">
        <ele>762.9433594</ele>
        <time>2011-09-25T06:32:33Z</time>
      </trkpt>
      <trkpt lat="46.18542" lon="6.38345">
        <ele>761.020752</ele>
        <time>2011-09-25T06:32:41Z</time>
      </trkpt>
      <trkpt lat="46.18544" lon="6.38346">
        <ele>760.0593262</ele>
        <time>2011-09-25T06:32:42Z</time>
      </trkpt>
      <trkpt lat="46.18553" lon="6.38358">
        <ele>756.6948242</ele>
        <time>2011-09-25T06:32:48Z</time>
      </trkpt>
      <trkpt lat="46.18559" lon="6.38365">
        <ele>755.2529297</ele>
        <time>2011-09-25T06:32:51Z</time>
      </trkpt>
      <trkpt lat="46.18566" lon="6.38377">
        <ele>758.1369629</ele>
        <time>2011-09-25T06:32:58Z</time>
      </trkpt>
      <trkpt lat="46.18572" lon="6.38388">
        <ele>758.1369629</ele>
        <time>2011-09-25T06:33:03Z</time>
      </trkpt>
      <trkpt lat="46.18574" lon="6.38392">
        <ele>759.5788574</ele>
        <time>2011-09-25T06:33:05Z</time>
      </trkpt>
      <trkpt lat="46.18576" lon="6.38406">
        <ele>762.4626465</ele>
        <time>2011-09-25T06:33:11Z</time>
      </trkpt>
      <trkpt lat="46.18575" lon="6.38408">
        <ele>762.4626465</ele>
        <time>2011-09-25T06:33:12Z</time>
      </trkpt>
      <trkpt lat="46.18572" lon="6.38421">
        <ele>763.4240723</ele>
        <time>2011-09-25T06:33:18Z</time>
      </trkpt>
      <trkpt lat="46.18565" lon="6.38434">
        <ele>764.385498</ele>
        <time>2011-09-25T06:33:24Z</time>
      </trkpt>
      <trkpt lat="46.18558" lon="6.38447">
        <ele>764.385498</ele>
        <time>2011-09-25T06:33:30Z</time>
      </trkpt>
      <trkpt lat="46.1855" lon="6.38459">
        <ele>769.1921387</ele>
        <time>2011-09-25T06:33:35Z</time>
      </trkpt>
      <trkpt lat="46.18543" lon="6.38469">
        <ele>771.5952148</ele>
        <time>2011-09-25T06:33:40Z</time>
      </trkpt>
      <trkpt lat="46.18538" lon="6.38479">
        <ele>776.4018555</ele>
        <time>2011-09-25T06:33:44Z</time>
      </trkpt>
      <trkpt lat="46.18536" lon="6.38481">
        <ele>778.8051758</ele>
        <time>2011-09-25T06:33:45Z</time>
      </trkpt>
      <trkpt lat="46.18534" lon="6.38492">
        <ele>786.4958496</ele>
        <time>2011-09-25T06:33:49Z</time>
      </trkpt>
      <trkpt lat="46.18535" lon="6.38496">
        <ele>789.8603516</ele>
        <time>2011-09-25T06:33:51Z</time>
      </trkpt>
      <trkpt lat="46.18539" lon="6.38505">
        <ele>788.418457</ele>
        <time>2011-09-25T06:33:56Z</time>
      </trkpt>
      <trkpt lat="46.18544" lon="6.38515">
        <ele>780.2473145</ele>
        <time>2011-09-25T06:34:01Z</time>
      </trkpt>
      <trkpt lat="46.18548" lon="6.38526">
        <ele>779.7663574</ele>
        <time>2011-09-25T06:34:04Z</time>
      </trkpt>
      <trkpt lat="46.18554" lon="6.38537">
        <ele>781.2087402</ele>
        <time>2011-09-25T06:34:09Z</time>
      </trkpt>
      <trkpt lat="46.18558" lon="6.3854">
        <ele>781.2087402</ele>
        <time>2011-09-25T06:34:11Z</time>
      </trkpt>
      <trkpt lat="46.18568" lon="6.38551">
        <ele>785.0539551</ele>
        <time>2011-09-25T06:34:17Z</time>
      </trkpt>
      <trkpt lat="46.18571" lon="6.38556">
        <ele>784.5732422</ele>
        <time>2011-09-25T06:34:19Z</time>
      </trkpt>
      <trkpt lat="46.18582" lon="6.38562">
        <ele>785.0539551</ele>
        <time>2011-09-25T06:34:24Z</time>
      </trkpt>
      <trkpt lat="46.18589" lon="6.38565">
        <ele>788.8991699</ele>
        <time>2011-09-25T06:34:28Z</time>
      </trkpt>
      <trkpt lat="46.18599" lon="6.38576">
        <ele>788.418457</ele>
        <time>2011-09-25T06:34:33Z</time>
      </trkpt>
      <trkpt lat="46.18604" lon="6.38584">
        <ele>786.0151367</ele>
        <time>2011-09-25T06:34:36Z</time>
      </trkpt>
      <trkpt lat="46.18615" lon="6.38599">
        <ele>781.2087402</ele>
        <time>2011-09-25T06:34:41Z</time>
      </trkpt>
      <trkpt lat="46.18627" lon="6.38608">
        <ele>780.2473145</ele>
        <time>2011-09-25T06:34:46Z</time>
      </trkpt>
      <trkpt lat="46.18637" lon="6.38614">
        <ele>779.2856445</ele>
        <time>2011-09-25T06:34:50Z</time>
      </trkpt>
      <trkpt lat="46.18649" lon="6.38627">
        <ele>779.2856445</ele>
        <time>2011-09-25T06:34:56Z</time>
      </trkpt>
      <trkpt lat="46.18661" lon="6.38627">
        <ele>781.689209</ele>
        <time>2011-09-25T06:35:02Z</time>
      </trkpt>
      <trkpt lat="46.1867" lon="6.3863">
        <ele>782.6506348</ele>
        <time>2011-09-25T06:35:07Z</time>
      </trkpt>
      <trkpt lat="46.18679" lon="6.38632">
        <ele>785.0539551</ele>
        <time>2011-09-25T06:35:11Z</time>
      </trkpt>
      <trkpt lat="46.18687" lon="6.38633">
        <ele>785.5344238</ele>
        <time>2011-09-25T06:35:15Z</time>
      </trkpt>
      <trkpt lat="46.18691" lon="6.38636">
        <ele>785.5344238</ele>
        <time>2011-09-25T06:35:17Z</time>
      </trkpt>
      <trkpt lat="46.18691" lon="6.38648">
        <ele>784.5732422</ele>
        <time>2011-09-25T06:35:22Z</time>
      </trkpt>
      <trkpt lat="46.18687" lon="6.38656">
        <ele>785.5344238</ele>
        <time>2011-09-25T06:35:27Z</time>
      </trkpt>
      <trkpt lat="46.18686" lon="6.38658">
        <ele>785.5344238</ele>
        <time>2011-09-25T06:35:28Z</time>
      </trkpt>
      <trkpt lat="46.18686" lon="6.3867">
        <ele>786.4958496</ele>
        <time>2011-09-25T06:35:34Z</time>
      </trkpt>
      <trkpt lat="46.18693" lon="6.38677">
        <ele>788.418457</ele>
        <time>2011-09-25T06:35:40Z</time>
      </trkpt>
      <trkpt lat="46.18696" lon="6.38684">
        <ele>789.8603516</ele>
        <time>2011-09-25T06:35:44Z</time>
      </trkpt>
      <trkpt lat="46.18701" lon="6.38697">
        <ele>790.8215332</ele>
        <time>2011-09-25T06:35:50Z</time>
      </trkpt>
      <trkpt lat="46.18702" lon="6.38707">
        <ele>791.782959</ele>
        <time>2011-09-25T06:35:55Z</time>
      </trkpt>
      <trkpt lat="46.18702" lon="6.3871">
        <ele>792.2636719</ele>
        <time>2011-09-25T06:35:57Z</time>
      </trkpt>
      <trkpt lat="46.18703" lon="6.38723">
        <ele>793.7055664</ele>
        <time>2011-09-25T06:36:02Z</time>
      </trkpt>
      <trkpt lat="46.18704" lon="6.38733">
        <ele>794.1862793</ele>
        <time>2011-09-25T06:36:06Z</time>
      </trkpt>
      <trkpt lat="46.18704" lon="6.38739">
        <ele>793.7055664</ele>
        <time>2011-09-25T06:36:08Z</time>
      </trkpt>
      <trkpt lat="46.18696" lon="6.3876">
        <ele>793.7055664</ele>
        <time>2011-09-25T06:36:17Z</time>
      </trkpt>
      <trkpt lat="46.18694" lon="6.3877">
        <ele>795.1474609</ele>
        <time>2011-09-25T06:36:22Z</time>
      </trkpt>
      <trkpt lat="46.18689" lon="6.3878">
        <ele>799.4736328</ele>
        <time>2011-09-25T06:36:26Z</time>
      </trkpt>
      <trkpt lat="46.18685" lon="6.38787">
        <ele>802.8381348</ele>
        <time>2011-09-25T06:36:30Z</time>
      </trkpt>
      <trkpt lat="46.18681" lon="6.38801">
        <ele>805.722168</ele>
        <time>2011-09-25T06:36:36Z</time>
      </trkpt>
      <trkpt lat="46.18678" lon="6.38816">
        <ele>810.0478516</ele>
        <time>2011-09-25T06:36:42Z</time>
      </trkpt>
      <trkpt lat="46.18679" lon="6.38826">
        <ele>810.5285645</ele>
        <time>2011-09-25T06:36:47Z</time>
      </trkpt>
      <trkpt lat="46.18675" lon="6.38831">
        <ele>809.5673828</ele>
        <time>2011-09-25T06:36:51Z</time>
      </trkpt>
      <trkpt lat="46.18667" lon="6.3883">
        <ele>807.6447754</ele>
        <time>2011-09-25T06:36:58Z</time>
      </trkpt>
      <trkpt lat="46.18662" lon="6.38828">
        <ele>807.6447754</ele>
        <time>2011-09-25T06:37:02Z</time>
      </trkpt>
      <trkpt lat="46.18654" lon="6.38826">
        <ele>810.0478516</ele>
        <time>2011-09-25T06:37:08Z</time>
      </trkpt>
      <trkpt lat="46.18653" lon="6.38825">
        <ele>810.5285645</ele>
        <time>2011-09-25T06:37:09Z</time>
      </trkpt>
      <trkpt lat="46.18646" lon="6.38822">
        <ele>812.9321289</ele>
        <time>2011-09-25T06:37:16Z</time>
      </trkpt>
      <trkpt lat="46.18637" lon="6.38815">
        <ele>812.9321289</ele>
        <time>2011-09-25T06:37:23Z</time>
      </trkpt>
      <trkpt lat="46.18635" lon="6.38814">
        <ele>811.4899902</ele>
        <time>2011-09-25T06:37:26Z</time>
      </trkpt>
      <trkpt lat="46.18633" lon="6.38813">
        <ele>811.9707031</ele>
        <time>2011-09-25T06:37:28Z</time>
      </trkpt>
      <trkpt lat="46.18625" lon="6.3881">
        <ele>811.9707031</ele>
        <time>2011-09-25T06:37:34Z</time>
      </trkpt>
      <trkpt lat="46.18619" lon="6.38809">
        <ele>814.8547363</ele>
        <time>2011-09-25T06:37:39Z</time>
      </trkpt>
      <trkpt lat="46.18612" lon="6.38805">
        <ele>816.2966309</ele>
        <time>2011-09-25T06:37:44Z</time>
      </trkpt>
      <trkpt lat="46.18611" lon="6.38805">
        <ele>816.2966309</ele>
        <time>2011-09-25T06:37:45Z</time>
      </trkpt>
      <trkpt lat="46.18605" lon="6.38803">
        <ele>819.661377</ele>
        <time>2011-09-25T06:37:49Z</time>
      </trkpt>
      <trkpt lat="46.18599" lon="6.388">
        <ele>819.661377</ele>
        <time>2011-09-25T06:37:53Z</time>
      </trkpt>
      <trkpt lat="46.18593" lon="6.38798">
        <ele>819.661377</ele>
        <time>2011-09-25T06:37:57Z</time>
      </trkpt>
      <trkpt lat="46.18585" lon="6.38795">
        <ele>822.0644531</ele>
        <time>2011-09-25T06:38:03Z</time>
      </trkpt>
      <trkpt lat="46.18579" lon="6.38791">
        <ele>824.4677734</ele>
        <time>2011-09-25T06:38:08Z</time>
      </trkpt>
      <trkpt lat="46.18567" lon="6.38782">
        <ele>827.3518066</ele>
        <time>2011-09-25T06:38:16Z</time>
      </trkpt>
      <trkpt lat="46.18558" lon="6.38776">
        <ele>829.755127</ele>
        <time>2011-09-25T06:38:22Z</time>
      </trkpt>
      <trkpt lat="46.18554" lon="6.38772">
        <ele>830.7165527</ele>
        <time>2011-09-25T06:38:25Z</time>
      </trkpt>
      <trkpt lat="46.18546" lon="6.38771">
        <ele>833.1196289</ele>
        <time>2011-09-25T06:38:30Z</time>
      </trkpt>
      <trkpt lat="46.18544" lon="6.3877">
        <ele>833.6003418</ele>
        <time>2011-09-25T06:38:31Z</time>
      </trkpt>
      <trkpt lat="46.18536" lon="6.38767">
        <ele>838.4069824</ele>
        <time>2011-09-25T06:38:36Z</time>
      </trkpt>
      <trkpt lat="46.18529" lon="6.38761">
        <ele>840.3295898</ele>
        <time>2011-09-25T06:38:41Z</time>
      </trkpt>
      <trkpt lat="46.18521" lon="6.38757">
        <ele>841.7714844</ele>
        <time>2011-09-25T06:38:46Z</time>
      </trkpt>
      <trkpt lat="46.1852" lon="6.38755">
        <ele>842.2521973</ele>
        <time>2011-09-25T06:38:47Z</time>
      </trkpt>
      <trkpt lat="46.18513" lon="6.3875">
        <ele>843.6940918</ele>
        <time>2011-09-25T06:38:51Z</time>
      </trkpt>
      <trkpt lat="46.18503" lon="6.38739">
        <ele>846.0976563</ele>
        <time>2011-09-25T06:38:58Z</time>
      </trkpt>
      <trkpt lat="46.18497" lon="6.38735">
        <ele>847.0588379</ele>
        <time>2011-09-25T06:39:01Z</time>
      </trkpt>
      <trkpt lat="46.18482" lon="6.3873">
        <ele>848.0202637</ele>
        <time>2011-09-25T06:39:07Z</time>
      </trkpt>
      <trkpt lat="46.18468" lon="6.38724">
        <ele>848.9814453</ele>
        <time>2011-09-25T06:39:13Z</time>
      </trkpt>
      <trkpt lat="46.18453" lon="6.38721">
        <ele>853.7880859</ele>
        <time>2011-09-25T06:39:20Z</time>
      </trkpt>
      <trkpt lat="46.18441" lon="6.38714">
        <ele>855.7106934</ele>
        <time>2011-09-25T06:39:26Z</time>
      </trkpt>
      <trkpt lat="46.18428" lon="6.38704">
        <ele>854.7492676</ele>
        <time>2011-09-25T06:39:33Z</time>
      </trkpt>
      <trkpt lat="46.18417" lon="6.38697">
        <ele>855.2299805</ele>
        <time>2011-09-25T06:39:38Z</time>
      </trkpt>
      <trkpt lat="46.18409" lon="6.38691">
        <ele>855.7106934</ele>
        <time>2011-09-25T06:39:42Z</time>
      </trkpt>
      <trkpt lat="46.18393" lon="6.38686">
        <ele>859.0751953</ele>
        <time>2011-09-25T06:39:49Z</time>
      </trkpt>
      <trkpt lat="46.18383" lon="6.38686">
        <ele>859.5559082</ele>
        <time>2011-09-25T06:39:53Z</time>
      </trkpt>
      <trkpt lat="46.18367" lon="6.38689">
        <ele>860.9980469</ele>
        <time>2011-09-25T06:40:00Z</time>
      </trkpt>
      <trkpt lat="46.18352" lon="6.38694">
        <ele>860.517334</ele>
        <time>2011-09-25T06:40:06Z</time>
      </trkpt>
      <trkpt lat="46.18336" lon="6.38697">
        <ele>860.0366211</ele>
        <time>2011-09-25T06:40:12Z</time>
      </trkpt>
      <trkpt lat="46.18324" lon="6.38697">
        <ele>861.4787598</ele>
        <time>2011-09-25T06:40:18Z</time>
      </trkpt>
      <trkpt lat="46.1831" lon="6.38698">
        <ele>860.517334</ele>
        <time>2011-09-25T06:40:24Z</time>
      </trkpt>
      <trkpt lat="46.1829" lon="6.387">
        <ele>858.1140137</ele>
        <time>2011-09-25T06:40:32Z</time>
      </trkpt>
      <trkpt lat="46.18273" lon="6.387">
        <ele>857.1525879</ele>
        <time>2011-09-25T06:40:39Z</time>
      </trkpt>
      <trkpt lat="46.18264" lon="6.38701">
        <ele>857.6333008</ele>
        <time>2011-09-25T06:40:43Z</time>
      </trkpt>
      <trkpt lat="46.18249" lon="6.38702">
        <ele>859.0751953</ele>
        <time>2011-09-25T06:40:49Z</time>
      </trkpt>
      <trkpt lat="46.18238" lon="6.38696">
        <ele>861.4787598</ele>
        <time>2011-09-25T06:40:54Z</time>
      </trkpt>
      <trkpt lat="46.18228" lon="6.38691">
        <ele>863.4013672</ele>
        <time>2011-09-25T06:40:59Z</time>
      </trkpt>
      <trkpt lat="46.1822" lon="6.38679">
        <ele>865.8046875</ele>
        <time>2011-09-25T06:41:04Z</time>
      </trkpt>
      <trkpt lat="46.1821" lon="6.38675">
        <ele>865.8046875</ele>
        <time>2011-09-25T06:41:09Z</time>
      </trkpt>
      <trkpt lat="46.18196" lon="6.38675">
        <ele>869.1691895</ele>
        <time>2011-09-25T06:41:15Z</time>
      </trkpt>
      <trkpt lat="46.18183" lon="6.38674">
        <ele>869.6499023</ele>
        <time>2011-09-25T06:41:21Z</time>
      </trkpt>
      <trkpt lat="46.18171" lon="6.38674">
        <ele>871.5722656</ele>
        <time>2011-09-25T06:41:26Z</time>
      </trkpt>
      <trkpt lat="46.18159" lon="6.38673">
        <ele>875.4174805</ele>
        <time>2011-09-25T06:41:32Z</time>
      </trkpt>
      <trkpt lat="46.18157" lon="6.38672">
        <ele>875.4174805</ele>
        <time>2011-09-25T06:41:33Z</time>
      </trkpt>
      <trkpt lat="46.18148" lon="6.38673">
        <ele>876.8598633</ele>
        <time>2011-09-25T06:41:37Z</time>
      </trkpt>
      <trkpt lat="46.18136" lon="6.38673">
        <ele>878.7824707</ele>
        <time>2011-09-25T06:41:43Z</time>
      </trkpt>
      <trkpt lat="46.18132" lon="6.38673">
        <ele>879.7436523</ele>
        <time>2011-09-25T06:41:45Z</time>
      </trkpt>
      <trkpt lat="46.18128" lon="6.38673">
        <ele>879.7436523</ele>
        <time>2011-09-25T06:41:47Z</time>
      </trkpt>
      <trkpt lat="46.18116" lon="6.38667">
        <ele>880.7050781</ele>
        <time>2011-09-25T06:41:53Z</time>
      </trkpt>
      <trkpt lat="46.18107" lon="6.38668">
        <ele>883.1081543</ele>
        <time>2011-09-25T06:41:57Z</time>
      </trkpt>
      <trkpt lat="46.18093" lon="6.38665">
        <ele>882.6276855</ele>
        <time>2011-09-25T06:42:03Z</time>
      </trkpt>
      <trkpt lat="46.18073" lon="6.38662">
        <ele>883.1081543</ele>
        <time>2011-09-25T06:42:11Z</time>
      </trkpt>
      <trkpt lat="46.1806" lon="6.3866">
        <ele>883.1081543</ele>
        <time>2011-09-25T06:42:17Z</time>
      </trkpt>
      <trkpt lat="46.18043" lon="6.38656">
        <ele>884.0695801</ele>
        <time>2011-09-25T06:42:24Z</time>
      </trkpt>
      <trkpt lat="46.18028" lon="6.38655">
        <ele>887.9147949</ele>
        <time>2011-09-25T06:42:30Z</time>
      </trkpt>
      <trkpt lat="46.18023" lon="6.38654">
        <ele>886.9533691</ele>
        <time>2011-09-25T06:42:32Z</time>
      </trkpt>
      <trkpt lat="46.18011" lon="6.38651">
        <ele>886.4729004</ele>
        <time>2011-09-25T06:42:38Z</time>
      </trkpt>
      <trkpt lat="46.17996" lon="6.38657">
        <ele>889.3566895</ele>
        <time>2011-09-25T06:42:45Z</time>
      </trkpt>
      <trkpt lat="46.17976" lon="6.38663">
        <ele>892.7216797</ele>
        <time>2011-09-25T06:42:52Z</time>
      </trkpt>
      <trkpt lat="46.1796" lon="6.38662">
        <ele>893.6828613</ele>
        <time>2011-09-25T06:42:58Z</time>
      </trkpt>
      <trkpt lat="46.17947" lon="6.3866">
        <ele>894.644043</ele>
        <time>2011-09-25T06:43:03Z</time>
      </trkpt>
      <trkpt lat="46.17932" lon="6.38656">
        <ele>893.2021484</ele>
        <time>2011-09-25T06:43:09Z</time>
      </trkpt>
      <trkpt lat="46.17917" lon="6.38654">
        <ele>897.0473633</ele>
        <time>2011-09-25T06:43:15Z</time>
      </trkpt>
      <trkpt lat="46.17904" lon="6.38653">
        <ele>901.373291</ele>
        <time>2011-09-25T06:43:20Z</time>
      </trkpt>
      <trkpt lat="46.1789" lon="6.38651">
        <ele>904.737793</ele>
        <time>2011-09-25T06:43:26Z</time>
      </trkpt>
      <trkpt lat="46.17878" lon="6.38656">
        <ele>910.0251465</ele>
        <time>2011-09-25T06:43:30Z</time>
      </trkpt>
      <trkpt lat="46.17863" lon="6.38661">
        <ele>912.4284668</ele>
        <time>2011-09-25T06:43:36Z</time>
      </trkpt>
      <trkpt lat="46.17849" lon="6.38664">
        <ele>909.0639648</ele>
        <time>2011-09-25T06:43:42Z</time>
      </trkpt>
      <trkpt lat="46.17836" lon="6.38664">
        <ele>906.6604004</ele>
        <time>2011-09-25T06:43:47Z</time>
      </trkpt>
      <trkpt lat="46.17822" lon="6.38658">
        <ele>905.6992188</ele>
        <time>2011-09-25T06:43:53Z</time>
      </trkpt>
      <trkpt lat="46.17809" lon="6.3865">
        <ele>908.583252</ele>
        <time>2011-09-25T06:43:58Z</time>
      </trkpt>
      <trkpt lat="46.17798" lon="6.38647">
        <ele>907.6218262</ele>
        <time>2011-09-25T06:44:02Z</time>
      </trkpt>
      <trkpt lat="46.17786" lon="6.3865">
        <ele>908.583252</ele>
        <time>2011-09-25T06:44:06Z</time>
      </trkpt>
      <trkpt lat="46.17771" lon="6.38659">
        <ele>906.1796875</ele>
        <time>2011-09-25T06:44:11Z</time>
      </trkpt>
      <trkpt lat="46.17759" lon="6.38667">
        <ele>907.1411133</ele>
        <time>2011-09-25T06:44:15Z</time>
      </trkpt>
      <trkpt lat="46.17754" lon="6.38665">
        <ele>907.1411133</ele>
        <time>2011-09-25T06:44:17Z</time>
      </trkpt>
      <trkpt lat="46.17752" lon="6.38648">
        <ele>904.737793</ele>
        <time>2011-09-25T06:44:22Z</time>
      </trkpt>
      <trkpt lat="46.17751" lon="6.38637">
        <ele>906.1796875</ele>
        <time>2011-09-25T06:44:25Z</time>
      </trkpt>
      <trkpt lat="46.17749" lon="6.38624">
        <ele>907.1411133</ele>
        <time>2011-09-25T06:44:30Z</time>
      </trkpt>
      <trkpt lat="46.17743" lon="6.38605">
        <ele>909.0639648</ele>
        <time>2011-09-25T06:44:36Z</time>
      </trkpt>
      <trkpt lat="46.17736" lon="6.38591">
        <ele>911.4672852</ele>
        <time>2011-09-25T06:44:40Z</time>
      </trkpt>
      <trkpt lat="46.17731" lon="6.38578">
        <ele>913.8703613</ele>
        <time>2011-09-25T06:44:44Z</time>
      </trkpt>
      <trkpt lat="46.17722" lon="6.38568">
        <ele>912.4284668</ele>
        <time>2011-09-25T06:44:49Z</time>
      </trkpt>
      <trkpt lat="46.17711" lon="6.38559">
        <ele>907.1411133</ele>
        <time>2011-09-25T06:44:53Z</time>
      </trkpt>
      <trkpt lat="46.17696" lon="6.38538">
        <ele>907.1411133</ele>
        <time>2011-09-25T06:44:58Z</time>
      </trkpt>
      <trkpt lat="46.1768" lon="6.38525">
        <ele>909.0639648</ele>
        <time>2011-09-25T06:45:03Z</time>
      </trkpt>
      <trkpt lat="46.17671" lon="6.38513">
        <ele>912.9091797</ele>
        <time>2011-09-25T06:45:07Z</time>
      </trkpt>
      <trkpt lat="46.17675" lon="6.38493">
        <ele>909.0639648</ele>
        <time>2011-09-25T06:45:13Z</time>
      </trkpt>
      <trkpt lat="46.17676" lon="6.38472">
        <ele>909.0639648</ele>
        <time>2011-09-25T06:45:19Z</time>
      </trkpt>
      <trkpt lat="46.17679" lon="6.38456">
        <ele>909.0639648</ele>
        <time>2011-09-25T06:45:23Z</time>
      </trkpt>
      <trkpt lat="46.17682" lon="6.38451">
        <ele>909.5446777</ele>
        <time>2011-09-25T06:45:24Z</time>
      </trkpt>
      <trkpt lat="46.17686" lon="6.38435">
        <ele>911.947998</ele>
        <time>2011-09-25T06:45:28Z</time>
      </trkpt>
      <trkpt lat="46.17688" lon="6.38411">
        <ele>915.7932129</ele>
        <time>2011-09-25T06:45:35Z</time>
      </trkpt>
      <trkpt lat="46.17687" lon="6.3839">
        <ele>915.3125</ele>
        <time>2011-09-25T06:45:40Z</time>
      </trkpt>
      <trkpt lat="46.17687" lon="6.38369">
        <ele>912.9091797</ele>
        <time>2011-09-25T06:45:44Z</time>
      </trkpt>
      <trkpt lat="46.17685" lon="6.38345">
        <ele>907.6218262</ele>
        <time>2011-09-25T06:45:49Z</time>
      </trkpt>
      <trkpt lat="46.17677" lon="6.38323">
        <ele>906.6604004</ele>
        <time>2011-09-25T06:45:55Z</time>
      </trkpt>
      <trkpt lat="46.17674" lon="6.38317">
        <ele>902.8151855</ele>
        <time>2011-09-25T06:45:59Z</time>
      </trkpt>
      <trkpt lat="46.17675" lon="6.38329">
        <ele>900.4121094</ele>
        <time>2011-09-25T06:46:04Z</time>
      </trkpt>
      <trkpt lat="46.17677" lon="6.38339">
        <ele>899.4506836</ele>
        <time>2011-09-25T06:46:08Z</time>
      </trkpt>
      <trkpt lat="46.17681" lon="6.38361">
        <ele>898.9699707</ele>
        <time>2011-09-25T06:46:15Z</time>
      </trkpt>
      <trkpt lat="46.17682" lon="6.38373">
        <ele>899.9313965</ele>
        <time>2011-09-25T06:46:20Z</time>
      </trkpt>
      <trkpt lat="46.17679" lon="6.38385">
        <ele>902.8151855</ele>
        <time>2011-09-25T06:46:24Z</time>
      </trkpt>
      <trkpt lat="46.17679" lon="6.38396">
        <ele>906.1796875</ele>
        <time>2011-09-25T06:46:29Z</time>
      </trkpt>
      <trkpt lat="46.17678" lon="6.38404">
        <ele>907.1411133</ele>
        <time>2011-09-25T06:46:32Z</time>
      </trkpt>
      <trkpt lat="46.17676" lon="6.38422">
        <ele>909.0639648</ele>
        <time>2011-09-25T06:46:38Z</time>
      </trkpt>
      <trkpt lat="46.17673" lon="6.38437">
        <ele>908.583252</ele>
        <time>2011-09-25T06:46:43Z</time>
      </trkpt>
      <trkpt lat="46.17672" lon="6.38456">
        <ele>911.4672852</ele>
        <time>2011-09-25T06:46:49Z</time>
      </trkpt>
      <trkpt lat="46.17671" lon="6.38466">
        <ele>912.9091797</ele>
        <time>2011-09-25T06:46:53Z</time>
      </trkpt>
      <trkpt lat="46.17671" lon="6.38476">
        <ele>913.8703613</ele>
        <time>2011-09-25T06:46:57Z</time>
      </trkpt>
      <trkpt lat="46.17666" lon="6.38491">
        <ele>916.7543945</ele>
        <time>2011-09-25T06:47:03Z</time>
      </trkpt>
      <trkpt lat="46.17657" lon="6.38507">
        <ele>918.677002</ele>
        <time>2011-09-25T06:47:09Z</time>
      </trkpt>
      <trkpt lat="46.17648" lon="6.38526">
        <ele>921.560791</ele>
        <time>2011-09-25T06:47:15Z</time>
      </trkpt>
      <trkpt lat="46.17641" lon="6.38534">
        <ele>923.0029297</ele>
        <time>2011-09-25T06:47:20Z</time>
      </trkpt>
      <trkpt lat="46.1764" lon="6.38535">
        <ele>924.4450684</ele>
        <time>2011-09-25T06:47:21Z</time>
      </trkpt>
      <trkpt lat="46.17643" lon="6.38549">
        <ele>923.4836426</ele>
        <time>2011-09-25T06:47:26Z</time>
      </trkpt>
      <trkpt lat="46.17642" lon="6.38558">
        <ele>921.0803223</ele>
        <time>2011-09-25T06:47:31Z</time>
      </trkpt>
      <trkpt lat="46.17646" lon="6.38567">
        <ele>920.5996094</ele>
        <time>2011-09-25T06:47:35Z</time>
      </trkpt>
      <trkpt lat="46.1765" lon="6.38576">
        <ele>919.1577148</ele>
        <time>2011-09-25T06:47:39Z</time>
      </trkpt>
      <trkpt lat="46.17655" lon="6.38583">
        <ele>921.0803223</ele>
        <time>2011-09-25T06:47:43Z</time>
      </trkpt>
      <trkpt lat="46.17661" lon="6.38589">
        <ele>919.6384277</ele>
        <time>2011-09-25T06:47:47Z</time>
      </trkpt>
      <trkpt lat="46.17664" lon="6.38593">
        <ele>920.1188965</ele>
        <time>2011-09-25T06:47:49Z</time>
      </trkpt>
      <trkpt lat="46.17663" lon="6.386">
        <ele>922.0415039</ele>
        <time>2011-09-25T06:47:54Z</time>
      </trkpt>
      <trkpt lat="46.17649" lon="6.386">
        <ele>923.9641113</ele>
        <time>2011-09-25T06:47:59Z</time>
      </trkpt>
      <trkpt lat="46.1764" lon="6.38603">
        <ele>924.4450684</ele>
        <time>2011-09-25T06:48:03Z</time>
      </trkpt>
      <trkpt lat="46.17638" lon="6.38604">
        <ele>924.9257813</ele>
        <time>2011-09-25T06:48:04Z</time>
      </trkpt>
      <trkpt lat="46.17625" lon="6.38611">
        <ele>927.3291016</ele>
        <time>2011-09-25T06:48:10Z</time>
      </trkpt>
      <trkpt lat="46.17616" lon="6.38622">
        <ele>931.1743164</ele>
        <time>2011-09-25T06:48:15Z</time>
      </trkpt>
      <trkpt lat="46.17609" lon="6.38636">
        <ele>931.6547852</ele>
        <time>2011-09-25T06:48:20Z</time>
      </trkpt>
      <trkpt lat="46.17601" lon="6.38653">
        <ele>937.4226074</ele>
        <time>2011-09-25T06:48:24Z</time>
      </trkpt>
      <trkpt lat="46.17588" lon="6.38666">
        <ele>944.6325684</ele>
        <time>2011-09-25T06:48:28Z</time>
      </trkpt>
      <trkpt lat="46.17578" lon="6.38672">
        <ele>944.1520996</ele>
        <time>2011-09-25T06:48:32Z</time>
      </trkpt>
      <trkpt lat="46.17573" lon="6.38677">
        <ele>945.1132813</ele>
        <time>2011-09-25T06:48:35Z</time>
      </trkpt>
      <trkpt lat="46.17562" lon="6.38679">
        <ele>944.6325684</ele>
        <time>2011-09-25T06:48:41Z</time>
      </trkpt>
      <trkpt lat="46.17548" lon="6.38684">
        <ele>944.1520996</ele>
        <time>2011-09-25T06:48:47Z</time>
      </trkpt>
      <trkpt lat="46.17546" lon="6.38684">
        <ele>941.7487793</ele>
        <time>2011-09-25T06:48:49Z</time>
      </trkpt>
      <trkpt lat="46.1753" lon="6.3869">
        <ele>938.8647461</ele>
        <time>2011-09-25T06:48:56Z</time>
      </trkpt>
      <trkpt lat="46.17517" lon="6.38694">
        <ele>938.8647461</ele>
        <time>2011-09-25T06:49:01Z</time>
      </trkpt>
      <trkpt lat="46.17502" lon="6.38698">
        <ele>938.8647461</ele>
        <time>2011-09-25T06:49:06Z</time>
      </trkpt>
      <trkpt lat="46.17488" lon="6.38704">
        <ele>937.9033203</ele>
        <time>2011-09-25T06:49:11Z</time>
      </trkpt>
      <trkpt lat="46.17476" lon="6.38707">
        <ele>935.9807129</ele>
        <time>2011-09-25T06:49:16Z</time>
      </trkpt>
      <trkpt lat="46.17462" lon="6.38712">
        <ele>934.0581055</ele>
        <time>2011-09-25T06:49:21Z</time>
      </trkpt>
      <trkpt lat="46.17444" lon="6.38717">
        <ele>933.5773926</ele>
        <time>2011-09-25T06:49:27Z</time>
      </trkpt>
      <trkpt lat="46.1743" lon="6.38724">
        <ele>930.6936035</ele>
        <time>2011-09-25T06:49:33Z</time>
      </trkpt>
      <trkpt lat="46.17421" lon="6.38735">
        <ele>934.5388184</ele>
        <time>2011-09-25T06:49:37Z</time>
      </trkpt>
      <trkpt lat="46.17405" lon="6.38749">
        <ele>938.3840332</ele>
        <time>2011-09-25T06:49:43Z</time>
      </trkpt>
      <trkpt lat="46.174" lon="6.38748">
        <ele>938.8647461</ele>
        <time>2011-09-25T06:49:45Z</time>
      </trkpt>
      <trkpt lat="46.17394" lon="6.38748">
        <ele>941.7487793</ele>
        <time>2011-09-25T06:49:48Z</time>
      </trkpt>
      <trkpt lat="46.17381" lon="6.38747">
        <ele>944.1520996</ele>
        <time>2011-09-25T06:49:53Z</time>
      </trkpt>
      <trkpt lat="46.17371" lon="6.38739">
        <ele>939.8259277</ele>
        <time>2011-09-25T06:49:58Z</time>
      </trkpt>
      <trkpt lat="46.17365" lon="6.38735">
        <ele>936.9418945</ele>
        <time>2011-09-25T06:50:02Z</time>
      </trkpt>
      <trkpt lat="46.17356" lon="6.38733">
        <ele>935.0195313</ele>
        <time>2011-09-25T06:50:06Z</time>
      </trkpt>
      <trkpt lat="46.17352" lon="6.3873">
        <ele>934.5388184</ele>
        <time>2011-09-25T06:50:09Z</time>
      </trkpt>
      <trkpt lat="46.17338" lon="6.38729">
        <ele>936.9418945</ele>
        <time>2011-09-25T06:50:14Z</time>
      </trkpt>
      <trkpt lat="46.17325" lon="6.38729">
        <ele>937.4226074</ele>
        <time>2011-09-25T06:50:19Z</time>
      </trkpt>
      <trkpt lat="46.17312" lon="6.38725">
        <ele>936.4614258</ele>
        <time>2011-09-25T06:50:24Z</time>
      </trkpt>
      <trkpt lat="46.17297" lon="6.38722">
        <ele>938.3840332</ele>
        <time>2011-09-25T06:50:30Z</time>
      </trkpt>
      <trkpt lat="46.17289" lon="6.3872">
        <ele>938.3840332</ele>
        <time>2011-09-25T06:50:34Z</time>
      </trkpt>
      <trkpt lat="46.17282" lon="6.38714">
        <ele>937.9033203</ele>
        <time>2011-09-25T06:50:39Z</time>
      </trkpt>
      <trkpt lat="46.17276" lon="6.3871">
        <ele>937.4226074</ele>
        <time>2011-09-25T06:50:42Z</time>
      </trkpt>
      <trkpt lat="46.17264" lon="6.3871">
        <ele>938.3840332</ele>
        <time>2011-09-25T06:50:47Z</time>
      </trkpt>
      <trkpt lat="46.17256" lon="6.38708">
        <ele>941.2680664</ele>
        <time>2011-09-25T06:50:51Z</time>
      </trkpt>
      <trkpt lat="46.17243" lon="6.38707">
        <ele>941.2680664</ele>
        <time>2011-09-25T06:50:57Z</time>
      </trkpt>
      <trkpt lat="46.17231" lon="6.38705">
        <ele>939.3452148</ele>
        <time>2011-09-25T06:51:02Z</time>
      </trkpt>
      <trkpt lat="46.17219" lon="6.38704">
        <ele>938.3840332</ele>
        <time>2011-09-25T06:51:07Z</time>
      </trkpt>
      <trkpt lat="46.17205" lon="6.38705">
        <ele>935.9807129</ele>
        <time>2011-09-25T06:51:11Z</time>
      </trkpt>
      <trkpt lat="46.17192" lon="6.38703">
        <ele>935.9807129</ele>
        <time>2011-09-25T06:51:15Z</time>
      </trkpt>
      <trkpt lat="46.1718" lon="6.38708">
        <ele>935.5</ele>
        <time>2011-09-25T06:51:20Z</time>
      </trkpt>
      <trkpt lat="46.17166" lon="6.38715">
        <ele>934.0581055</ele>
        <time>2011-09-25T06:51:25Z</time>
      </trkpt>
      <trkpt lat="46.17153" lon="6.38719">
        <ele>933.5773926</ele>
        <time>2011-09-25T06:51:30Z</time>
      </trkpt>
      <trkpt lat="46.17142" lon="6.38722">
        <ele>933.5773926</ele>
        <time>2011-09-25T06:51:35Z</time>
      </trkpt>
      <trkpt lat="46.17129" lon="6.38723">
        <ele>934.0581055</ele>
        <time>2011-09-25T06:51:39Z</time>
      </trkpt>
      <trkpt lat="46.17115" lon="6.38721">
        <ele>934.0581055</ele>
        <time>2011-09-25T06:51:45Z</time>
      </trkpt>
      <trkpt lat="46.17101" lon="6.38718">
        <ele>934.0581055</ele>
        <time>2011-09-25T06:51:51Z</time>
      </trkpt>
      <trkpt lat="46.1709" lon="6.3872">
        <ele>934.5388184</ele>
        <time>2011-09-25T06:51:56Z</time>
      </trkpt>
      <trkpt lat="46.17076" lon="6.38725">
        <ele>928.2902832</ele>
        <time>2011-09-25T06:52:02Z</time>
      </trkpt>
      <trkpt lat="46.17066" lon="6.38731">
        <ele>925.8869629</ele>
        <time>2011-09-25T06:52:07Z</time>
      </trkpt>
      <trkpt lat="46.17061" lon="6.38734">
        <ele>923.0029297</ele>
        <time>2011-09-25T06:52:10Z</time>
      </trkpt>
      <trkpt lat="46.17047" lon="6.38743">
        <ele>916.7543945</ele>
        <time>2011-09-25T06:52:15Z</time>
      </trkpt>
      <trkpt lat="46.17033" lon="6.38746">
        <ele>914.8317871</ele>
        <time>2011-09-25T06:52:20Z</time>
      </trkpt>
      <trkpt lat="46.17022" lon="6.38746">
        <ele>913.8703613</ele>
        <time>2011-09-25T06:52:24Z</time>
      </trkpt>
      <trkpt lat="46.17012" lon="6.38752">
        <ele>913.8703613</ele>
        <time>2011-09-25T06:52:28Z</time>
      </trkpt>
      <trkpt lat="46.16999" lon="6.38759">
        <ele>913.3898926</ele>
        <time>2011-09-25T06:52:33Z</time>
      </trkpt>
      <trkpt lat="46.1699" lon="6.3876">
        <ele>913.8703613</ele>
        <time>2011-09-25T06:52:36Z</time>
      </trkpt>
      <trkpt lat="46.16977" lon="6.38747">
        <ele>910.9865723</ele>
        <time>2011-09-25T06:52:42Z</time>
      </trkpt>
      <trkpt lat="46.16973" lon="6.38742">
        <ele>911.947998</ele>
        <time>2011-09-25T06:52:45Z</time>
      </trkpt>
      <trkpt lat="46.1697" lon="6.38732">
        <ele>916.2736816</ele>
        <time>2011-09-25T06:52:51Z</time>
      </trkpt>
      <trkpt lat="46.16969" lon="6.38729">
        <ele>917.2351074</ele>
        <time>2011-09-25T06:52:53Z</time>
      </trkpt>
      <trkpt lat="46.16967" lon="6.38732">
        <ele>919.1577148</ele>
        <time>2011-09-25T06:52:57Z</time>
      </trkpt>
      <trkpt lat="46.16961" lon="6.38732">
        <ele>922.0415039</ele>
        <time>2011-09-25T06:53:02Z</time>
      </trkpt>
      <trkpt lat="46.16961" lon="6.38727">
        <ele>922.0415039</ele>
        <time>2011-09-25T06:53:04Z</time>
      </trkpt>
      <trkpt lat="46.16964" lon="6.38716">
        <ele>923.9641113</ele>
        <time>2011-09-25T06:53:09Z</time>
      </trkpt>
      <trkpt lat="46.16961" lon="6.38713">
        <ele>926.3676758</ele>
        <time>2011-09-25T06:53:13Z</time>
      </trkpt>
      <trkpt lat="46.1696" lon="6.38714">
        <ele>927.3291016</ele>
        <time>2011-09-25T06:53:15Z</time>
      </trkpt>
      <trkpt lat="46.16957" lon="6.38715">
        <ele>927.3291016</ele>
        <time>2011-09-25T06:53:17Z</time>
      </trkpt>
      <trkpt lat="46.16955" lon="6.38709">
        <ele>930.6936035</ele>
        <time>2011-09-25T06:53:22Z</time>
      </trkpt>
      <trkpt lat="46.16954" lon="6.38708">
        <ele>931.6547852</ele>
        <time>2011-09-25T06:53:23Z</time>
      </trkpt>
      <trkpt lat="46.16948" lon="6.38713">
        <ele>933.5773926</ele>
        <time>2011-09-25T06:53:30Z</time>
      </trkpt>
      <trkpt lat="46.16948" lon="6.38714">
        <ele>933.5773926</ele>
        <time>2011-09-25T06:53:31Z</time>
      </trkpt>
      <trkpt lat="46.16939" lon="6.38721">
        <ele>934.5388184</ele>
        <time>2011-09-25T06:53:37Z</time>
      </trkpt>
      <trkpt lat="46.16941" lon="6.38711">
        <ele>935.5</ele>
        <time>2011-09-25T06:53:44Z</time>
      </trkpt>
      <trkpt lat="46.16937" lon="6.38705">
        <ele>938.8647461</ele>
        <time>2011-09-25T06:53:50Z</time>
      </trkpt>
      <trkpt lat="46.16936" lon="6.38704">
        <ele>939.3452148</ele>
        <time>2011-09-25T06:53:51Z</time>
      </trkpt>
      <trkpt lat="46.16932" lon="6.38704">
        <ele>940.7873535</ele>
        <time>2011-09-25T06:53:54Z</time>
      </trkpt>
      <trkpt lat="46.16929" lon="6.38701">
        <ele>943.1906738</ele>
        <time>2011-09-25T06:53:57Z</time>
      </trkpt>
      <trkpt lat="46.16923" lon="6.38699">
        <ele>945.1132813</ele>
        <time>2011-09-25T06:54:02Z</time>
      </trkpt>
      <trkpt lat="46.16914" lon="6.387">
        <ele>945.1132813</ele>
        <time>2011-09-25T06:54:08Z</time>
      </trkpt>
      <trkpt lat="46.16906" lon="6.38695">
        <ele>946.074707</ele>
        <time>2011-09-25T06:54:14Z</time>
      </trkpt>
      <trkpt lat="46.16903" lon="6.3869">
        <ele>946.074707</ele>
        <time>2011-09-25T06:54:17Z</time>
      </trkpt>
      <trkpt lat="46.16901" lon="6.38687">
        <ele>946.5554199</ele>
        <time>2011-09-25T06:54:20Z</time>
      </trkpt>
      <trkpt lat="46.16894" lon="6.38686">
        <ele>946.5554199</ele>
        <time>2011-09-25T06:54:24Z</time>
      </trkpt>
      <trkpt lat="46.16879" lon="6.38689">
        <ele>947.5166016</ele>
        <time>2011-09-25T06:54:30Z</time>
      </trkpt>
      <trkpt lat="46.16871" lon="6.38694">
        <ele>947.0358887</ele>
        <time>2011-09-25T06:54:34Z</time>
      </trkpt>
      <trkpt lat="46.16862" lon="6.387">
        <ele>946.5554199</ele>
        <time>2011-09-25T06:54:37Z</time>
      </trkpt>
      <trkpt lat="46.16852" lon="6.38702">
        <ele>947.0358887</ele>
        <time>2011-09-25T06:54:41Z</time>
      </trkpt>
      <trkpt lat="46.16843" lon="6.38705">
        <ele>946.5554199</ele>
        <time>2011-09-25T06:54:44Z</time>
      </trkpt>
      <trkpt lat="46.16826" lon="6.38703">
        <ele>945.1132813</ele>
        <time>2011-09-25T06:54:50Z</time>
      </trkpt>
      <trkpt lat="46.16814" lon="6.38709">
        <ele>944.1520996</ele>
        <time>2011-09-25T06:54:54Z</time>
      </trkpt>
      <trkpt lat="46.16804" lon="6.38706">
        <ele>941.7487793</ele>
        <time>2011-09-25T06:54:58Z</time>
      </trkpt>
      <trkpt lat="46.16791" lon="6.38698">
        <ele>939.3452148</ele>
        <time>2011-09-25T06:55:03Z</time>
      </trkpt>
      <trkpt lat="46.16785" lon="6.38694">
        <ele>939.8259277</ele>
        <time>2011-09-25T06:55:07Z</time>
      </trkpt>
      <trkpt lat="46.16781" lon="6.38686">
        <ele>942.7102051</ele>
        <time>2011-09-25T06:55:13Z</time>
      </trkpt>
      <trkpt lat="46.1678" lon="6.38685">
        <ele>943.1906738</ele>
        <time>2011-09-25T06:55:14Z</time>
      </trkpt>
      <trkpt lat="46.16776" lon="6.38673">
        <ele>947.5166016</ele>
        <time>2011-09-25T06:55:21Z</time>
      </trkpt>
      <trkpt lat="46.16775" lon="6.38672">
        <ele>947.9973145</ele>
        <time>2011-09-25T06:55:22Z</time>
      </trkpt>
      <trkpt lat="46.16771" lon="6.38669">
        <ele>949.9199219</ele>
        <time>2011-09-25T06:55:26Z</time>
      </trkpt>
      <trkpt lat="46.1677" lon="6.38661">
        <ele>951.8425293</ele>
        <time>2011-09-25T06:55:32Z</time>
      </trkpt>
      <trkpt lat="46.16764" lon="6.3866">
        <ele>953.7651367</ele>
        <time>2011-09-25T06:55:36Z</time>
      </trkpt>
      <trkpt lat="46.16759" lon="6.38658">
        <ele>955.2070313</ele>
        <time>2011-09-25T06:55:39Z</time>
      </trkpt>
      <trkpt lat="46.16754" lon="6.38653">
        <ele>957.6105957</ele>
        <time>2011-09-25T06:55:43Z</time>
      </trkpt>
      <trkpt lat="46.16745" lon="6.3865">
        <ele>960.4943848</ele>
        <time>2011-09-25T06:55:49Z</time>
      </trkpt>
      <trkpt lat="46.16743" lon="6.38646">
        <ele>961.4558105</ele>
        <time>2011-09-25T06:55:51Z</time>
      </trkpt>
      <trkpt lat="46.16736" lon="6.3864">
        <ele>963.378418</ele>
        <time>2011-09-25T06:55:56Z</time>
      </trkpt>
      <trkpt lat="46.16728" lon="6.38639">
        <ele>966.262207</ele>
        <time>2011-09-25T06:56:01Z</time>
      </trkpt>
      <trkpt lat="46.16727" lon="6.38629">
        <ele>967.7041016</ele>
        <time>2011-09-25T06:56:07Z</time>
      </trkpt>
      <trkpt lat="46.16725" lon="6.38624">
        <ele>969.1462402</ele>
        <time>2011-09-25T06:56:11Z</time>
      </trkpt>
      <trkpt lat="46.16719" lon="6.38623">
        <ele>969.6269531</ele>
        <time>2011-09-25T06:56:15Z</time>
      </trkpt>
      <trkpt lat="46.16707" lon="6.3862">
        <ele>970.1074219</ele>
        <time>2011-09-25T06:56:22Z</time>
      </trkpt>
      <trkpt lat="46.167" lon="6.38622">
        <ele>970.5881348</ele>
        <time>2011-09-25T06:56:26Z</time>
      </trkpt>
      <trkpt lat="46.16692" lon="6.38622">
        <ele>969.6269531</ele>
        <time>2011-09-25T06:56:30Z</time>
      </trkpt>
      <trkpt lat="46.16687" lon="6.38627">
        <ele>966.262207</ele>
        <time>2011-09-25T06:56:35Z</time>
      </trkpt>
      <trkpt lat="46.16685" lon="6.38624">
        <ele>964.8203125</ele>
        <time>2011-09-25T06:56:38Z</time>
      </trkpt>
      <trkpt lat="46.16677" lon="6.38621">
        <ele>962.8977051</ele>
        <time>2011-09-25T06:56:42Z</time>
      </trkpt>
      <trkpt lat="46.16666" lon="6.38601">
        <ele>958.5717773</ele>
        <time>2011-09-25T06:56:48Z</time>
      </trkpt>
      <trkpt lat="46.16659" lon="6.3859">
        <ele>960.9750977</ele>
        <time>2011-09-25T06:56:52Z</time>
      </trkpt>
      <trkpt lat="46.16654" lon="6.38583">
        <ele>960.9750977</ele>
        <time>2011-09-25T06:56:55Z</time>
      </trkpt>
      <trkpt lat="46.16644" lon="6.38569">
        <ele>965.3010254</ele>
        <time>2011-09-25T06:57:01Z</time>
      </trkpt>
      <trkpt lat="46.16643" lon="6.38568">
        <ele>965.7817383</ele>
        <time>2011-09-25T06:57:02Z</time>
      </trkpt>
      <trkpt lat="46.16637" lon="6.38557">
        <ele>968.1848145</ele>
        <time>2011-09-25T06:57:07Z</time>
      </trkpt>
      <trkpt lat="46.16628" lon="6.38546">
        <ele>968.6655273</ele>
        <time>2011-09-25T06:57:12Z</time>
      </trkpt>
      <trkpt lat="46.16625" lon="6.3853">
        <ele>970.5881348</ele>
        <time>2011-09-25T06:57:17Z</time>
      </trkpt>
      <trkpt lat="46.16614" lon="6.38516">
        <ele>972.5109863</ele>
        <time>2011-09-25T06:57:22Z</time>
      </trkpt>
      <trkpt lat="46.16612" lon="6.38514">
        <ele>972.0302734</ele>
        <time>2011-09-25T06:57:23Z</time>
      </trkpt>
      <trkpt lat="46.16599" lon="6.38504">
        <ele>973.9528809</ele>
        <time>2011-09-25T06:57:28Z</time>
      </trkpt>
      <trkpt lat="46.16588" lon="6.38497">
        <ele>972.9916992</ele>
        <time>2011-09-25T06:57:33Z</time>
      </trkpt>
      <trkpt lat="46.16579" lon="6.38497">
        <ele>972.5109863</ele>
        <time>2011-09-25T06:57:36Z</time>
      </trkpt>
      <trkpt lat="46.16566" lon="6.38503">
        <ele>972.0302734</ele>
        <time>2011-09-25T06:57:41Z</time>
      </trkpt>
      <trkpt lat="46.16554" lon="6.38504">
        <ele>971.5493164</ele>
        <time>2011-09-25T06:57:46Z</time>
      </trkpt>
      <trkpt lat="46.16535" lon="6.38501">
        <ele>970.5881348</ele>
        <time>2011-09-25T06:57:52Z</time>
      </trkpt>
      <trkpt lat="46.16519" lon="6.38499">
        <ele>969.6269531</ele>
        <time>2011-09-25T06:57:57Z</time>
      </trkpt>
      <trkpt lat="46.16511" lon="6.38501">
        <ele>970.5881348</ele>
        <time>2011-09-25T06:58:01Z</time>
      </trkpt>
      <trkpt lat="46.16508" lon="6.38508">
        <ele>970.1074219</ele>
        <time>2011-09-25T06:58:04Z</time>
      </trkpt>
      <trkpt lat="46.16498" lon="6.38532">
        <ele>967.2236328</ele>
        <time>2011-09-25T06:58:11Z</time>
      </trkpt>
      <trkpt lat="46.16487" lon="6.38541">
        <ele>963.378418</ele>
        <time>2011-09-25T06:58:16Z</time>
      </trkpt>
      <trkpt lat="46.16478" lon="6.38534">
        <ele>961.9365234</ele>
        <time>2011-09-25T06:58:21Z</time>
      </trkpt>
      <trkpt lat="46.16463" lon="6.3853">
        <ele>961.4558105</ele>
        <time>2011-09-25T06:58:27Z</time>
      </trkpt>
      <trkpt lat="46.16459" lon="6.38529">
        <ele>962.4169922</ele>
        <time>2011-09-25T06:58:29Z</time>
      </trkpt>
      <trkpt lat="46.16448" lon="6.38518">
        <ele>964.8203125</ele>
        <time>2011-09-25T06:58:34Z</time>
      </trkpt>
      <trkpt lat="46.16437" lon="6.38511">
        <ele>967.2236328</ele>
        <time>2011-09-25T06:58:39Z</time>
      </trkpt>
      <trkpt lat="46.16425" lon="6.38508">
        <ele>970.5881348</ele>
        <time>2011-09-25T06:58:44Z</time>
      </trkpt>
      <trkpt lat="46.1641" lon="6.38506">
        <ele>970.1074219</ele>
        <time>2011-09-25T06:58:49Z</time>
      </trkpt>
      <trkpt lat="46.16399" lon="6.38503">
        <ele>968.6655273</ele>
        <time>2011-09-25T06:58:53Z</time>
      </trkpt>
      <trkpt lat="46.16387" lon="6.38505">
        <ele>969.1462402</ele>
        <time>2011-09-25T06:58:57Z</time>
      </trkpt>
      <trkpt lat="46.16375" lon="6.38499">
        <ele>967.7041016</ele>
        <time>2011-09-25T06:59:02Z</time>
      </trkpt>
      <trkpt lat="46.16366" lon="6.38497">
        <ele>968.1848145</ele>
        <time>2011-09-25T06:59:06Z</time>
      </trkpt>
      <trkpt lat="46.16358" lon="6.38496">
        <ele>966.7429199</ele>
        <time>2011-09-25T06:59:09Z</time>
      </trkpt>
      <trkpt lat="46.16343" lon="6.38484">
        <ele>962.8977051</ele>
        <time>2011-09-25T06:59:16Z</time>
      </trkpt>
      <trkpt lat="46.16333" lon="6.38477">
        <ele>959.0524902</ele>
        <time>2011-09-25T06:59:20Z</time>
      </trkpt>
      <trkpt lat="46.1632" lon="6.38481">
        <ele>953.7651367</ele>
        <time>2011-09-25T06:59:25Z</time>
      </trkpt>
      <trkpt lat="46.16312" lon="6.38487">
        <ele>950.4006348</ele>
        <time>2011-09-25T06:59:28Z</time>
      </trkpt>
      <trkpt lat="46.16302" lon="6.38497">
        <ele>946.074707</ele>
        <time>2011-09-25T06:59:33Z</time>
      </trkpt>
      <trkpt lat="46.16292" lon="6.38502">
        <ele>942.2294922</ele>
        <time>2011-09-25T06:59:38Z</time>
      </trkpt>
      <trkpt lat="46.16281" lon="6.38504">
        <ele>940.3068848</ele>
        <time>2011-09-25T06:59:42Z</time>
      </trkpt>
      <trkpt lat="46.16268" lon="6.38505">
        <ele>935.0195313</ele>
        <time>2011-09-25T06:59:47Z</time>
      </trkpt>
      <trkpt lat="46.16251" lon="6.38512">
        <ele>930.6936035</ele>
        <time>2011-09-25T06:59:53Z</time>
      </trkpt>
      <trkpt lat="46.16238" lon="6.38521">
        <ele>925.8869629</ele>
        <time>2011-09-25T06:59:59Z</time>
      </trkpt>
      <trkpt lat="46.1623" lon="6.38528">
        <ele>924.4450684</ele>
        <time>2011-09-25T07:00:02Z</time>
      </trkpt>
      <trkpt lat="46.16213" lon="6.38531">
        <ele>921.560791</ele>
        <time>2011-09-25T07:00:08Z</time>
      </trkpt>
      <trkpt lat="46.16199" lon="6.38526">
        <ele>920.1188965</ele>
        <time>2011-09-25T07:00:12Z</time>
      </trkpt>
      <trkpt lat="46.1619" lon="6.38523">
        <ele>919.6384277</ele>
        <time>2011-09-25T07:00:14Z</time>
      </trkpt>
      <trkpt lat="46.16173" lon="6.38519">
        <ele>919.1577148</ele>
        <time>2011-09-25T07:00:19Z</time>
      </trkpt>
      <trkpt lat="46.16159" lon="6.38515">
        <ele>919.1577148</ele>
        <time>2011-09-25T07:00:24Z</time>
      </trkpt>
      <trkpt lat="46.16142" lon="6.38511">
        <ele>917.7155762</ele>
        <time>2011-09-25T07:00:29Z</time>
      </trkpt>
      <trkpt lat="46.16126" lon="6.38504">
        <ele>916.7543945</ele>
        <time>2011-09-25T07:00:34Z</time>
      </trkpt>
      <trkpt lat="46.16115" lon="6.38496">
        <ele>914.8317871</ele>
        <time>2011-09-25T07:00:38Z</time>
      </trkpt>
      <trkpt lat="46.16103" lon="6.38484">
        <ele>913.3898926</ele>
        <time>2011-09-25T07:00:42Z</time>
      </trkpt>
      <trkpt lat="46.16092" lon="6.38474">
        <ele>909.5446777</ele>
        <time>2011-09-25T07:00:47Z</time>
      </trkpt>
      <trkpt lat="46.16079" lon="6.38458">
        <ele>909.0639648</ele>
        <time>2011-09-25T07:00:52Z</time>
      </trkpt>
      <trkpt lat="46.16067" lon="6.38441">
        <ele>907.6218262</ele>
        <time>2011-09-25T07:00:57Z</time>
      </trkpt>
      <trkpt lat="46.16061" lon="6.38426">
        <ele>903.7766113</ele>
        <time>2011-09-25T07:01:01Z</time>
      </trkpt>
      <trkpt lat="46.16051" lon="6.38416">
        <ele>901.8540039</ele>
        <time>2011-09-25T07:01:05Z</time>
      </trkpt>
      <trkpt lat="46.16047" lon="6.38407">
        <ele>903.7766113</ele>
        <time>2011-09-25T07:01:08Z</time>
      </trkpt>
      <trkpt lat="46.16036" lon="6.38399">
        <ele>905.2185059</ele>
        <time>2011-09-25T07:01:12Z</time>
      </trkpt>
      <trkpt lat="46.16018" lon="6.38389">
        <ele>908.583252</ele>
        <time>2011-09-25T07:01:18Z</time>
      </trkpt>
      <trkpt lat="46.16002" lon="6.38379">
        <ele>913.3898926</ele>
        <time>2011-09-25T07:01:23Z</time>
      </trkpt>
      <trkpt lat="46.15989" lon="6.3837">
        <ele>914.8317871</ele>
        <time>2011-09-25T07:01:28Z</time>
      </trkpt>
      <trkpt lat="46.15973" lon="6.38359">
        <ele>914.3510742</ele>
        <time>2011-09-25T07:01:34Z</time>
      </trkpt>
      <trkpt lat="46.15961" lon="6.38354">
        <ele>910.5058594</ele>
        <time>2011-09-25T07:01:38Z</time>
      </trkpt>
      <trkpt lat="46.15948" lon="6.38355">
        <ele>907.1411133</ele>
        <time>2011-09-25T07:01:42Z</time>
      </trkpt>
      <trkpt lat="46.15933" lon="6.3834">
        <ele>898.4892578</ele>
        <time>2011-09-25T07:01:47Z</time>
      </trkpt>
      <trkpt lat="46.1592" lon="6.38327">
        <ele>892.7216797</ele>
        <time>2011-09-25T07:01:52Z</time>
      </trkpt>
      <trkpt lat="46.15909" lon="6.38322">
        <ele>889.8374023</ele>
        <time>2011-09-25T07:01:56Z</time>
      </trkpt>
      <trkpt lat="46.15895" lon="6.3832">
        <ele>886.9533691</ele>
        <time>2011-09-25T07:02:01Z</time>
      </trkpt>
      <trkpt lat="46.15883" lon="6.38319">
        <ele>883.5888672</ele>
        <time>2011-09-25T07:02:05Z</time>
      </trkpt>
      <trkpt lat="46.15869" lon="6.38316">
        <ele>881.6662598</ele>
        <time>2011-09-25T07:02:09Z</time>
      </trkpt>
      <trkpt lat="46.15855" lon="6.3831">
        <ele>880.2243652</ele>
        <time>2011-09-25T07:02:14Z</time>
      </trkpt>
      <trkpt lat="46.15841" lon="6.38302">
        <ele>878.3017578</ele>
        <time>2011-09-25T07:02:19Z</time>
      </trkpt>
      <trkpt lat="46.15828" lon="6.38295">
        <ele>877.3405762</ele>
        <time>2011-09-25T07:02:23Z</time>
      </trkpt>
      <trkpt lat="46.15815" lon="6.38295">
        <ele>874.9370117</ele>
        <time>2011-09-25T07:02:27Z</time>
      </trkpt>
      <trkpt lat="46.15799" lon="6.38304">
        <ele>867.246582</ele>
        <time>2011-09-25T07:02:33Z</time>
      </trkpt>
      <trkpt lat="46.15796" lon="6.3831">
        <ele>863.8818359</ele>
        <time>2011-09-25T07:02:35Z</time>
      </trkpt>
      <trkpt lat="46.15789" lon="6.38338">
        <ele>857.6333008</ele>
        <time>2011-09-25T07:02:41Z</time>
      </trkpt>
      <trkpt lat="46.15788" lon="6.38356">
        <ele>849.9428711</ele>
        <time>2011-09-25T07:02:46Z</time>
      </trkpt>
      <trkpt lat="46.15798" lon="6.38375">
        <ele>840.3295898</ele>
        <time>2011-09-25T07:02:51Z</time>
      </trkpt>
      <trkpt lat="46.15807" lon="6.38393">
        <ele>835.5229492</ele>
        <time>2011-09-25T07:02:56Z</time>
      </trkpt>
      <trkpt lat="46.15817" lon="6.38412">
        <ele>830.2358398</ele>
        <time>2011-09-25T07:03:01Z</time>
      </trkpt>
      <trkpt lat="46.15823" lon="6.38436">
        <ele>829.755127</ele>
        <time>2011-09-25T07:03:06Z</time>
      </trkpt>
      <trkpt lat="46.15831" lon="6.38461">
        <ele>827.3518066</ele>
        <time>2011-09-25T07:03:11Z</time>
      </trkpt>
      <trkpt lat="46.15839" lon="6.38481">
        <ele>825.909668</ele>
        <time>2011-09-25T07:03:16Z</time>
      </trkpt>
      <trkpt lat="46.15844" lon="6.38503">
        <ele>827.3518066</ele>
        <time>2011-09-25T07:03:21Z</time>
      </trkpt>
      <trkpt lat="46.15843" lon="6.38524">
        <ele>831.1972656</ele>
        <time>2011-09-25T07:03:25Z</time>
      </trkpt>
      <trkpt lat="46.15851" lon="6.38545">
        <ele>828.7939453</ele>
        <time>2011-09-25T07:03:30Z</time>
      </trkpt>
      <trkpt lat="46.15859" lon="6.38559">
        <ele>825.909668</ele>
        <time>2011-09-25T07:03:35Z</time>
      </trkpt>
      <trkpt lat="46.15865" lon="6.38577">
        <ele>822.545166</ele>
        <time>2011-09-25T07:03:39Z</time>
      </trkpt>
      <trkpt lat="46.15869" lon="6.38595">
        <ele>819.1806641</ele>
        <time>2011-09-25T07:03:43Z</time>
      </trkpt>
      <trkpt lat="46.15875" lon="6.38612">
        <ele>814.3740234</ele>
        <time>2011-09-25T07:03:47Z</time>
      </trkpt>
      <trkpt lat="46.1589" lon="6.38628">
        <ele>806.2026367</ele>
        <time>2011-09-25T07:03:52Z</time>
      </trkpt>
      <trkpt lat="46.159" lon="6.38642">
        <ele>802.3574219</ele>
        <time>2011-09-25T07:03:56Z</time>
      </trkpt>
      <trkpt lat="46.1591" lon="6.38658">
        <ele>799.9543457</ele>
        <time>2011-09-25T07:04:01Z</time>
      </trkpt>
      <trkpt lat="46.15913" lon="6.38673">
        <ele>798.512207</ele>
        <time>2011-09-25T07:04:05Z</time>
      </trkpt>
      <trkpt lat="46.15906" lon="6.38703">
        <ele>797.0703125</ele>
        <time>2011-09-25T07:04:11Z</time>
      </trkpt>
      <trkpt lat="46.15902" lon="6.38725">
        <ele>794.666748</ele>
        <time>2011-09-25T07:04:15Z</time>
      </trkpt>
      <trkpt lat="46.15901" lon="6.38753">
        <ele>795.6281738</ele>
        <time>2011-09-25T07:04:19Z</time>
      </trkpt>
      <trkpt lat="46.15908" lon="6.3877">
        <ele>791.782959</ele>
        <time>2011-09-25T07:04:23Z</time>
      </trkpt>
      <trkpt lat="46.15912" lon="6.38792">
        <ele>784.5732422</ele>
        <time>2011-09-25T07:04:28Z</time>
      </trkpt>
      <trkpt lat="46.15904" lon="6.38804">
        <ele>781.689209</ele>
        <time>2011-09-25T07:04:31Z</time>
      </trkpt>
      <trkpt lat="46.15895" lon="6.38809">
        <ele>782.1699219</ele>
        <time>2011-09-25T07:04:33Z</time>
      </trkpt>
      <trkpt lat="46.15873" lon="6.38817">
        <ele>784.0925293</ele>
        <time>2011-09-25T07:04:39Z</time>
      </trkpt>
      <trkpt lat="46.15853" lon="6.38832">
        <ele>782.1699219</ele>
        <time>2011-09-25T07:04:45Z</time>
      </trkpt>
      <trkpt lat="46.15849" lon="6.38839">
        <ele>781.2087402</ele>
        <time>2011-09-25T07:04:47Z</time>
      </trkpt>
      <trkpt lat="46.15831" lon="6.3884">
        <ele>779.2856445</ele>
        <time>2011-09-25T07:04:52Z</time>
      </trkpt>
      <trkpt lat="46.15822" lon="6.38847">
        <ele>779.2856445</ele>
        <time>2011-09-25T07:04:56Z</time>
      </trkpt>
      <trkpt lat="46.15823" lon="6.38843">
        <ele>778.8051758</ele>
        <time>2011-09-25T07:04:59Z</time>
      </trkpt>
      <trkpt lat="46.15835" lon="6.38843">
        <ele>777.3632813</ele>
        <time>2011-09-25T07:05:02Z</time>
      </trkpt>
      <trkpt lat="46.15853" lon="6.38852">
        <ele>774.9599609</ele>
        <time>2011-09-25T07:05:06Z</time>
      </trkpt>
      <trkpt lat="46.15853" lon="6.38857">
        <ele>774.9599609</ele>
        <time>2011-09-25T07:05:07Z</time>
      </trkpt>
      <trkpt lat="46.15857" lon="6.38877">
        <ele>773.5180664</ele>
        <time>2011-09-25T07:05:11Z</time>
      </trkpt>
      <trkpt lat="46.15851" lon="6.38884">
        <ele>771.1147461</ele>
        <time>2011-09-25T07:05:15Z</time>
      </trkpt>
      <trkpt lat="46.15847" lon="6.38895">
        <ele>769.6728516</ele>
        <time>2011-09-25T07:05:18Z</time>
      </trkpt>
      <trkpt lat="46.15839" lon="6.38922">
        <ele>766.7888184</ele>
        <time>2011-09-25T07:05:24Z</time>
      </trkpt>
      <trkpt lat="46.15834" lon="6.38942">
        <ele>762.9433594</ele>
        <time>2011-09-25T07:05:28Z</time>
      </trkpt>
      <trkpt lat="46.15834" lon="6.38963">
        <ele>761.020752</ele>
        <time>2011-09-25T07:05:32Z</time>
      </trkpt>
      <trkpt lat="46.15836" lon="6.38984">
        <ele>760.5400391</ele>
        <time>2011-09-25T07:05:37Z</time>
      </trkpt>
      <trkpt lat="46.15837" lon="6.38999">
        <ele>758.6174316</ele>
        <time>2011-09-25T07:05:41Z</time>
      </trkpt>
      <trkpt lat="46.15832" lon="6.39017">
        <ele>754.291748</ele>
        <time>2011-09-25T07:05:47Z</time>
      </trkpt>
      <trkpt lat="46.15825" lon="6.39032">
        <ele>751.8884277</ele>
        <time>2011-09-25T07:05:50Z</time>
      </trkpt>
      <trkpt lat="46.15815" lon="6.39052">
        <ele>748.5236816</ele>
        <time>2011-09-25T07:05:55Z</time>
      </trkpt>
      <trkpt lat="46.15805" lon="6.39071">
        <ele>746.6010742</ele>
        <time>2011-09-25T07:06:00Z</time>
      </trkpt>
      <trkpt lat="46.15802" lon="6.39091">
        <ele>748.5236816</ele>
        <time>2011-09-25T07:06:04Z</time>
      </trkpt>
      <trkpt lat="46.158" lon="6.39109">
        <ele>746.6010742</ele>
        <time>2011-09-25T07:06:08Z</time>
      </trkpt>
      <trkpt lat="46.15795" lon="6.39122">
        <ele>744.6782227</ele>
        <time>2011-09-25T07:06:11Z</time>
      </trkpt>
      <trkpt lat="46.15784" lon="6.39144">
        <ele>742.2751465</ele>
        <time>2011-09-25T07:06:16Z</time>
      </trkpt>
      <trkpt lat="46.15773" lon="6.39163">
        <ele>739.8718262</ele>
        <time>2011-09-25T07:06:20Z</time>
      </trkpt>
      <trkpt lat="46.15768" lon="6.39172">
        <ele>739.3911133</ele>
        <time>2011-09-25T07:06:22Z</time>
      </trkpt>
      <trkpt lat="46.15763" lon="6.39181">
        <ele>739.3911133</ele>
        <time>2011-09-25T07:06:24Z</time>
      </trkpt>
      <trkpt lat="46.15757" lon="6.39196">
        <ele>736.5073242</ele>
        <time>2011-09-25T07:06:27Z</time>
      </trkpt>
      <trkpt lat="46.1575" lon="6.39228">
        <ele>733.1425781</ele>
        <time>2011-09-25T07:06:33Z</time>
      </trkpt>
      <trkpt lat="46.15744" lon="6.39254">
        <ele>730.7392578</ele>
        <time>2011-09-25T07:06:38Z</time>
      </trkpt>
      <trkpt lat="46.15739" lon="6.39273">
        <ele>729.777832</ele>
        <time>2011-09-25T07:06:42Z</time>
      </trkpt>
      <trkpt lat="46.15729" lon="6.39302">
        <ele>729.2971191</ele>
        <time>2011-09-25T07:06:48Z</time>
      </trkpt>
      <trkpt lat="46.1572" lon="6.39321">
        <ele>730.2585449</ele>
        <time>2011-09-25T07:06:52Z</time>
      </trkpt>
      <trkpt lat="46.15713" lon="6.39336">
        <ele>730.2585449</ele>
        <time>2011-09-25T07:06:56Z</time>
      </trkpt>
      <trkpt lat="46.157" lon="6.39361">
        <ele>728.3359375</ele>
        <time>2011-09-25T07:07:02Z</time>
      </trkpt>
      <trkpt lat="46.15696" lon="6.39386">
        <ele>727.8552246</ele>
        <time>2011-09-25T07:07:07Z</time>
      </trkpt>
      <trkpt lat="46.15682" lon="6.39413">
        <ele>726.894043</ele>
        <time>2011-09-25T07:07:13Z</time>
      </trkpt>
      <trkpt lat="46.15668" lon="6.39422">
        <ele>724.9714355</ele>
        <time>2011-09-25T07:07:18Z</time>
      </trkpt>
      <trkpt lat="46.15654" lon="6.39426">
        <ele>722.0874023</ele>
        <time>2011-09-25T07:07:23Z</time>
      </trkpt>
      <trkpt lat="46.15637" lon="6.39435">
        <ele>718.7229004</ele>
        <time>2011-09-25T07:07:28Z</time>
      </trkpt>
      <trkpt lat="46.15616" lon="6.39445">
        <ele>714.8774414</ele>
        <time>2011-09-25T07:07:34Z</time>
      </trkpt>
      <trkpt lat="46.15606" lon="6.39453">
        <ele>712.954834</ele>
        <time>2011-09-25T07:07:38Z</time>
      </trkpt>
      <trkpt lat="46.15589" lon="6.39463">
        <ele>710.0708008</ele>
        <time>2011-09-25T07:07:43Z</time>
      </trkpt>
      <trkpt lat="46.15582" lon="6.39479">
        <ele>708.6289063</ele>
        <time>2011-09-25T07:07:47Z</time>
      </trkpt>
      <trkpt lat="46.15582" lon="6.39501">
        <ele>706.7062988</ele>
        <time>2011-09-25T07:07:51Z</time>
      </trkpt>
      <trkpt lat="46.15591" lon="6.39526">
        <ele>706.2255859</ele>
        <time>2011-09-25T07:07:56Z</time>
      </trkpt>
      <trkpt lat="46.15601" lon="6.3954">
        <ele>706.2255859</ele>
        <time>2011-09-25T07:08:00Z</time>
      </trkpt>
      <trkpt lat="46.15608" lon="6.39567">
        <ele>706.7062988</ele>
        <time>2011-09-25T07:08:05Z</time>
      </trkpt>
      <trkpt lat="46.15611" lon="6.39595">
        <ele>705.2644043</ele>
        <time>2011-09-25T07:08:10Z</time>
      </trkpt>
      <trkpt lat="46.15613" lon="6.39612">
        <ele>703.3417969</ele>
        <time>2011-09-25T07:08:13Z</time>
      </trkpt>
      <trkpt lat="46.15612" lon="6.39634">
        <ele>701.4191895</ele>
        <time>2011-09-25T07:08:17Z</time>
      </trkpt>
      <trkpt lat="46.15607" lon="6.39662">
        <ele>698.5349121</ele>
        <time>2011-09-25T07:08:22Z</time>
      </trkpt>
      <trkpt lat="46.15607" lon="6.39689">
        <ele>695.651123</ele>
        <time>2011-09-25T07:08:27Z</time>
      </trkpt>
      <trkpt lat="46.15614" lon="6.39721">
        <ele>692.2866211</ele>
        <time>2011-09-25T07:08:33Z</time>
      </trkpt>
      <trkpt lat="46.15627" lon="6.39739">
        <ele>689.8833008</ele>
        <time>2011-09-25T07:08:38Z</time>
      </trkpt>
      <trkpt lat="46.15644" lon="6.39751">
        <ele>688.4414063</ele>
        <time>2011-09-25T07:08:43Z</time>
      </trkpt>
      <trkpt lat="46.15666" lon="6.39765">
        <ele>686.9992676</ele>
        <time>2011-09-25T07:08:50Z</time>
      </trkpt>
      <trkpt lat="46.15682" lon="6.39774">
        <ele>686.5187988</ele>
        <time>2011-09-25T07:08:55Z</time>
      </trkpt>
      <trkpt lat="46.157" lon="6.39788">
        <ele>686.0380859</ele>
        <time>2011-09-25T07:09:01Z</time>
      </trkpt>
      <trkpt lat="46.15713" lon="6.39802">
        <ele>682.6733398</ele>
        <time>2011-09-25T07:09:06Z</time>
      </trkpt>
      <trkpt lat="46.15725" lon="6.39829">
        <ele>681.2314453</ele>
        <time>2011-09-25T07:09:12Z</time>
      </trkpt>
      <trkpt lat="46.15722" lon="6.39845">
        <ele>679.7893066</ele>
        <time>2011-09-25T07:09:15Z</time>
      </trkpt>
      <trkpt lat="46.15712" lon="6.39871">
        <ele>677.3862305</ele>
        <time>2011-09-25T07:09:20Z</time>
      </trkpt>
      <trkpt lat="46.15703" lon="6.399">
        <ele>674.0214844</ele>
        <time>2011-09-25T07:09:26Z</time>
      </trkpt>
      <trkpt lat="46.15698" lon="6.39917">
        <ele>672.098877</ele>
        <time>2011-09-25T07:09:30Z</time>
      </trkpt>
      <trkpt lat="46.15693" lon="6.39935">
        <ele>671.1376953</ele>
        <time>2011-09-25T07:09:34Z</time>
      </trkpt>
      <trkpt lat="46.15688" lon="6.39963">
        <ele>668.734375</ele>
        <time>2011-09-25T07:09:39Z</time>
      </trkpt>
      <trkpt lat="46.15692" lon="6.3998">
        <ele>669.2150879</ele>
        <time>2011-09-25T07:09:43Z</time>
      </trkpt>
      <trkpt lat="46.15698" lon="6.39983">
        <ele>669.6958008</ele>
        <time>2011-09-25T07:09:45Z</time>
      </trkpt>
      <trkpt lat="46.15719" lon="6.3998">
        <ele>670.1762695</ele>
        <time>2011-09-25T07:09:51Z</time>
      </trkpt>
      <trkpt lat="46.15735" lon="6.39975">
        <ele>671.1376953</ele>
        <time>2011-09-25T07:09:56Z</time>
      </trkpt>
      <trkpt lat="46.15752" lon="6.39966">
        <ele>671.6181641</ele>
        <time>2011-09-25T07:10:02Z</time>
      </trkpt>
      <trkpt lat="46.15766" lon="6.39957">
        <ele>673.0603027</ele>
        <time>2011-09-25T07:10:07Z</time>
      </trkpt>
      <trkpt lat="46.15773" lon="6.39955">
        <ele>673.5410156</ele>
        <time>2011-09-25T07:10:09Z</time>
      </trkpt>
      <trkpt lat="46.15792" lon="6.39965">
        <ele>674.0214844</ele>
        <time>2011-09-25T07:10:15Z</time>
      </trkpt>
      <trkpt lat="46.15799" lon="6.39976">
        <ele>673.5410156</ele>
        <time>2011-09-25T07:10:18Z</time>
      </trkpt>
      <trkpt lat="46.158" lon="6.39979">
        <ele>673.5410156</ele>
        <time>2011-09-25T07:10:19Z</time>
      </trkpt>
      <trkpt lat="46.15808" lon="6.39999">
        <ele>674.0214844</ele>
        <time>2011-09-25T07:10:25Z</time>
      </trkpt>
      <trkpt lat="46.15802" lon="6.40019">
        <ele>673.0603027</ele>
        <time>2011-09-25T07:10:30Z</time>
      </trkpt>
      <trkpt lat="46.15795" lon="6.40035">
        <ele>674.0214844</ele>
        <time>2011-09-25T07:10:33Z</time>
      </trkpt>
      <trkpt lat="46.15785" lon="6.40057">
        <ele>673.5410156</ele>
        <time>2011-09-25T07:10:37Z</time>
      </trkpt>
      <trkpt lat="46.15779" lon="6.40066">
        <ele>673.0603027</ele>
        <time>2011-09-25T07:10:39Z</time>
      </trkpt>
      <trkpt lat="46.1577" lon="6.40082">
        <ele>669.6958008</ele>
        <time>2011-09-25T07:10:44Z</time>
      </trkpt>
      <trkpt lat="46.1576" lon="6.40098">
        <ele>668.734375</ele>
        <time>2011-09-25T07:10:49Z</time>
      </trkpt>
      <trkpt lat="46.15751" lon="6.40115">
        <ele>666.8115234</ele>
        <time>2011-09-25T07:10:54Z</time>
      </trkpt>
      <trkpt lat="46.1574" lon="6.40133">
        <ele>664.4082031</ele>
        <time>2011-09-25T07:10:59Z</time>
      </trkpt>
      <trkpt lat="46.15733" lon="6.40145">
        <ele>662.005127</ele>
        <time>2011-09-25T07:11:04Z</time>
      </trkpt>
      <trkpt lat="46.15721" lon="6.40161">
        <ele>661.0437012</ele>
        <time>2011-09-25T07:11:08Z</time>
      </trkpt>
      <trkpt lat="46.1571" lon="6.40179">
        <ele>662.4855957</ele>
        <time>2011-09-25T07:11:12Z</time>
      </trkpt>
      <trkpt lat="46.15696" lon="6.40195">
        <ele>662.4855957</ele>
        <time>2011-09-25T07:11:17Z</time>
      </trkpt>
      <trkpt lat="46.15684" lon="6.40206">
        <ele>662.4855957</ele>
        <time>2011-09-25T07:11:20Z</time>
      </trkpt>
      <trkpt lat="46.15671" lon="6.40212">
        <ele>664.4082031</ele>
        <time>2011-09-25T07:11:23Z</time>
      </trkpt>
      <trkpt lat="46.15651" lon="6.40213">
        <ele>666.8115234</ele>
        <time>2011-09-25T07:11:29Z</time>
      </trkpt>
      <trkpt lat="46.15652" lon="6.40215">
        <ele>666.8115234</ele>
        <time>2011-09-25T07:11:30Z</time>
      </trkpt>
      <trkpt lat="46.15664" lon="6.40238">
        <ele>660.5629883</ele>
        <time>2011-09-25T07:11:35Z</time>
      </trkpt>
      <trkpt lat="46.1567" lon="6.40256">
        <ele>657.1984863</ele>
        <time>2011-09-25T07:11:39Z</time>
      </trkpt>
      <trkpt lat="46.1567" lon="6.40261">
        <ele>657.1984863</ele>
        <time>2011-09-25T07:11:40Z</time>
      </trkpt>
      <trkpt lat="46.15661" lon="6.40284">
        <ele>658.6403809</ele>
        <time>2011-09-25T07:11:45Z</time>
      </trkpt>
      <trkpt lat="46.15652" lon="6.40295">
        <ele>660.5629883</ele>
        <time>2011-09-25T07:11:48Z</time>
      </trkpt>
      <trkpt lat="46.15639" lon="6.40287">
        <ele>660.5629883</ele>
        <time>2011-09-25T07:11:53Z</time>
      </trkpt>
      <trkpt lat="46.15628" lon="6.40282">
        <ele>660.5629883</ele>
        <time>2011-09-25T07:11:56Z</time>
      </trkpt>
      <trkpt lat="46.15621" lon="6.40261">
        <ele>662.4855957</ele>
        <time>2011-09-25T07:12:01Z</time>
      </trkpt>
      <trkpt lat="46.15617" lon="6.40243">
        <ele>663.9274902</ele>
        <time>2011-09-25T07:12:05Z</time>
      </trkpt>
      <trkpt lat="46.15613" lon="6.40226">
        <ele>662.9663086</ele>
        <time>2011-09-25T07:12:10Z</time>
      </trkpt>
      <trkpt lat="46.15604" lon="6.40215">
        <ele>661.0437012</ele>
        <time>2011-09-25T07:12:16Z</time>
      </trkpt>
      <trkpt lat="46.15596" lon="6.40215">
        <ele>662.005127</ele>
        <time>2011-09-25T07:12:20Z</time>
      </trkpt>
      <trkpt lat="46.15582" lon="6.40218">
        <ele>664.888916</ele>
        <time>2011-09-25T07:12:25Z</time>
      </trkpt>
      <trkpt lat="46.15568" lon="6.40207">
        <ele>665.3696289</ele>
        <time>2011-09-25T07:12:30Z</time>
      </trkpt>
      <trkpt lat="46.15565" lon="6.40204">
        <ele>664.888916</ele>
        <time>2011-09-25T07:12:31Z</time>
      </trkpt>
      <trkpt lat="46.15552" lon="6.4019">
        <ele>661.5244141</ele>
        <time>2011-09-25T07:12:36Z</time>
      </trkpt>
      <trkpt lat="46.15541" lon="6.4018">
        <ele>654.795166</ele>
        <time>2011-09-25T07:12:41Z</time>
      </trkpt>
      <trkpt lat="46.1553" lon="6.40168">
        <ele>649.5078125</ele>
        <time>2011-09-25T07:12:45Z</time>
      </trkpt>
      <trkpt lat="46.15523" lon="6.40165">
        <ele>648.065918</ele>
        <time>2011-09-25T07:12:47Z</time>
      </trkpt>
      <trkpt lat="46.15513" lon="6.40163">
        <ele>643.7399902</ele>
        <time>2011-09-25T07:12:51Z</time>
      </trkpt>
      <trkpt lat="46.15499" lon="6.40151">
        <ele>642.2980957</ele>
        <time>2011-09-25T07:12:57Z</time>
      </trkpt>
      <trkpt lat="46.15486" lon="6.40144">
        <ele>644.7011719</ele>
        <time>2011-09-25T07:13:02Z</time>
      </trkpt>
      <trkpt lat="46.15473" lon="6.40137">
        <ele>646.6240234</ele>
        <time>2011-09-25T07:13:07Z</time>
      </trkpt>
      <trkpt lat="46.15462" lon="6.40129">
        <ele>649.5078125</ele>
        <time>2011-09-25T07:13:11Z</time>
      </trkpt>
      <trkpt lat="46.1545" lon="6.40115">
        <ele>650.949707</ele>
        <time>2011-09-25T07:13:16Z</time>
      </trkpt>
      <trkpt lat="46.15446" lon="6.40113">
        <ele>651.4304199</ele>
        <time>2011-09-25T07:13:18Z</time>
      </trkpt>
      <trkpt lat="46.15443" lon="6.40116">
        <ele>649.5078125</ele>
        <time>2011-09-25T07:13:21Z</time>
      </trkpt>
      <trkpt lat="46.15432" lon="6.4012">
        <ele>648.5463867</ele>
        <time>2011-09-25T07:13:27Z</time>
      </trkpt>
      <trkpt lat="46.15418" lon="6.40109">
        <ele>650.949707</ele>
        <time>2011-09-25T07:13:32Z</time>
      </trkpt>
      <trkpt lat="46.1541" lon="6.40104">
        <ele>655.2758789</ele>
        <time>2011-09-25T07:13:36Z</time>
      </trkpt>
      <trkpt lat="46.15391" lon="6.40101">
        <ele>652.8725586</ele>
        <time>2011-09-25T07:13:42Z</time>
      </trkpt>
      <trkpt lat="46.15379" lon="6.40092">
        <ele>658.6403809</ele>
        <time>2011-09-25T07:13:48Z</time>
      </trkpt>
      <trkpt lat="46.15369" lon="6.40094">
        <ele>659.6018066</ele>
        <time>2011-09-25T07:13:52Z</time>
      </trkpt>
      <trkpt lat="46.15362" lon="6.40094">
        <ele>654.795166</ele>
        <time>2011-09-25T07:13:56Z</time>
      </trkpt>
      <trkpt lat="46.15353" lon="6.40094">
        <ele>649.9885254</ele>
        <time>2011-09-25T07:14:00Z</time>
      </trkpt>
      <trkpt lat="46.15337" lon="6.40103">
        <ele>640.855957</ele>
        <time>2011-09-25T07:14:06Z</time>
      </trkpt>
      <trkpt lat="46.15326" lon="6.40104">
        <ele>636.5302734</ele>
        <time>2011-09-25T07:14:10Z</time>
      </trkpt>
      <trkpt lat="46.1531" lon="6.401">
        <ele>630.762207</ele>
        <time>2011-09-25T07:14:16Z</time>
      </trkpt>
      <trkpt lat="46.15294" lon="6.40107">
        <ele>626.9169922</ele>
        <time>2011-09-25T07:14:22Z</time>
      </trkpt>
      <trkpt lat="46.1529" lon="6.40108">
        <ele>626.9169922</ele>
        <time>2011-09-25T07:14:23Z</time>
      </trkpt>
      <trkpt lat="46.15268" lon="6.40105">
        <ele>624.5136719</ele>
        <time>2011-09-25T07:14:29Z</time>
      </trkpt>
      <trkpt lat="46.15265" lon="6.40101">
        <ele>624.9943848</ele>
        <time>2011-09-25T07:14:30Z</time>
      </trkpt>
      <trkpt lat="46.15252" lon="6.40089">
        <ele>626.4362793</ele>
        <time>2011-09-25T07:14:35Z</time>
      </trkpt>
      <trkpt lat="46.15239" lon="6.40079">
        <ele>629.3200684</ele>
        <time>2011-09-25T07:14:40Z</time>
      </trkpt>
      <trkpt lat="46.15219" lon="6.40064">
        <ele>634.6074219</ele>
        <time>2011-09-25T07:14:46Z</time>
      </trkpt>
      <trkpt lat="46.15207" lon="6.4006">
        <ele>635.5686035</ele>
        <time>2011-09-25T07:14:50Z</time>
      </trkpt>
      <trkpt lat="46.15195" lon="6.40052">
        <ele>636.5302734</ele>
        <time>2011-09-25T07:14:55Z</time>
      </trkpt>
      <trkpt lat="46.15186" lon="6.40054">
        <ele>637.4914551</ele>
        <time>2011-09-25T07:14:58Z</time>
      </trkpt>
      <trkpt lat="46.15179" lon="6.40045">
        <ele>636.5302734</ele>
        <time>2011-09-25T07:15:02Z</time>
      </trkpt>
      <trkpt lat="46.15162" lon="6.40042">
        <ele>635.0881348</ele>
        <time>2011-09-25T07:15:07Z</time>
      </trkpt>
      <trkpt lat="46.1515" lon="6.40043">
        <ele>635.0881348</ele>
        <time>2011-09-25T07:15:11Z</time>
      </trkpt>
      <trkpt lat="46.15137" lon="6.4005">
        <ele>635.0881348</ele>
        <time>2011-09-25T07:15:15Z</time>
      </trkpt>
      <trkpt lat="46.15114" lon="6.40053">
        <ele>634.6074219</ele>
        <time>2011-09-25T07:15:22Z</time>
      </trkpt>
      <trkpt lat="46.15101" lon="6.4006">
        <ele>635.0881348</ele>
        <time>2011-09-25T07:15:26Z</time>
      </trkpt>
      <trkpt lat="46.15087" lon="6.40067">
        <ele>636.5302734</ele>
        <time>2011-09-25T07:15:30Z</time>
      </trkpt>
      <trkpt lat="46.15061" lon="6.40072">
        <ele>638.4528809</ele>
        <time>2011-09-25T07:15:37Z</time>
      </trkpt>
      <trkpt lat="46.15046" lon="6.40072">
        <ele>639.8947754</ele>
        <time>2011-09-25T07:15:41Z</time>
      </trkpt>
      <trkpt lat="46.15036" lon="6.40072">
        <ele>639.8947754</ele>
        <time>2011-09-25T07:15:44Z</time>
      </trkpt>
      <trkpt lat="46.15023" lon="6.40073">
        <ele>638.4528809</ele>
        <time>2011-09-25T07:15:48Z</time>
      </trkpt>
      <trkpt lat="46.1501" lon="6.40074">
        <ele>634.6074219</ele>
        <time>2011-09-25T07:15:53Z</time>
      </trkpt>
      <trkpt lat="46.1499" lon="6.40077">
        <ele>625.9555664</ele>
        <time>2011-09-25T07:16:00Z</time>
      </trkpt>
      <trkpt lat="46.14979" lon="6.4008">
        <ele>623.5524902</ele>
        <time>2011-09-25T07:16:04Z</time>
      </trkpt>
      <trkpt lat="46.14967" lon="6.40093">
        <ele>622.1103516</ele>
        <time>2011-09-25T07:16:10Z</time>
      </trkpt>
      <trkpt lat="46.1496" lon="6.40109">
        <ele>621.6296387</ele>
        <time>2011-09-25T07:16:14Z</time>
      </trkpt>
      <trkpt lat="46.14953" lon="6.40113">
        <ele>620.668457</ele>
        <time>2011-09-25T07:16:16Z</time>
      </trkpt>
      <trkpt lat="46.14926" lon="6.40112">
        <ele>614.4196777</ele>
        <time>2011-09-25T07:16:23Z</time>
      </trkpt>
      <trkpt lat="46.14913" lon="6.40114">
        <ele>611.0551758</ele>
        <time>2011-09-25T07:16:27Z</time>
      </trkpt>
      <trkpt lat="46.149" lon="6.40113">
        <ele>610.5744629</ele>
        <time>2011-09-25T07:16:31Z</time>
      </trkpt>
      <trkpt lat="46.14887" lon="6.40111">
        <ele>611.0551758</ele>
        <time>2011-09-25T07:16:35Z</time>
      </trkpt>
      <trkpt lat="46.14871" lon="6.4011">
        <ele>611.5358887</ele>
        <time>2011-09-25T07:16:40Z</time>
      </trkpt>
      <trkpt lat="46.14861" lon="6.40108">
        <ele>611.0551758</ele>
        <time>2011-09-25T07:16:44Z</time>
      </trkpt>
      <trkpt lat="46.14845" lon="6.40106">
        <ele>613.4584961</ele>
        <time>2011-09-25T07:16:49Z</time>
      </trkpt>
      <trkpt lat="46.1484" lon="6.40102">
        <ele>614.4196777</ele>
        <time>2011-09-25T07:16:51Z</time>
      </trkpt>
      <trkpt lat="46.14829" lon="6.40083">
        <ele>617.7841797</ele>
        <time>2011-09-25T07:16:56Z</time>
      </trkpt>
      <trkpt lat="46.14822" lon="6.40063">
        <ele>621.6296387</ele>
        <time>2011-09-25T07:17:01Z</time>
      </trkpt>
      <trkpt lat="46.14811" lon="6.40046">
        <ele>623.5524902</ele>
        <time>2011-09-25T07:17:06Z</time>
      </trkpt>
      <trkpt lat="46.14801" lon="6.40036">
        <ele>623.0717773</ele>
        <time>2011-09-25T07:17:10Z</time>
      </trkpt>
      <trkpt lat="46.14784" lon="6.40036">
        <ele>624.5136719</ele>
        <time>2011-09-25T07:17:15Z</time>
      </trkpt>
      <trkpt lat="46.14778" lon="6.40035">
        <ele>624.5136719</ele>
        <time>2011-09-25T07:17:17Z</time>
      </trkpt>
      <trkpt lat="46.14764" lon="6.40014">
        <ele>620.1877441</ele>
        <time>2011-09-25T07:17:23Z</time>
      </trkpt>
      <trkpt lat="46.14752" lon="6.4">
        <ele>620.668457</ele>
        <time>2011-09-25T07:17:28Z</time>
      </trkpt>
      <trkpt lat="46.1474" lon="6.3999">
        <ele>620.668457</ele>
        <time>2011-09-25T07:17:33Z</time>
      </trkpt>
      <trkpt lat="46.14722" lon="6.39995">
        <ele>621.6296387</ele>
        <time>2011-09-25T07:17:39Z</time>
      </trkpt>
      <trkpt lat="46.14714" lon="6.40001">
        <ele>621.1491699</ele>
        <time>2011-09-25T07:17:42Z</time>
      </trkpt>
      <trkpt lat="46.14693" lon="6.40011">
        <ele>617.3037109</ele>
        <time>2011-09-25T07:17:49Z</time>
      </trkpt>
      <trkpt lat="46.14677" lon="6.40007">
        <ele>618.2648926</ele>
        <time>2011-09-25T07:17:54Z</time>
      </trkpt>
      <trkpt lat="46.14663" lon="6.39997">
        <ele>615.3811035</ele>
        <time>2011-09-25T07:17:59Z</time>
      </trkpt>
      <trkpt lat="46.14649" lon="6.39978">
        <ele>617.3037109</ele>
        <time>2011-09-25T07:18:04Z</time>
      </trkpt>
      <trkpt lat="46.1464" lon="6.39963">
        <ele>616.822998</ele>
        <time>2011-09-25T07:18:08Z</time>
      </trkpt>
      <trkpt lat="46.14628" lon="6.39947">
        <ele>616.3422852</ele>
        <time>2011-09-25T07:18:13Z</time>
      </trkpt>
      <trkpt lat="46.1461" lon="6.39941">
        <ele>616.822998</ele>
        <time>2011-09-25T07:18:19Z</time>
      </trkpt>
      <trkpt lat="46.14597" lon="6.39929">
        <ele>617.3037109</ele>
        <time>2011-09-25T07:18:23Z</time>
      </trkpt>
      <trkpt lat="46.14587" lon="6.3991">
        <ele>617.7841797</ele>
        <time>2011-09-25T07:18:28Z</time>
      </trkpt>
      <trkpt lat="46.14576" lon="6.39888">
        <ele>618.7456055</ele>
        <time>2011-09-25T07:18:33Z</time>
      </trkpt>
      <trkpt lat="46.14569" lon="6.39875">
        <ele>618.2648926</ele>
        <time>2011-09-25T07:18:37Z</time>
      </trkpt>
      <trkpt lat="46.14564" lon="6.39863">
        <ele>619.7070313</ele>
        <time>2011-09-25T07:18:41Z</time>
      </trkpt>
      <trkpt lat="46.14549" lon="6.3985">
        <ele>618.7456055</ele>
        <time>2011-09-25T07:18:46Z</time>
      </trkpt>
      <trkpt lat="46.14539" lon="6.39844">
        <ele>615.3811035</ele>
        <time>2011-09-25T07:18:50Z</time>
      </trkpt>
      <trkpt lat="46.14527" lon="6.39837">
        <ele>616.3422852</ele>
        <time>2011-09-25T07:18:54Z</time>
      </trkpt>
      <trkpt lat="46.14518" lon="6.39829">
        <ele>615.3811035</ele>
        <time>2011-09-25T07:18:58Z</time>
      </trkpt>
      <trkpt lat="46.14507" lon="6.39821">
        <ele>612.4970703</ele>
        <time>2011-09-25T07:19:03Z</time>
      </trkpt>
      <trkpt lat="46.14499" lon="6.3981">
        <ele>614.4196777</ele>
        <time>2011-09-25T07:19:07Z</time>
      </trkpt>
      <trkpt lat="46.14485" lon="6.398">
        <ele>616.3422852</ele>
        <time>2011-09-25T07:19:12Z</time>
      </trkpt>
      <trkpt lat="46.14478" lon="6.39799">
        <ele>615.3811035</ele>
        <time>2011-09-25T07:19:14Z</time>
      </trkpt>
      <trkpt lat="46.14461" lon="6.39805">
        <ele>612.0166016</ele>
        <time>2011-09-25T07:19:21Z</time>
      </trkpt>
      <trkpt lat="46.14454" lon="6.39803">
        <ele>612.0166016</ele>
        <time>2011-09-25T07:19:23Z</time>
      </trkpt>
      <trkpt lat="46.14443" lon="6.39811">
        <ele>612.9777832</ele>
        <time>2011-09-25T07:19:28Z</time>
      </trkpt>
      <trkpt lat="46.14435" lon="6.39831">
        <ele>612.4970703</ele>
        <time>2011-09-25T07:19:33Z</time>
      </trkpt>
      <trkpt lat="46.14428" lon="6.39848">
        <ele>612.0166016</ele>
        <time>2011-09-25T07:19:38Z</time>
      </trkpt>
      <trkpt lat="46.14421" lon="6.39866">
        <ele>611.0551758</ele>
        <time>2011-09-25T07:19:43Z</time>
      </trkpt>
      <trkpt lat="46.14416" lon="6.39879">
        <ele>610.5744629</ele>
        <time>2011-09-25T07:19:47Z</time>
      </trkpt>
      <trkpt lat="46.1441" lon="6.39893">
        <ele>610.5744629</ele>
        <time>2011-09-25T07:19:52Z</time>
      </trkpt>
      <trkpt lat="46.14403" lon="6.39909">
        <ele>609.6132813</ele>
        <time>2011-09-25T07:19:57Z</time>
      </trkpt>
      <trkpt lat="46.14397" lon="6.39926">
        <ele>608.6518555</ele>
        <time>2011-09-25T07:20:02Z</time>
      </trkpt>
      <trkpt lat="46.14391" lon="6.39941">
        <ele>608.1713867</ele>
        <time>2011-09-25T07:20:07Z</time>
      </trkpt>
      <trkpt lat="46.14383" lon="6.3996">
        <ele>607.6906738</ele>
        <time>2011-09-25T07:20:13Z</time>
      </trkpt>
      <trkpt lat="46.14377" lon="6.39978">
        <ele>608.6518555</ele>
        <time>2011-09-25T07:20:18Z</time>
      </trkpt>
      <trkpt lat="46.14368" lon="6.39999">
        <ele>607.6906738</ele>
        <time>2011-09-25T07:20:24Z</time>
      </trkpt>
      <trkpt lat="46.14364" lon="6.40008">
        <ele>607.2099609</ele>
        <time>2011-09-25T07:20:27Z</time>
      </trkpt>
      <trkpt lat="46.1435" lon="6.40022">
        <ele>605.7680664</ele>
        <time>2011-09-25T07:20:33Z</time>
      </trkpt>
      <trkpt lat="46.14345" lon="6.40028">
        <ele>605.7680664</ele>
        <time>2011-09-25T07:20:36Z</time>
      </trkpt>
      <trkpt lat="46.14337" lon="6.40045">
        <ele>605.7680664</ele>
        <time>2011-09-25T07:20:41Z</time>
      </trkpt>
      <trkpt lat="46.14335" lon="6.40048">
        <ele>606.2485352</ele>
        <time>2011-09-25T07:20:42Z</time>
      </trkpt>
      <trkpt lat="46.14321" lon="6.40051">
        <ele>607.6906738</ele>
        <time>2011-09-25T07:20:47Z</time>
      </trkpt>
      <trkpt lat="46.14307" lon="6.40037">
        <ele>607.6906738</ele>
        <time>2011-09-25T07:20:53Z</time>
      </trkpt>
      <trkpt lat="46.14294" lon="6.40013">
        <ele>607.6906738</ele>
        <time>2011-09-25T07:21:01Z</time>
      </trkpt>
      <trkpt lat="46.14288" lon="6.39995">
        <ele>608.1713867</ele>
        <time>2011-09-25T07:21:06Z</time>
      </trkpt>
      <trkpt lat="46.1428" lon="6.39976">
        <ele>608.6518555</ele>
        <time>2011-09-25T07:21:10Z</time>
      </trkpt>
      <trkpt lat="46.14277" lon="6.39969">
        <ele>608.1713867</ele>
        <time>2011-09-25T07:21:12Z</time>
      </trkpt>
      <trkpt lat="46.14266" lon="6.39945">
        <ele>607.6906738</ele>
        <time>2011-09-25T07:21:18Z</time>
      </trkpt>
      <trkpt lat="46.14264" lon="6.39942">
        <ele>607.6906738</ele>
        <time>2011-09-25T07:21:19Z</time>
      </trkpt>
      <trkpt lat="46.14253" lon="6.39919">
        <ele>607.6906738</ele>
        <time>2011-09-25T07:21:25Z</time>
      </trkpt>
      <trkpt lat="46.14252" lon="6.39915">
        <ele>607.6906738</ele>
        <time>2011-09-25T07:21:26Z</time>
      </trkpt>
      <trkpt lat="46.14245" lon="6.39896">
        <ele>607.6906738</ele>
        <time>2011-09-25T07:21:31Z</time>
      </trkpt>
      <trkpt lat="46.14235" lon="6.39879">
        <ele>607.6906738</ele>
        <time>2011-09-25T07:21:36Z</time>
      </trkpt>
      <trkpt lat="46.14226" lon="6.39868">
        <ele>607.2099609</ele>
        <time>2011-09-25T07:21:40Z</time>
      </trkpt>
      <trkpt lat="46.14217" lon="6.39854">
        <ele>606.729248</ele>
        <time>2011-09-25T07:21:44Z</time>
      </trkpt>
      <trkpt lat="46.14205" lon="6.3984">
        <ele>606.2485352</ele>
        <time>2011-09-25T07:21:49Z</time>
      </trkpt>
      <trkpt lat="46.14196" lon="6.39828">
        <ele>606.729248</ele>
        <time>2011-09-25T07:21:53Z</time>
      </trkpt>
      <trkpt lat="46.14186" lon="6.39815">
        <ele>606.729248</ele>
        <time>2011-09-25T07:21:57Z</time>
      </trkpt>
      <trkpt lat="46.14174" lon="6.39799">
        <ele>606.2485352</ele>
        <time>2011-09-25T07:22:02Z</time>
      </trkpt>
      <trkpt lat="46.14163" lon="6.39789">
        <ele>605.7680664</ele>
        <time>2011-09-25T07:22:06Z</time>
      </trkpt>
      <trkpt lat="46.14148" lon="6.3978">
        <ele>605.2873535</ele>
        <time>2011-09-25T07:22:11Z</time>
      </trkpt>
      <trkpt lat="46.14135" lon="6.39778">
        <ele>605.7680664</ele>
        <time>2011-09-25T07:22:15Z</time>
      </trkpt>
      <trkpt lat="46.14119" lon="6.39777">
        <ele>607.6906738</ele>
        <time>2011-09-25T07:22:21Z</time>
      </trkpt>
      <trkpt lat="46.14114" lon="6.39777">
        <ele>609.1325684</ele>
        <time>2011-09-25T07:22:23Z</time>
      </trkpt>
    </trkseg>
  </trk>
</gpx>